<?xml version="1.0" encoding="UTF-8" standalone="no" ?>
<gpx xmlns="http://www.topografix.com/GPX/1/1" xmlns:xsi="http://www.w3.org/2001/XMLSchema-instance" xsi:schemaLocation="http://www.topografix.com/GPX/1/1 http://www.topografix.com/GPX/1/1/gpx.xsd" version="1.1" creator="VisuGPX - https://www.visugpx.com">
  <metadata>
    <name>VTT-2021-03-18-01</name>
  </metadata>
  <trk>
    <name><![CDATA[VTT-2021-03-18-01]]></name>
    <extensions>
      <line xmlns="http://www.topografix.com/GPX/gpx_style/0/2">
        <width>4</width>
      </line>
    </extensions>
    <trkseg>
      <trkpt lat="42.91872" lon="1.83652">
        <ele>554.8</ele>
        <time>2021-03-18T13:49:19.000Z</time>
      </trkpt>
      <trkpt lat="42.91871" lon="1.83653">
        <ele>554.8</ele>
        <time>2021-03-18T13:49:20.000Z</time>
      </trkpt>
      <trkpt lat="42.91871" lon="1.83639">
        <ele>551.4</ele>
        <time>2021-03-18T13:50:38.000Z</time>
      </trkpt>
      <trkpt lat="42.91926" lon="1.83587">
        <ele>552.3</ele>
        <time>2021-03-18T13:52:09.000Z</time>
      </trkpt>
      <trkpt lat="42.91936" lon="1.83585">
        <ele>557.2</ele>
        <time>2021-03-18T13:52:28.000Z</time>
      </trkpt>
      <trkpt lat="42.91945" lon="1.83595">
        <ele>557.7</ele>
        <time>2021-03-18T13:52:31.000Z</time>
      </trkpt>
      <trkpt lat="42.91955" lon="1.83607">
        <ele>558</ele>
        <time>2021-03-18T13:52:34.000Z</time>
      </trkpt>
      <trkpt lat="42.91963" lon="1.83616">
        <ele>558.1</ele>
        <time>2021-03-18T13:52:36.000Z</time>
      </trkpt>
      <trkpt lat="42.91972" lon="1.83625">
        <ele>558.2</ele>
        <time>2021-03-18T13:52:38.000Z</time>
      </trkpt>
      <trkpt lat="42.91983" lon="1.83634">
        <ele>558.2</ele>
        <time>2021-03-18T13:52:40.000Z</time>
      </trkpt>
      <trkpt lat="42.91994" lon="1.83643">
        <ele>558.3</ele>
        <time>2021-03-18T13:52:42.000Z</time>
      </trkpt>
      <trkpt lat="42.92005" lon="1.83653">
        <ele>558.2</ele>
        <time>2021-03-18T13:52:44.000Z</time>
      </trkpt>
      <trkpt lat="42.92016" lon="1.83664">
        <ele>558.1</ele>
        <time>2021-03-18T13:52:46.000Z</time>
      </trkpt>
      <trkpt lat="42.92027" lon="1.83675">
        <ele>558.1</ele>
        <time>2021-03-18T13:52:48.000Z</time>
      </trkpt>
      <trkpt lat="42.92038" lon="1.83687">
        <ele>558</ele>
        <time>2021-03-18T13:52:50.000Z</time>
      </trkpt>
      <trkpt lat="42.9205" lon="1.837">
        <ele>557.9</ele>
        <time>2021-03-18T13:52:52.000Z</time>
      </trkpt>
      <trkpt lat="42.92061" lon="1.83712">
        <ele>557.6</ele>
        <time>2021-03-18T13:52:54.000Z</time>
      </trkpt>
      <trkpt lat="42.92072" lon="1.83724">
        <ele>557.4</ele>
        <time>2021-03-18T13:52:56.000Z</time>
      </trkpt>
      <trkpt lat="42.92084" lon="1.83735">
        <ele>557.1</ele>
        <time>2021-03-18T13:52:58.000Z</time>
      </trkpt>
      <trkpt lat="42.92097" lon="1.83746">
        <ele>556.8</ele>
        <time>2021-03-18T13:53:00.000Z</time>
      </trkpt>
      <trkpt lat="42.9211" lon="1.83756">
        <ele>556.6</ele>
        <time>2021-03-18T13:53:02.000Z</time>
      </trkpt>
      <trkpt lat="42.92123" lon="1.83765">
        <ele>556.3</ele>
        <time>2021-03-18T13:53:04.000Z</time>
      </trkpt>
      <trkpt lat="42.92137" lon="1.83774">
        <ele>556.1</ele>
        <time>2021-03-18T13:53:06.000Z</time>
      </trkpt>
      <trkpt lat="42.92151" lon="1.83785">
        <ele>555.7</ele>
        <time>2021-03-18T13:53:08.000Z</time>
      </trkpt>
      <trkpt lat="42.92165" lon="1.83795">
        <ele>555.4</ele>
        <time>2021-03-18T13:53:10.000Z</time>
      </trkpt>
      <trkpt lat="42.9218" lon="1.83805">
        <ele>555.1</ele>
        <time>2021-03-18T13:53:12.000Z</time>
      </trkpt>
      <trkpt lat="42.92195" lon="1.83813">
        <ele>554.9</ele>
        <time>2021-03-18T13:53:14.000Z</time>
      </trkpt>
      <trkpt lat="42.92211" lon="1.83821">
        <ele>554.7</ele>
        <time>2021-03-18T13:53:16.000Z</time>
      </trkpt>
      <trkpt lat="42.92226" lon="1.83828">
        <ele>554.5</ele>
        <time>2021-03-18T13:53:18.000Z</time>
      </trkpt>
      <trkpt lat="42.92241" lon="1.83835">
        <ele>554.2</ele>
        <time>2021-03-18T13:53:20.000Z</time>
      </trkpt>
      <trkpt lat="42.92257" lon="1.83842">
        <ele>553.9</ele>
        <time>2021-03-18T13:53:22.000Z</time>
      </trkpt>
      <trkpt lat="42.92273" lon="1.83851">
        <ele>553.7</ele>
        <time>2021-03-18T13:53:24.000Z</time>
      </trkpt>
      <trkpt lat="42.92288" lon="1.83861">
        <ele>553.5</ele>
        <time>2021-03-18T13:53:26.000Z</time>
      </trkpt>
      <trkpt lat="42.92304" lon="1.83869">
        <ele>553.3</ele>
        <time>2021-03-18T13:53:28.000Z</time>
      </trkpt>
      <trkpt lat="42.92321" lon="1.83875">
        <ele>553.2</ele>
        <time>2021-03-18T13:53:30.000Z</time>
      </trkpt>
      <trkpt lat="42.92336" lon="1.83884">
        <ele>552.8</ele>
        <time>2021-03-18T13:53:32.000Z</time>
      </trkpt>
      <trkpt lat="42.92352" lon="1.83895">
        <ele>552.3</ele>
        <time>2021-03-18T13:53:34.000Z</time>
      </trkpt>
      <trkpt lat="42.92367" lon="1.83906">
        <ele>551.9</ele>
        <time>2021-03-18T13:53:36.000Z</time>
      </trkpt>
      <trkpt lat="42.92382" lon="1.83916">
        <ele>551.6</ele>
        <time>2021-03-18T13:53:38.000Z</time>
      </trkpt>
      <trkpt lat="42.92395" lon="1.83924">
        <ele>551.2</ele>
        <time>2021-03-18T13:53:40.000Z</time>
      </trkpt>
      <trkpt lat="42.92401" lon="1.83934">
        <ele>550.8</ele>
        <time>2021-03-18T13:53:43.000Z</time>
      </trkpt>
      <trkpt lat="42.92398" lon="1.8395">
        <ele>550.5</ele>
        <time>2021-03-18T13:53:46.000Z</time>
      </trkpt>
      <trkpt lat="42.92393" lon="1.83966">
        <ele>550.3</ele>
        <time>2021-03-18T13:53:48.000Z</time>
      </trkpt>
      <trkpt lat="42.92389" lon="1.83986">
        <ele>550</ele>
        <time>2021-03-18T13:53:50.000Z</time>
      </trkpt>
      <trkpt lat="42.9238" lon="1.8401">
        <ele>549.4</ele>
        <time>2021-03-18T13:53:52.000Z</time>
      </trkpt>
      <trkpt lat="42.92375" lon="1.84023">
        <ele>549.1</ele>
        <time>2021-03-18T13:53:53.000Z</time>
      </trkpt>
      <trkpt lat="42.9237" lon="1.84037">
        <ele>548.8</ele>
        <time>2021-03-18T13:53:54.000Z</time>
      </trkpt>
      <trkpt lat="42.92366" lon="1.8405">
        <ele>548.5</ele>
        <time>2021-03-18T13:53:55.000Z</time>
      </trkpt>
      <trkpt lat="42.92362" lon="1.84063">
        <ele>548.1</ele>
        <time>2021-03-18T13:53:56.000Z</time>
      </trkpt>
      <trkpt lat="42.92358" lon="1.84076">
        <ele>547.7</ele>
        <time>2021-03-18T13:53:57.000Z</time>
      </trkpt>
      <trkpt lat="42.92352" lon="1.84088">
        <ele>547.3</ele>
        <time>2021-03-18T13:53:58.000Z</time>
      </trkpt>
      <trkpt lat="42.92347" lon="1.84099">
        <ele>546.9</ele>
        <time>2021-03-18T13:53:59.000Z</time>
      </trkpt>
      <trkpt lat="42.92339" lon="1.84112">
        <ele>546.1</ele>
        <time>2021-03-18T13:54:01.000Z</time>
      </trkpt>
      <trkpt lat="42.92329" lon="1.8412">
        <ele>545.4</ele>
        <time>2021-03-18T13:54:03.000Z</time>
      </trkpt>
      <trkpt lat="42.9234" lon="1.84133">
        <ele>542.8</ele>
        <time>2021-03-18T13:54:10.000Z</time>
      </trkpt>
      <trkpt lat="42.92352" lon="1.8414">
        <ele>542.3</ele>
        <time>2021-03-18T13:54:12.000Z</time>
      </trkpt>
      <trkpt lat="42.92367" lon="1.84145">
        <ele>541.7</ele>
        <time>2021-03-18T13:54:14.000Z</time>
      </trkpt>
      <trkpt lat="42.92382" lon="1.84148">
        <ele>541.2</ele>
        <time>2021-03-18T13:54:16.000Z</time>
      </trkpt>
      <trkpt lat="42.92399" lon="1.84154">
        <ele>540.6</ele>
        <time>2021-03-18T13:54:18.000Z</time>
      </trkpt>
      <trkpt lat="42.92415" lon="1.8416">
        <ele>540.1</ele>
        <time>2021-03-18T13:54:20.000Z</time>
      </trkpt>
      <trkpt lat="42.9243" lon="1.84168">
        <ele>539.6</ele>
        <time>2021-03-18T13:54:22.000Z</time>
      </trkpt>
      <trkpt lat="42.9244" lon="1.84177">
        <ele>539.2</ele>
        <time>2021-03-18T13:54:24.000Z</time>
      </trkpt>
      <trkpt lat="42.92452" lon="1.84182">
        <ele>538.9</ele>
        <time>2021-03-18T13:54:26.000Z</time>
      </trkpt>
      <trkpt lat="42.92464" lon="1.84187">
        <ele>538.5</ele>
        <time>2021-03-18T13:54:28.000Z</time>
      </trkpt>
      <trkpt lat="42.92478" lon="1.84193">
        <ele>538.2</ele>
        <time>2021-03-18T13:54:30.000Z</time>
      </trkpt>
      <trkpt lat="42.92495" lon="1.84201">
        <ele>537.9</ele>
        <time>2021-03-18T13:54:32.000Z</time>
      </trkpt>
      <trkpt lat="42.92511" lon="1.84214">
        <ele>537.5</ele>
        <time>2021-03-18T13:54:34.000Z</time>
      </trkpt>
      <trkpt lat="42.92519" lon="1.84221">
        <ele>537.3</ele>
        <time>2021-03-18T13:54:35.000Z</time>
      </trkpt>
      <trkpt lat="42.92527" lon="1.84228">
        <ele>537.1</ele>
        <time>2021-03-18T13:54:36.000Z</time>
      </trkpt>
      <trkpt lat="42.92534" lon="1.84236">
        <ele>536.9</ele>
        <time>2021-03-18T13:54:37.000Z</time>
      </trkpt>
      <trkpt lat="42.92541" lon="1.84244">
        <ele>536.7</ele>
        <time>2021-03-18T13:54:38.000Z</time>
      </trkpt>
      <trkpt lat="42.92553" lon="1.84261">
        <ele>536.4</ele>
        <time>2021-03-18T13:54:40.000Z</time>
      </trkpt>
      <trkpt lat="42.92567" lon="1.84276">
        <ele>536</ele>
        <time>2021-03-18T13:54:42.000Z</time>
      </trkpt>
      <trkpt lat="42.92583" lon="1.84285">
        <ele>535.6</ele>
        <time>2021-03-18T13:54:44.000Z</time>
      </trkpt>
      <trkpt lat="42.92598" lon="1.84293">
        <ele>535.3</ele>
        <time>2021-03-18T13:54:46.000Z</time>
      </trkpt>
      <trkpt lat="42.92612" lon="1.843">
        <ele>535</ele>
        <time>2021-03-18T13:54:48.000Z</time>
      </trkpt>
      <trkpt lat="42.92627" lon="1.84308">
        <ele>534.6</ele>
        <time>2021-03-18T13:54:50.000Z</time>
      </trkpt>
      <trkpt lat="42.92643" lon="1.84315">
        <ele>534.3</ele>
        <time>2021-03-18T13:54:52.000Z</time>
      </trkpt>
      <trkpt lat="42.92659" lon="1.84323">
        <ele>533.9</ele>
        <time>2021-03-18T13:54:54.000Z</time>
      </trkpt>
      <trkpt lat="42.92675" lon="1.84331">
        <ele>533.5</ele>
        <time>2021-03-18T13:54:56.000Z</time>
      </trkpt>
      <trkpt lat="42.9269" lon="1.8434">
        <ele>533.1</ele>
        <time>2021-03-18T13:54:58.000Z</time>
      </trkpt>
      <trkpt lat="42.92706" lon="1.84348">
        <ele>532.7</ele>
        <time>2021-03-18T13:55:00.000Z</time>
      </trkpt>
      <trkpt lat="42.92721" lon="1.84357">
        <ele>532.3</ele>
        <time>2021-03-18T13:55:02.000Z</time>
      </trkpt>
      <trkpt lat="42.92729" lon="1.84362">
        <ele>532.1</ele>
        <time>2021-03-18T13:55:03.000Z</time>
      </trkpt>
      <trkpt lat="42.92737" lon="1.84368">
        <ele>531.9</ele>
        <time>2021-03-18T13:55:04.000Z</time>
      </trkpt>
      <trkpt lat="42.92745" lon="1.84374">
        <ele>531.8</ele>
        <time>2021-03-18T13:55:05.000Z</time>
      </trkpt>
      <trkpt lat="42.92754" lon="1.8438">
        <ele>531.6</ele>
        <time>2021-03-18T13:55:06.000Z</time>
      </trkpt>
      <trkpt lat="42.92769" lon="1.84393">
        <ele>531.3</ele>
        <time>2021-03-18T13:55:08.000Z</time>
      </trkpt>
      <trkpt lat="42.92785" lon="1.84402">
        <ele>530.9</ele>
        <time>2021-03-18T13:55:10.000Z</time>
      </trkpt>
      <trkpt lat="42.928" lon="1.84411">
        <ele>530.6</ele>
        <time>2021-03-18T13:55:12.000Z</time>
      </trkpt>
      <trkpt lat="42.92814" lon="1.84423">
        <ele>530.3</ele>
        <time>2021-03-18T13:55:14.000Z</time>
      </trkpt>
      <trkpt lat="42.9282" lon="1.84442">
        <ele>530</ele>
        <time>2021-03-18T13:55:16.000Z</time>
      </trkpt>
      <trkpt lat="42.92823" lon="1.84463">
        <ele>529.6</ele>
        <time>2021-03-18T13:55:18.000Z</time>
      </trkpt>
      <trkpt lat="42.92827" lon="1.84474">
        <ele>529.4</ele>
        <time>2021-03-18T13:55:19.000Z</time>
      </trkpt>
      <trkpt lat="42.92834" lon="1.84482">
        <ele>529.2</ele>
        <time>2021-03-18T13:55:20.000Z</time>
      </trkpt>
      <trkpt lat="42.92843" lon="1.84488">
        <ele>529</ele>
        <time>2021-03-18T13:55:21.000Z</time>
      </trkpt>
      <trkpt lat="42.92852" lon="1.84492">
        <ele>528.8</ele>
        <time>2021-03-18T13:55:22.000Z</time>
      </trkpt>
      <trkpt lat="42.92866" lon="1.84502">
        <ele>528.5</ele>
        <time>2021-03-18T13:55:24.000Z</time>
      </trkpt>
      <trkpt lat="42.92878" lon="1.84515">
        <ele>528</ele>
        <time>2021-03-18T13:55:26.000Z</time>
      </trkpt>
      <trkpt lat="42.92889" lon="1.84531">
        <ele>527.4</ele>
        <time>2021-03-18T13:55:28.000Z</time>
      </trkpt>
      <trkpt lat="42.92903" lon="1.84546">
        <ele>526.8</ele>
        <time>2021-03-18T13:55:30.000Z</time>
      </trkpt>
      <trkpt lat="42.92917" lon="1.8456">
        <ele>526.3</ele>
        <time>2021-03-18T13:55:32.000Z</time>
      </trkpt>
      <trkpt lat="42.9293" lon="1.84573">
        <ele>525.8</ele>
        <time>2021-03-18T13:55:34.000Z</time>
      </trkpt>
      <trkpt lat="42.9294" lon="1.84585">
        <ele>525.3</ele>
        <time>2021-03-18T13:55:36.000Z</time>
      </trkpt>
      <trkpt lat="42.92948" lon="1.84595">
        <ele>525</ele>
        <time>2021-03-18T13:55:38.000Z</time>
      </trkpt>
      <trkpt lat="42.92958" lon="1.84594">
        <ele>524.6</ele>
        <time>2021-03-18T13:55:40.000Z</time>
      </trkpt>
      <trkpt lat="42.92971" lon="1.84593">
        <ele>524.3</ele>
        <time>2021-03-18T13:55:42.000Z</time>
      </trkpt>
      <trkpt lat="42.92984" lon="1.84603">
        <ele>524</ele>
        <time>2021-03-18T13:55:44.000Z</time>
      </trkpt>
      <trkpt lat="42.92997" lon="1.84618">
        <ele>523.6</ele>
        <time>2021-03-18T13:55:46.000Z</time>
      </trkpt>
      <trkpt lat="42.9301" lon="1.84629">
        <ele>523.2</ele>
        <time>2021-03-18T13:55:48.000Z</time>
      </trkpt>
      <trkpt lat="42.93022" lon="1.8464">
        <ele>522.8</ele>
        <time>2021-03-18T13:55:50.000Z</time>
      </trkpt>
      <trkpt lat="42.93036" lon="1.84655">
        <ele>522.5</ele>
        <time>2021-03-18T13:55:52.000Z</time>
      </trkpt>
      <trkpt lat="42.93043" lon="1.84663">
        <ele>522.3</ele>
        <time>2021-03-18T13:55:53.000Z</time>
      </trkpt>
      <trkpt lat="42.93055" lon="1.84682">
        <ele>521.9</ele>
        <time>2021-03-18T13:55:55.000Z</time>
      </trkpt>
      <trkpt lat="42.93062" lon="1.84691">
        <ele>521.7</ele>
        <time>2021-03-18T13:55:56.000Z</time>
      </trkpt>
      <trkpt lat="42.93072" lon="1.84706">
        <ele>521.3</ele>
        <time>2021-03-18T13:55:58.000Z</time>
      </trkpt>
      <trkpt lat="42.93086" lon="1.84721">
        <ele>520.9</ele>
        <time>2021-03-18T13:56:00.000Z</time>
      </trkpt>
      <trkpt lat="42.93099" lon="1.84736">
        <ele>520.5</ele>
        <time>2021-03-18T13:56:02.000Z</time>
      </trkpt>
      <trkpt lat="42.93107" lon="1.84743">
        <ele>520.2</ele>
        <time>2021-03-18T13:56:03.000Z</time>
      </trkpt>
      <trkpt lat="42.93114" lon="1.84752">
        <ele>520</ele>
        <time>2021-03-18T13:56:04.000Z</time>
      </trkpt>
      <trkpt lat="42.9312" lon="1.8476">
        <ele>519.7</ele>
        <time>2021-03-18T13:56:05.000Z</time>
      </trkpt>
      <trkpt lat="42.9316" lon="1.8479">
        <ele>518.4</ele>
        <time>2021-03-18T13:56:07.000Z</time>
      </trkpt>
      <trkpt lat="42.93135" lon="1.84773">
        <ele>519.1</ele>
        <time>2021-03-18T13:56:07.000Z</time>
      </trkpt>
      <trkpt lat="42.9317" lon="1.84795">
        <ele>518.1</ele>
        <time>2021-03-18T13:56:08.000Z</time>
      </trkpt>
      <trkpt lat="42.93144" lon="1.84779">
        <ele>518.9</ele>
        <time>2021-03-18T13:56:08.000Z</time>
      </trkpt>
      <trkpt lat="42.9318" lon="1.84802">
        <ele>517.9</ele>
        <time>2021-03-18T13:56:09.000Z</time>
      </trkpt>
      <trkpt lat="42.93188" lon="1.8481">
        <ele>517.6</ele>
        <time>2021-03-18T13:56:10.000Z</time>
      </trkpt>
      <trkpt lat="42.93195" lon="1.84818">
        <ele>517.4</ele>
        <time>2021-03-18T13:56:11.000Z</time>
      </trkpt>
      <trkpt lat="42.93199" lon="1.84833">
        <ele>516.9</ele>
        <time>2021-03-18T13:56:13.000Z</time>
      </trkpt>
      <trkpt lat="42.93205" lon="1.84844">
        <ele>516.4</ele>
        <time>2021-03-18T13:56:15.000Z</time>
      </trkpt>
      <trkpt lat="42.93213" lon="1.84851">
        <ele>516</ele>
        <time>2021-03-18T13:56:17.000Z</time>
      </trkpt>
      <trkpt lat="42.93224" lon="1.84854">
        <ele>515.1</ele>
        <time>2021-03-18T13:56:23.000Z</time>
      </trkpt>
      <trkpt lat="42.93234" lon="1.84863">
        <ele>514.8</ele>
        <time>2021-03-18T13:56:27.000Z</time>
      </trkpt>
      <trkpt lat="42.93239" lon="1.84874">
        <ele>514.4</ele>
        <time>2021-03-18T13:56:34.000Z</time>
      </trkpt>
      <trkpt lat="42.93249" lon="1.84881">
        <ele>513.9</ele>
        <time>2021-03-18T13:56:41.000Z</time>
      </trkpt>
      <trkpt lat="42.93263" lon="1.84881">
        <ele>513.8</ele>
        <time>2021-03-18T13:56:44.000Z</time>
      </trkpt>
      <trkpt lat="42.93271" lon="1.84874">
        <ele>513.6</ele>
        <time>2021-03-18T13:56:46.000Z</time>
      </trkpt>
      <trkpt lat="42.93281" lon="1.84868">
        <ele>513.3</ele>
        <time>2021-03-18T13:56:49.000Z</time>
      </trkpt>
      <trkpt lat="42.93292" lon="1.84869">
        <ele>512.9</ele>
        <time>2021-03-18T13:56:52.000Z</time>
      </trkpt>
      <trkpt lat="42.933" lon="1.84876">
        <ele>512.6</ele>
        <time>2021-03-18T13:56:55.000Z</time>
      </trkpt>
      <trkpt lat="42.93312" lon="1.84881">
        <ele>512.4</ele>
        <time>2021-03-18T13:56:58.000Z</time>
      </trkpt>
      <trkpt lat="42.93323" lon="1.84888">
        <ele>512.3</ele>
        <time>2021-03-18T13:57:00.000Z</time>
      </trkpt>
      <trkpt lat="42.93334" lon="1.84894">
        <ele>512.2</ele>
        <time>2021-03-18T13:57:02.000Z</time>
      </trkpt>
      <trkpt lat="42.93342" lon="1.849">
        <ele>512.2</ele>
        <time>2021-03-18T13:57:04.000Z</time>
      </trkpt>
      <trkpt lat="42.93352" lon="1.84908">
        <ele>512.1</ele>
        <time>2021-03-18T13:57:06.000Z</time>
      </trkpt>
      <trkpt lat="42.93363" lon="1.84915">
        <ele>512.1</ele>
        <time>2021-03-18T13:57:08.000Z</time>
      </trkpt>
      <trkpt lat="42.93374" lon="1.84924">
        <ele>512</ele>
        <time>2021-03-18T13:57:10.000Z</time>
      </trkpt>
      <trkpt lat="42.93384" lon="1.84931">
        <ele>511.9</ele>
        <time>2021-03-18T13:57:12.000Z</time>
      </trkpt>
      <trkpt lat="42.93395" lon="1.84939">
        <ele>511.7</ele>
        <time>2021-03-18T13:57:15.000Z</time>
      </trkpt>
      <trkpt lat="42.93406" lon="1.84945">
        <ele>511.3</ele>
        <time>2021-03-18T13:57:18.000Z</time>
      </trkpt>
      <trkpt lat="42.93415" lon="1.84949">
        <ele>511.1</ele>
        <time>2021-03-18T13:57:20.000Z</time>
      </trkpt>
      <trkpt lat="42.93426" lon="1.84954">
        <ele>510.9</ele>
        <time>2021-03-18T13:57:22.000Z</time>
      </trkpt>
      <trkpt lat="42.93438" lon="1.84961">
        <ele>510.7</ele>
        <time>2021-03-18T13:57:24.000Z</time>
      </trkpt>
      <trkpt lat="42.93451" lon="1.84973">
        <ele>510.6</ele>
        <time>2021-03-18T13:57:26.000Z</time>
      </trkpt>
      <trkpt lat="42.93464" lon="1.84982">
        <ele>510.3</ele>
        <time>2021-03-18T13:57:28.000Z</time>
      </trkpt>
      <trkpt lat="42.93483" lon="1.84996">
        <ele>510</ele>
        <time>2021-03-18T13:57:30.000Z</time>
      </trkpt>
      <trkpt lat="42.93495" lon="1.85007">
        <ele>509.8</ele>
        <time>2021-03-18T13:57:32.000Z</time>
      </trkpt>
      <trkpt lat="42.9351" lon="1.85024">
        <ele>509.6</ele>
        <time>2021-03-18T13:57:34.000Z</time>
      </trkpt>
      <trkpt lat="42.93517" lon="1.85031">
        <ele>509.5</ele>
        <time>2021-03-18T13:57:35.000Z</time>
      </trkpt>
      <trkpt lat="42.93525" lon="1.85039">
        <ele>509.4</ele>
        <time>2021-03-18T13:57:36.000Z</time>
      </trkpt>
      <trkpt lat="42.93534" lon="1.85046">
        <ele>509.4</ele>
        <time>2021-03-18T13:57:37.000Z</time>
      </trkpt>
      <trkpt lat="42.93542" lon="1.85053">
        <ele>509.3</ele>
        <time>2021-03-18T13:57:38.000Z</time>
      </trkpt>
      <trkpt lat="42.9355" lon="1.85059">
        <ele>509.1</ele>
        <time>2021-03-18T13:57:39.000Z</time>
      </trkpt>
      <trkpt lat="42.93557" lon="1.8507">
        <ele>508.9</ele>
        <time>2021-03-18T13:57:41.000Z</time>
      </trkpt>
      <trkpt lat="42.93552" lon="1.85083">
        <ele>508.6</ele>
        <time>2021-03-18T13:57:44.000Z</time>
      </trkpt>
      <trkpt lat="42.93558" lon="1.851">
        <ele>508.3</ele>
        <time>2021-03-18T13:57:47.000Z</time>
      </trkpt>
      <trkpt lat="42.93569" lon="1.8511">
        <ele>508.1</ele>
        <time>2021-03-18T13:57:49.000Z</time>
      </trkpt>
      <trkpt lat="42.93583" lon="1.85118">
        <ele>507.8</ele>
        <time>2021-03-18T13:57:51.000Z</time>
      </trkpt>
      <trkpt lat="42.93593" lon="1.85123">
        <ele>507.7</ele>
        <time>2021-03-18T13:57:52.000Z</time>
      </trkpt>
      <trkpt lat="42.93608" lon="1.85131">
        <ele>507.4</ele>
        <time>2021-03-18T13:57:54.000Z</time>
      </trkpt>
      <trkpt lat="42.93622" lon="1.85141">
        <ele>507.1</ele>
        <time>2021-03-18T13:57:56.000Z</time>
      </trkpt>
      <trkpt lat="42.93633" lon="1.85151">
        <ele>506.8</ele>
        <time>2021-03-18T13:57:58.000Z</time>
      </trkpt>
      <trkpt lat="42.93638" lon="1.85164">
        <ele>506.5</ele>
        <time>2021-03-18T13:58:00.000Z</time>
      </trkpt>
      <trkpt lat="42.93645" lon="1.85175">
        <ele>506.3</ele>
        <time>2021-03-18T13:58:02.000Z</time>
      </trkpt>
      <trkpt lat="42.93652" lon="1.85185">
        <ele>506</ele>
        <time>2021-03-18T13:58:04.000Z</time>
      </trkpt>
      <trkpt lat="42.93661" lon="1.85196">
        <ele>505.8</ele>
        <time>2021-03-18T13:58:06.000Z</time>
      </trkpt>
      <trkpt lat="42.93673" lon="1.85206">
        <ele>505.6</ele>
        <time>2021-03-18T13:58:08.000Z</time>
      </trkpt>
      <trkpt lat="42.93681" lon="1.85213">
        <ele>505.3</ele>
        <time>2021-03-18T13:58:10.000Z</time>
      </trkpt>
      <trkpt lat="42.93687" lon="1.85228">
        <ele>505</ele>
        <time>2021-03-18T13:58:13.000Z</time>
      </trkpt>
      <trkpt lat="42.93695" lon="1.8524">
        <ele>504.8</ele>
        <time>2021-03-18T13:58:16.000Z</time>
      </trkpt>
      <trkpt lat="42.93707" lon="1.85246">
        <ele>504.7</ele>
        <time>2021-03-18T13:58:18.000Z</time>
      </trkpt>
      <trkpt lat="42.93719" lon="1.85255">
        <ele>504.5</ele>
        <time>2021-03-18T13:58:20.000Z</time>
      </trkpt>
      <trkpt lat="42.93731" lon="1.85265">
        <ele>504.4</ele>
        <time>2021-03-18T13:58:22.000Z</time>
      </trkpt>
      <trkpt lat="42.93743" lon="1.85274">
        <ele>504.4</ele>
        <time>2021-03-18T13:58:24.000Z</time>
      </trkpt>
      <trkpt lat="42.93762" lon="1.85284">
        <ele>504.3</ele>
        <time>2021-03-18T13:58:26.000Z</time>
      </trkpt>
      <trkpt lat="42.93771" lon="1.85289">
        <ele>504.2</ele>
        <time>2021-03-18T13:58:27.000Z</time>
      </trkpt>
      <trkpt lat="42.93786" lon="1.85299">
        <ele>504.2</ele>
        <time>2021-03-18T13:58:29.000Z</time>
      </trkpt>
      <trkpt lat="42.93794" lon="1.85308">
        <ele>504.1</ele>
        <time>2021-03-18T13:58:31.000Z</time>
      </trkpt>
      <trkpt lat="42.93807" lon="1.85316">
        <ele>504</ele>
        <time>2021-03-18T13:58:33.000Z</time>
      </trkpt>
      <trkpt lat="42.93823" lon="1.85329">
        <ele>503.9</ele>
        <time>2021-03-18T13:58:35.000Z</time>
      </trkpt>
      <trkpt lat="42.93838" lon="1.85339">
        <ele>503.8</ele>
        <time>2021-03-18T13:58:37.000Z</time>
      </trkpt>
      <trkpt lat="42.93851" lon="1.85347">
        <ele>503.6</ele>
        <time>2021-03-18T13:58:39.000Z</time>
      </trkpt>
      <trkpt lat="42.93866" lon="1.85356">
        <ele>503.3</ele>
        <time>2021-03-18T13:58:41.000Z</time>
      </trkpt>
      <trkpt lat="42.93881" lon="1.85364">
        <ele>503</ele>
        <time>2021-03-18T13:58:43.000Z</time>
      </trkpt>
      <trkpt lat="42.93894" lon="1.85371">
        <ele>502.8</ele>
        <time>2021-03-18T13:58:45.000Z</time>
      </trkpt>
      <trkpt lat="42.93907" lon="1.8538">
        <ele>502.5</ele>
        <time>2021-03-18T13:58:47.000Z</time>
      </trkpt>
      <trkpt lat="42.9392" lon="1.8539">
        <ele>502.3</ele>
        <time>2021-03-18T13:58:49.000Z</time>
      </trkpt>
      <trkpt lat="42.93931" lon="1.85398">
        <ele>502.1</ele>
        <time>2021-03-18T13:58:50.000Z</time>
      </trkpt>
      <trkpt lat="42.93945" lon="1.85405">
        <ele>502</ele>
        <time>2021-03-18T13:58:51.000Z</time>
      </trkpt>
      <trkpt lat="42.93954" lon="1.85408">
        <ele>501.9</ele>
        <time>2021-03-18T13:58:52.000Z</time>
      </trkpt>
      <trkpt lat="42.93963" lon="1.85412">
        <ele>501.8</ele>
        <time>2021-03-18T13:58:53.000Z</time>
      </trkpt>
      <trkpt lat="42.93976" lon="1.85414">
        <ele>501.3</ele>
        <time>2021-03-18T13:58:56.000Z</time>
      </trkpt>
      <trkpt lat="42.93988" lon="1.8542">
        <ele>501</ele>
        <time>2021-03-18T13:58:58.000Z</time>
      </trkpt>
      <trkpt lat="42.94" lon="1.85434">
        <ele>500.6</ele>
        <time>2021-03-18T13:59:00.000Z</time>
      </trkpt>
      <trkpt lat="42.94014" lon="1.85445">
        <ele>500.3</ele>
        <time>2021-03-18T13:59:02.000Z</time>
      </trkpt>
      <trkpt lat="42.94027" lon="1.85456">
        <ele>499.9</ele>
        <time>2021-03-18T13:59:04.000Z</time>
      </trkpt>
      <trkpt lat="42.9404" lon="1.85467">
        <ele>499.5</ele>
        <time>2021-03-18T13:59:06.000Z</time>
      </trkpt>
      <trkpt lat="42.94051" lon="1.85479">
        <ele>499.1</ele>
        <time>2021-03-18T13:59:08.000Z</time>
      </trkpt>
      <trkpt lat="42.94051" lon="1.85495">
        <ele>498.8</ele>
        <time>2021-03-18T13:59:10.000Z</time>
      </trkpt>
      <trkpt lat="42.94051" lon="1.85512">
        <ele>498.3</ele>
        <time>2021-03-18T13:59:12.000Z</time>
      </trkpt>
      <trkpt lat="42.94055" lon="1.85527">
        <ele>497.9</ele>
        <time>2021-03-18T13:59:14.000Z</time>
      </trkpt>
      <trkpt lat="42.94065" lon="1.85535">
        <ele>497.6</ele>
        <time>2021-03-18T13:59:16.000Z</time>
      </trkpt>
      <trkpt lat="42.94074" lon="1.85544">
        <ele>497.3</ele>
        <time>2021-03-18T13:59:18.000Z</time>
      </trkpt>
      <trkpt lat="42.94085" lon="1.85554">
        <ele>497</ele>
        <time>2021-03-18T13:59:20.000Z</time>
      </trkpt>
      <trkpt lat="42.94095" lon="1.85563">
        <ele>496.8</ele>
        <time>2021-03-18T13:59:22.000Z</time>
      </trkpt>
      <trkpt lat="42.94106" lon="1.85573">
        <ele>496.6</ele>
        <time>2021-03-18T13:59:24.000Z</time>
      </trkpt>
      <trkpt lat="42.9412" lon="1.8558">
        <ele>496.4</ele>
        <time>2021-03-18T13:59:26.000Z</time>
      </trkpt>
      <trkpt lat="42.94132" lon="1.85588">
        <ele>496.2</ele>
        <time>2021-03-18T13:59:28.000Z</time>
      </trkpt>
      <trkpt lat="42.94145" lon="1.85598">
        <ele>496.1</ele>
        <time>2021-03-18T13:59:30.000Z</time>
      </trkpt>
      <trkpt lat="42.94155" lon="1.85609">
        <ele>496</ele>
        <time>2021-03-18T13:59:32.000Z</time>
      </trkpt>
      <trkpt lat="42.94157" lon="1.85623">
        <ele>495.8</ele>
        <time>2021-03-18T13:59:34.000Z</time>
      </trkpt>
      <trkpt lat="42.9416" lon="1.85639">
        <ele>495.7</ele>
        <time>2021-03-18T13:59:36.000Z</time>
      </trkpt>
      <trkpt lat="42.94166" lon="1.85651">
        <ele>495.6</ele>
        <time>2021-03-18T13:59:38.000Z</time>
      </trkpt>
      <trkpt lat="42.94175" lon="1.85661">
        <ele>495.5</ele>
        <time>2021-03-18T13:59:40.000Z</time>
      </trkpt>
      <trkpt lat="42.94184" lon="1.85672">
        <ele>495.5</ele>
        <time>2021-03-18T13:59:42.000Z</time>
      </trkpt>
      <trkpt lat="42.94191" lon="1.85681">
        <ele>495.4</ele>
        <time>2021-03-18T13:59:44.000Z</time>
      </trkpt>
      <trkpt lat="42.94197" lon="1.85691">
        <ele>495.4</ele>
        <time>2021-03-18T13:59:46.000Z</time>
      </trkpt>
      <trkpt lat="42.94202" lon="1.85705">
        <ele>495.4</ele>
        <time>2021-03-18T13:59:49.000Z</time>
      </trkpt>
      <trkpt lat="42.9421" lon="1.85715">
        <ele>495.3</ele>
        <time>2021-03-18T13:59:52.000Z</time>
      </trkpt>
      <trkpt lat="42.94218" lon="1.8572">
        <ele>495.3</ele>
        <time>2021-03-18T13:59:55.000Z</time>
      </trkpt>
      <trkpt lat="42.94226" lon="1.85729">
        <ele>495.2</ele>
        <time>2021-03-18T13:59:58.000Z</time>
      </trkpt>
      <trkpt lat="42.94239" lon="1.85738">
        <ele>495.3</ele>
        <time>2021-03-18T14:00:01.000Z</time>
      </trkpt>
      <trkpt lat="42.9425" lon="1.85744">
        <ele>495.3</ele>
        <time>2021-03-18T14:00:03.000Z</time>
      </trkpt>
      <trkpt lat="42.94265" lon="1.85755">
        <ele>495.3</ele>
        <time>2021-03-18T14:00:05.000Z</time>
      </trkpt>
      <trkpt lat="42.94273" lon="1.85762">
        <ele>495.3</ele>
        <time>2021-03-18T14:00:06.000Z</time>
      </trkpt>
      <trkpt lat="42.94285" lon="1.85772">
        <ele>495.3</ele>
        <time>2021-03-18T14:00:08.000Z</time>
      </trkpt>
      <trkpt lat="42.94297" lon="1.85782">
        <ele>495.4</ele>
        <time>2021-03-18T14:00:10.000Z</time>
      </trkpt>
      <trkpt lat="42.94308" lon="1.85792">
        <ele>495.4</ele>
        <time>2021-03-18T14:00:12.000Z</time>
      </trkpt>
      <trkpt lat="42.94319" lon="1.85801">
        <ele>495.3</ele>
        <time>2021-03-18T14:00:14.000Z</time>
      </trkpt>
      <trkpt lat="42.9433" lon="1.85812">
        <ele>495.3</ele>
        <time>2021-03-18T14:00:16.000Z</time>
      </trkpt>
      <trkpt lat="42.94343" lon="1.85823">
        <ele>495.3</ele>
        <time>2021-03-18T14:00:18.000Z</time>
      </trkpt>
      <trkpt lat="42.94356" lon="1.85833">
        <ele>495.3</ele>
        <time>2021-03-18T14:00:20.000Z</time>
      </trkpt>
      <trkpt lat="42.94371" lon="1.85846">
        <ele>495.3</ele>
        <time>2021-03-18T14:00:22.000Z</time>
      </trkpt>
      <trkpt lat="42.94386" lon="1.85858">
        <ele>495.3</ele>
        <time>2021-03-18T14:00:24.000Z</time>
      </trkpt>
      <trkpt lat="42.94401" lon="1.8587">
        <ele>495.3</ele>
        <time>2021-03-18T14:00:26.000Z</time>
      </trkpt>
      <trkpt lat="42.94409" lon="1.85877">
        <ele>495.3</ele>
        <time>2021-03-18T14:00:27.000Z</time>
      </trkpt>
      <trkpt lat="42.94419" lon="1.85884">
        <ele>495.3</ele>
        <time>2021-03-18T14:00:28.000Z</time>
      </trkpt>
      <trkpt lat="42.94426" lon="1.85892">
        <ele>495.3</ele>
        <time>2021-03-18T14:00:29.000Z</time>
      </trkpt>
      <trkpt lat="42.9444" lon="1.85906">
        <ele>495.4</ele>
        <time>2021-03-18T14:00:31.000Z</time>
      </trkpt>
      <trkpt lat="42.94455" lon="1.8592">
        <ele>495.3</ele>
        <time>2021-03-18T14:00:33.000Z</time>
      </trkpt>
      <trkpt lat="42.94463" lon="1.85927">
        <ele>495.2</ele>
        <time>2021-03-18T14:00:34.000Z</time>
      </trkpt>
      <trkpt lat="42.94475" lon="1.85941">
        <ele>495.2</ele>
        <time>2021-03-18T14:00:36.000Z</time>
      </trkpt>
      <trkpt lat="42.94483" lon="1.85949">
        <ele>495.1</ele>
        <time>2021-03-18T14:00:37.000Z</time>
      </trkpt>
      <trkpt lat="42.94496" lon="1.85964">
        <ele>495.1</ele>
        <time>2021-03-18T14:00:39.000Z</time>
      </trkpt>
      <trkpt lat="42.94504" lon="1.85972">
        <ele>495</ele>
        <time>2021-03-18T14:00:40.000Z</time>
      </trkpt>
      <trkpt lat="42.94511" lon="1.8598">
        <ele>495</ele>
        <time>2021-03-18T14:00:41.000Z</time>
      </trkpt>
      <trkpt lat="42.94518" lon="1.85987">
        <ele>494.9</ele>
        <time>2021-03-18T14:00:42.000Z</time>
      </trkpt>
      <trkpt lat="42.9453" lon="1.86004">
        <ele>494.8</ele>
        <time>2021-03-18T14:00:44.000Z</time>
      </trkpt>
      <trkpt lat="42.94541" lon="1.86022">
        <ele>494.8</ele>
        <time>2021-03-18T14:00:46.000Z</time>
      </trkpt>
      <trkpt lat="42.94552" lon="1.8604">
        <ele>494.6</ele>
        <time>2021-03-18T14:00:48.000Z</time>
      </trkpt>
      <trkpt lat="42.94564" lon="1.86057">
        <ele>494.4</ele>
        <time>2021-03-18T14:00:50.000Z</time>
      </trkpt>
      <trkpt lat="42.94576" lon="1.86073">
        <ele>494.2</ele>
        <time>2021-03-18T14:00:52.000Z</time>
      </trkpt>
      <trkpt lat="42.94587" lon="1.8609">
        <ele>494</ele>
        <time>2021-03-18T14:00:54.000Z</time>
      </trkpt>
      <trkpt lat="42.94598" lon="1.86107">
        <ele>493.7</ele>
        <time>2021-03-18T14:00:56.000Z</time>
      </trkpt>
      <trkpt lat="42.94611" lon="1.86123">
        <ele>493.4</ele>
        <time>2021-03-18T14:00:58.000Z</time>
      </trkpt>
      <trkpt lat="42.94624" lon="1.86138">
        <ele>493.1</ele>
        <time>2021-03-18T14:01:00.000Z</time>
      </trkpt>
      <trkpt lat="42.94634" lon="1.86153">
        <ele>492.9</ele>
        <time>2021-03-18T14:01:02.000Z</time>
      </trkpt>
      <trkpt lat="42.94648" lon="1.86169">
        <ele>492.6</ele>
        <time>2021-03-18T14:01:04.000Z</time>
      </trkpt>
      <trkpt lat="42.94661" lon="1.86184">
        <ele>492.4</ele>
        <time>2021-03-18T14:01:06.000Z</time>
      </trkpt>
      <trkpt lat="42.94674" lon="1.86199">
        <ele>492.3</ele>
        <time>2021-03-18T14:01:08.000Z</time>
      </trkpt>
      <trkpt lat="42.94685" lon="1.86214">
        <ele>492.1</ele>
        <time>2021-03-18T14:01:10.000Z</time>
      </trkpt>
      <trkpt lat="42.94698" lon="1.8623">
        <ele>491.9</ele>
        <time>2021-03-18T14:01:12.000Z</time>
      </trkpt>
      <trkpt lat="42.94711" lon="1.86246">
        <ele>491.6</ele>
        <time>2021-03-18T14:01:14.000Z</time>
      </trkpt>
      <trkpt lat="42.94722" lon="1.86263">
        <ele>491.4</ele>
        <time>2021-03-18T14:01:16.000Z</time>
      </trkpt>
      <trkpt lat="42.94728" lon="1.86281">
        <ele>491.2</ele>
        <time>2021-03-18T14:01:18.000Z</time>
      </trkpt>
      <trkpt lat="42.94736" lon="1.86293">
        <ele>491</ele>
        <time>2021-03-18T14:01:20.000Z</time>
      </trkpt>
      <trkpt lat="42.94741" lon="1.86305">
        <ele>490.7</ele>
        <time>2021-03-18T14:01:23.000Z</time>
      </trkpt>
      <trkpt lat="42.94749" lon="1.86319">
        <ele>490.5</ele>
        <time>2021-03-18T14:01:26.000Z</time>
      </trkpt>
      <trkpt lat="42.94755" lon="1.86335">
        <ele>490.3</ele>
        <time>2021-03-18T14:01:28.000Z</time>
      </trkpt>
      <trkpt lat="42.94765" lon="1.86352">
        <ele>490.1</ele>
        <time>2021-03-18T14:01:30.000Z</time>
      </trkpt>
      <trkpt lat="42.94773" lon="1.8637">
        <ele>489.9</ele>
        <time>2021-03-18T14:01:32.000Z</time>
      </trkpt>
      <trkpt lat="42.94781" lon="1.86387">
        <ele>489.7</ele>
        <time>2021-03-18T14:01:34.000Z</time>
      </trkpt>
      <trkpt lat="42.94791" lon="1.86403">
        <ele>489.5</ele>
        <time>2021-03-18T14:01:36.000Z</time>
      </trkpt>
      <trkpt lat="42.94801" lon="1.86418">
        <ele>489.3</ele>
        <time>2021-03-18T14:01:38.000Z</time>
      </trkpt>
      <trkpt lat="42.94811" lon="1.86431">
        <ele>489.2</ele>
        <time>2021-03-18T14:01:40.000Z</time>
      </trkpt>
      <trkpt lat="42.94823" lon="1.86444">
        <ele>489</ele>
        <time>2021-03-18T14:01:42.000Z</time>
      </trkpt>
      <trkpt lat="42.94834" lon="1.86455">
        <ele>488.8</ele>
        <time>2021-03-18T14:01:44.000Z</time>
      </trkpt>
      <trkpt lat="42.94846" lon="1.86467">
        <ele>488.7</ele>
        <time>2021-03-18T14:01:46.000Z</time>
      </trkpt>
      <trkpt lat="42.94857" lon="1.86478">
        <ele>488.6</ele>
        <time>2021-03-18T14:01:48.000Z</time>
      </trkpt>
      <trkpt lat="42.94871" lon="1.86488">
        <ele>488.3</ele>
        <time>2021-03-18T14:01:50.000Z</time>
      </trkpt>
      <trkpt lat="42.94887" lon="1.86497">
        <ele>488</ele>
        <time>2021-03-18T14:01:52.000Z</time>
      </trkpt>
      <trkpt lat="42.94904" lon="1.86504">
        <ele>487.7</ele>
        <time>2021-03-18T14:01:54.000Z</time>
      </trkpt>
      <trkpt lat="42.94919" lon="1.8651">
        <ele>487.5</ele>
        <time>2021-03-18T14:01:56.000Z</time>
      </trkpt>
      <trkpt lat="42.94931" lon="1.86514">
        <ele>487.2</ele>
        <time>2021-03-18T14:01:58.000Z</time>
      </trkpt>
      <trkpt lat="42.94946" lon="1.86518">
        <ele>486.9</ele>
        <time>2021-03-18T14:02:00.000Z</time>
      </trkpt>
      <trkpt lat="42.94961" lon="1.86522">
        <ele>486.7</ele>
        <time>2021-03-18T14:02:02.000Z</time>
      </trkpt>
      <trkpt lat="42.94976" lon="1.86524">
        <ele>486.5</ele>
        <time>2021-03-18T14:02:04.000Z</time>
      </trkpt>
      <trkpt lat="42.94992" lon="1.86524">
        <ele>486.3</ele>
        <time>2021-03-18T14:02:06.000Z</time>
      </trkpt>
      <trkpt lat="42.95008" lon="1.86525">
        <ele>486.1</ele>
        <time>2021-03-18T14:02:08.000Z</time>
      </trkpt>
      <trkpt lat="42.95023" lon="1.86525">
        <ele>485.9</ele>
        <time>2021-03-18T14:02:10.000Z</time>
      </trkpt>
      <trkpt lat="42.95038" lon="1.86524">
        <ele>485.7</ele>
        <time>2021-03-18T14:02:12.000Z</time>
      </trkpt>
      <trkpt lat="42.95053" lon="1.86521">
        <ele>485.5</ele>
        <time>2021-03-18T14:02:14.000Z</time>
      </trkpt>
      <trkpt lat="42.95066" lon="1.86518">
        <ele>485.3</ele>
        <time>2021-03-18T14:02:16.000Z</time>
      </trkpt>
      <trkpt lat="42.9508" lon="1.86513">
        <ele>485.1</ele>
        <time>2021-03-18T14:02:18.000Z</time>
      </trkpt>
      <trkpt lat="42.95095" lon="1.86508">
        <ele>484.9</ele>
        <time>2021-03-18T14:02:20.000Z</time>
      </trkpt>
      <trkpt lat="42.95109" lon="1.865">
        <ele>484.7</ele>
        <time>2021-03-18T14:02:22.000Z</time>
      </trkpt>
      <trkpt lat="42.95124" lon="1.86491">
        <ele>484.4</ele>
        <time>2021-03-18T14:02:24.000Z</time>
      </trkpt>
      <trkpt lat="42.95139" lon="1.86483">
        <ele>484</ele>
        <time>2021-03-18T14:02:26.000Z</time>
      </trkpt>
      <trkpt lat="42.95153" lon="1.86475">
        <ele>483.7</ele>
        <time>2021-03-18T14:02:28.000Z</time>
      </trkpt>
      <trkpt lat="42.95166" lon="1.86466">
        <ele>483.3</ele>
        <time>2021-03-18T14:02:30.000Z</time>
      </trkpt>
      <trkpt lat="42.95175" lon="1.86462">
        <ele>483</ele>
        <time>2021-03-18T14:02:32.000Z</time>
      </trkpt>
      <trkpt lat="42.95186" lon="1.86467">
        <ele>482.4</ele>
        <time>2021-03-18T14:02:35.000Z</time>
      </trkpt>
      <trkpt lat="42.95195" lon="1.86462">
        <ele>482.1</ele>
        <time>2021-03-18T14:02:37.000Z</time>
      </trkpt>
      <trkpt lat="42.95204" lon="1.86456">
        <ele>481.7</ele>
        <time>2021-03-18T14:02:39.000Z</time>
      </trkpt>
      <trkpt lat="42.95215" lon="1.8645">
        <ele>481.3</ele>
        <time>2021-03-18T14:02:41.000Z</time>
      </trkpt>
      <trkpt lat="42.95226" lon="1.86445">
        <ele>481</ele>
        <time>2021-03-18T14:02:43.000Z</time>
      </trkpt>
      <trkpt lat="42.95235" lon="1.86438">
        <ele>480.7</ele>
        <time>2021-03-18T14:02:45.000Z</time>
      </trkpt>
      <trkpt lat="42.95245" lon="1.86431">
        <ele>480.2</ele>
        <time>2021-03-18T14:02:47.000Z</time>
      </trkpt>
      <trkpt lat="42.95256" lon="1.86421">
        <ele>479</ele>
        <time>2021-03-18T14:02:50.000Z</time>
      </trkpt>
      <trkpt lat="42.95255" lon="1.86407">
        <ele>478.3</ele>
        <time>2021-03-18T14:02:53.000Z</time>
      </trkpt>
      <trkpt lat="42.95264" lon="1.864">
        <ele>477.7</ele>
        <time>2021-03-18T14:02:56.000Z</time>
      </trkpt>
      <trkpt lat="42.95273" lon="1.86392">
        <ele>477.2</ele>
        <time>2021-03-18T14:02:59.000Z</time>
      </trkpt>
      <trkpt lat="42.95285" lon="1.86385">
        <ele>476.8</ele>
        <time>2021-03-18T14:03:02.000Z</time>
      </trkpt>
      <trkpt lat="42.95295" lon="1.86378">
        <ele>476.5</ele>
        <time>2021-03-18T14:03:05.000Z</time>
      </trkpt>
      <trkpt lat="42.95304" lon="1.86374">
        <ele>476.2</ele>
        <time>2021-03-18T14:03:07.000Z</time>
      </trkpt>
      <trkpt lat="42.95316" lon="1.86366">
        <ele>475.9</ele>
        <time>2021-03-18T14:03:10.000Z</time>
      </trkpt>
      <trkpt lat="42.95328" lon="1.86362">
        <ele>475.7</ele>
        <time>2021-03-18T14:03:13.000Z</time>
      </trkpt>
      <trkpt lat="42.95337" lon="1.86358">
        <ele>475.5</ele>
        <time>2021-03-18T14:03:15.000Z</time>
      </trkpt>
      <trkpt lat="42.95346" lon="1.86356">
        <ele>475.3</ele>
        <time>2021-03-18T14:03:17.000Z</time>
      </trkpt>
      <trkpt lat="42.95356" lon="1.86356">
        <ele>475.1</ele>
        <time>2021-03-18T14:03:19.000Z</time>
      </trkpt>
      <trkpt lat="42.95367" lon="1.86351">
        <ele>475</ele>
        <time>2021-03-18T14:03:21.000Z</time>
      </trkpt>
      <trkpt lat="42.95377" lon="1.86345">
        <ele>474.7</ele>
        <time>2021-03-18T14:03:23.000Z</time>
      </trkpt>
      <trkpt lat="42.95385" lon="1.86332">
        <ele>474.4</ele>
        <time>2021-03-18T14:03:25.000Z</time>
      </trkpt>
      <trkpt lat="42.95393" lon="1.86317">
        <ele>474</ele>
        <time>2021-03-18T14:03:27.000Z</time>
      </trkpt>
      <trkpt lat="42.95402" lon="1.863">
        <ele>473.7</ele>
        <time>2021-03-18T14:03:29.000Z</time>
      </trkpt>
      <trkpt lat="42.95413" lon="1.86287">
        <ele>473.5</ele>
        <time>2021-03-18T14:03:31.000Z</time>
      </trkpt>
      <trkpt lat="42.95423" lon="1.86274">
        <ele>473.2</ele>
        <time>2021-03-18T14:03:33.000Z</time>
      </trkpt>
      <trkpt lat="42.95433" lon="1.86263">
        <ele>472.9</ele>
        <time>2021-03-18T14:03:35.000Z</time>
      </trkpt>
      <trkpt lat="42.95443" lon="1.86253">
        <ele>472.7</ele>
        <time>2021-03-18T14:03:37.000Z</time>
      </trkpt>
      <trkpt lat="42.95451" lon="1.86247">
        <ele>468.7</ele>
        <time>2021-03-18T14:03:42.000Z</time>
      </trkpt>
      <trkpt lat="42.9546" lon="1.86249">
        <ele>470.4</ele>
        <time>2021-03-18T14:03:49.000Z</time>
      </trkpt>
      <trkpt lat="42.95473" lon="1.86251">
        <ele>470.6</ele>
        <time>2021-03-18T14:03:55.000Z</time>
      </trkpt>
      <trkpt lat="42.95465" lon="1.86245">
        <ele>470.6</ele>
        <time>2021-03-18T14:03:57.000Z</time>
      </trkpt>
      <trkpt lat="42.95456" lon="1.86236">
        <ele>470.5</ele>
        <time>2021-03-18T14:04:00.000Z</time>
      </trkpt>
      <trkpt lat="42.95465" lon="1.86229">
        <ele>470.3</ele>
        <time>2021-03-18T14:04:06.000Z</time>
      </trkpt>
      <trkpt lat="42.95475" lon="1.86222">
        <ele>470.1</ele>
        <time>2021-03-18T14:04:11.000Z</time>
      </trkpt>
      <trkpt lat="42.95485" lon="1.86215">
        <ele>469.9</ele>
        <time>2021-03-18T14:04:14.000Z</time>
      </trkpt>
      <trkpt lat="42.95496" lon="1.86207">
        <ele>469.8</ele>
        <time>2021-03-18T14:04:17.000Z</time>
      </trkpt>
      <trkpt lat="42.95505" lon="1.86201">
        <ele>469.7</ele>
        <time>2021-03-18T14:04:19.000Z</time>
      </trkpt>
      <trkpt lat="42.95514" lon="1.86193">
        <ele>469.5</ele>
        <time>2021-03-18T14:04:21.000Z</time>
      </trkpt>
      <trkpt lat="42.95521" lon="1.86185">
        <ele>469.3</ele>
        <time>2021-03-18T14:04:23.000Z</time>
      </trkpt>
      <trkpt lat="42.95529" lon="1.86176">
        <ele>469.2</ele>
        <time>2021-03-18T14:04:25.000Z</time>
      </trkpt>
      <trkpt lat="42.95537" lon="1.86163">
        <ele>469.1</ele>
        <time>2021-03-18T14:04:28.000Z</time>
      </trkpt>
      <trkpt lat="42.95545" lon="1.8615">
        <ele>469.1</ele>
        <time>2021-03-18T14:04:31.000Z</time>
      </trkpt>
      <trkpt lat="42.95549" lon="1.86135">
        <ele>469.1</ele>
        <time>2021-03-18T14:04:34.000Z</time>
      </trkpt>
      <trkpt lat="42.95557" lon="1.86128">
        <ele>469</ele>
        <time>2021-03-18T14:04:48.000Z</time>
      </trkpt>
      <trkpt lat="42.95568" lon="1.86134">
        <ele>468.8</ele>
        <time>2021-03-18T14:04:51.000Z</time>
      </trkpt>
      <trkpt lat="42.9558" lon="1.86142">
        <ele>468.7</ele>
        <time>2021-03-18T14:04:54.000Z</time>
      </trkpt>
      <trkpt lat="42.9559" lon="1.86154">
        <ele>468.6</ele>
        <time>2021-03-18T14:04:57.000Z</time>
      </trkpt>
      <trkpt lat="42.95599" lon="1.8616">
        <ele>468.5</ele>
        <time>2021-03-18T14:05:00.000Z</time>
      </trkpt>
      <trkpt lat="42.95609" lon="1.86163">
        <ele>467</ele>
        <time>2021-03-18T14:05:07.000Z</time>
      </trkpt>
      <trkpt lat="42.95619" lon="1.8616">
        <ele>467.1</ele>
        <time>2021-03-18T14:05:23.000Z</time>
      </trkpt>
      <trkpt lat="42.95628" lon="1.86153">
        <ele>467.1</ele>
        <time>2021-03-18T14:05:29.000Z</time>
      </trkpt>
      <trkpt lat="42.95637" lon="1.86154">
        <ele>467.2</ele>
        <time>2021-03-18T14:05:33.000Z</time>
      </trkpt>
      <trkpt lat="42.95644" lon="1.86165">
        <ele>467.4</ele>
        <time>2021-03-18T14:05:36.000Z</time>
      </trkpt>
      <trkpt lat="42.95651" lon="1.86174">
        <ele>467.5</ele>
        <time>2021-03-18T14:05:38.000Z</time>
      </trkpt>
      <trkpt lat="42.95658" lon="1.86184">
        <ele>467.6</ele>
        <time>2021-03-18T14:05:40.000Z</time>
      </trkpt>
      <trkpt lat="42.95664" lon="1.86194">
        <ele>467.9</ele>
        <time>2021-03-18T14:05:42.000Z</time>
      </trkpt>
      <trkpt lat="42.9567" lon="1.86208">
        <ele>468.2</ele>
        <time>2021-03-18T14:05:45.000Z</time>
      </trkpt>
      <trkpt lat="42.95679" lon="1.86222">
        <ele>468.4</ele>
        <time>2021-03-18T14:05:48.000Z</time>
      </trkpt>
      <trkpt lat="42.95685" lon="1.86233">
        <ele>468.5</ele>
        <time>2021-03-18T14:05:50.000Z</time>
      </trkpt>
      <trkpt lat="42.95694" lon="1.86243">
        <ele>468.6</ele>
        <time>2021-03-18T14:05:52.000Z</time>
      </trkpt>
      <trkpt lat="42.95703" lon="1.86253">
        <ele>468.6</ele>
        <time>2021-03-18T14:05:54.000Z</time>
      </trkpt>
      <trkpt lat="42.95713" lon="1.86263">
        <ele>468.7</ele>
        <time>2021-03-18T14:05:56.000Z</time>
      </trkpt>
      <trkpt lat="42.95724" lon="1.8627">
        <ele>468.7</ele>
        <time>2021-03-18T14:05:58.000Z</time>
      </trkpt>
      <trkpt lat="42.95735" lon="1.86276">
        <ele>468.7</ele>
        <time>2021-03-18T14:06:00.000Z</time>
      </trkpt>
      <trkpt lat="42.95744" lon="1.86282">
        <ele>468.8</ele>
        <time>2021-03-18T14:06:02.000Z</time>
      </trkpt>
      <trkpt lat="42.95752" lon="1.86287">
        <ele>468.8</ele>
        <time>2021-03-18T14:06:04.000Z</time>
      </trkpt>
      <trkpt lat="42.95764" lon="1.86292">
        <ele>468.9</ele>
        <time>2021-03-18T14:06:07.000Z</time>
      </trkpt>
      <trkpt lat="42.95773" lon="1.86295">
        <ele>468.9</ele>
        <time>2021-03-18T14:06:09.000Z</time>
      </trkpt>
      <trkpt lat="42.95783" lon="1.86296">
        <ele>468.9</ele>
        <time>2021-03-18T14:06:11.000Z</time>
      </trkpt>
      <trkpt lat="42.95795" lon="1.86296">
        <ele>468.7</ele>
        <time>2021-03-18T14:06:14.000Z</time>
      </trkpt>
      <trkpt lat="42.95804" lon="1.86286">
        <ele>468.6</ele>
        <time>2021-03-18T14:06:17.000Z</time>
      </trkpt>
      <trkpt lat="42.95809" lon="1.86276">
        <ele>468.6</ele>
        <time>2021-03-18T14:06:19.000Z</time>
      </trkpt>
      <trkpt lat="42.95816" lon="1.86266">
        <ele>468.5</ele>
        <time>2021-03-18T14:06:22.000Z</time>
      </trkpt>
      <trkpt lat="42.95823" lon="1.86257">
        <ele>468.5</ele>
        <time>2021-03-18T14:06:26.000Z</time>
      </trkpt>
      <trkpt lat="42.95829" lon="1.86246">
        <ele>468.4</ele>
        <time>2021-03-18T14:06:34.000Z</time>
      </trkpt>
      <trkpt lat="42.95834" lon="1.86236">
        <ele>468.6</ele>
        <time>2021-03-18T14:06:38.000Z</time>
      </trkpt>
      <trkpt lat="42.95841" lon="1.86222">
        <ele>468.9</ele>
        <time>2021-03-18T14:06:42.000Z</time>
      </trkpt>
      <trkpt lat="42.95846" lon="1.8621">
        <ele>469.8</ele>
        <time>2021-03-18T14:06:46.000Z</time>
      </trkpt>
      <trkpt lat="42.95849" lon="1.86198">
        <ele>470.5</ele>
        <time>2021-03-18T14:06:51.000Z</time>
      </trkpt>
      <trkpt lat="42.95853" lon="1.86184">
        <ele>471</ele>
        <time>2021-03-18T14:06:55.000Z</time>
      </trkpt>
      <trkpt lat="42.95858" lon="1.86173">
        <ele>471.6</ele>
        <time>2021-03-18T14:06:59.000Z</time>
      </trkpt>
      <trkpt lat="42.95862" lon="1.8616">
        <ele>472.3</ele>
        <time>2021-03-18T14:07:04.000Z</time>
      </trkpt>
      <trkpt lat="42.95865" lon="1.86148">
        <ele>472.7</ele>
        <time>2021-03-18T14:07:07.000Z</time>
      </trkpt>
      <trkpt lat="42.95869" lon="1.86133">
        <ele>473.4</ele>
        <time>2021-03-18T14:07:11.000Z</time>
      </trkpt>
      <trkpt lat="42.95871" lon="1.86121">
        <ele>474.3</ele>
        <time>2021-03-18T14:07:15.000Z</time>
      </trkpt>
      <trkpt lat="42.95874" lon="1.86106">
        <ele>475.3</ele>
        <time>2021-03-18T14:07:20.000Z</time>
      </trkpt>
      <trkpt lat="42.95872" lon="1.86092">
        <ele>476.7</ele>
        <time>2021-03-18T14:07:27.000Z</time>
      </trkpt>
      <trkpt lat="42.95868" lon="1.86078">
        <ele>477.9</ele>
        <time>2021-03-18T14:07:33.000Z</time>
      </trkpt>
      <trkpt lat="42.95873" lon="1.86065">
        <ele>478.7</ele>
        <time>2021-03-18T14:07:37.000Z</time>
      </trkpt>
      <trkpt lat="42.95872" lon="1.86052">
        <ele>479.2</ele>
        <time>2021-03-18T14:07:40.000Z</time>
      </trkpt>
      <trkpt lat="42.95871" lon="1.86037">
        <ele>479.9</ele>
        <time>2021-03-18T14:07:45.000Z</time>
      </trkpt>
      <trkpt lat="42.95872" lon="1.86023">
        <ele>480.4</ele>
        <time>2021-03-18T14:07:49.000Z</time>
      </trkpt>
      <trkpt lat="42.95873" lon="1.8601">
        <ele>480.9</ele>
        <time>2021-03-18T14:07:53.000Z</time>
      </trkpt>
      <trkpt lat="42.95875" lon="1.85996">
        <ele>481.5</ele>
        <time>2021-03-18T14:07:58.000Z</time>
      </trkpt>
      <trkpt lat="42.95874" lon="1.85983">
        <ele>482.3</ele>
        <time>2021-03-18T14:08:04.000Z</time>
      </trkpt>
      <trkpt lat="42.95873" lon="1.8597">
        <ele>482.8</ele>
        <time>2021-03-18T14:08:08.000Z</time>
      </trkpt>
      <trkpt lat="42.95869" lon="1.85955">
        <ele>483.6</ele>
        <time>2021-03-18T14:08:13.000Z</time>
      </trkpt>
      <trkpt lat="42.95866" lon="1.85943">
        <ele>484.6</ele>
        <time>2021-03-18T14:08:20.000Z</time>
      </trkpt>
      <trkpt lat="42.95866" lon="1.85929">
        <ele>485.2</ele>
        <time>2021-03-18T14:08:25.000Z</time>
      </trkpt>
      <trkpt lat="42.95868" lon="1.85914">
        <ele>485.8</ele>
        <time>2021-03-18T14:08:30.000Z</time>
      </trkpt>
      <trkpt lat="42.9587" lon="1.85901">
        <ele>486.4</ele>
        <time>2021-03-18T14:08:35.000Z</time>
      </trkpt>
      <trkpt lat="42.9587" lon="1.85886">
        <ele>486.8</ele>
        <time>2021-03-18T14:08:39.000Z</time>
      </trkpt>
      <trkpt lat="42.95871" lon="1.85872">
        <ele>487.3</ele>
        <time>2021-03-18T14:08:44.000Z</time>
      </trkpt>
      <trkpt lat="42.95876" lon="1.85861">
        <ele>488.1</ele>
        <time>2021-03-18T14:08:50.000Z</time>
      </trkpt>
      <trkpt lat="42.95881" lon="1.8585">
        <ele>488.6</ele>
        <time>2021-03-18T14:08:55.000Z</time>
      </trkpt>
      <trkpt lat="42.95888" lon="1.85838">
        <ele>489</ele>
        <time>2021-03-18T14:08:59.000Z</time>
      </trkpt>
      <trkpt lat="42.95895" lon="1.85826">
        <ele>489.5</ele>
        <time>2021-03-18T14:09:03.000Z</time>
      </trkpt>
      <trkpt lat="42.95901" lon="1.85813">
        <ele>490</ele>
        <time>2021-03-18T14:09:07.000Z</time>
      </trkpt>
      <trkpt lat="42.95907" lon="1.85804">
        <ele>490.5</ele>
        <time>2021-03-18T14:09:10.000Z</time>
      </trkpt>
      <trkpt lat="42.95915" lon="1.85792">
        <ele>491.1</ele>
        <time>2021-03-18T14:09:14.000Z</time>
      </trkpt>
      <trkpt lat="42.95921" lon="1.85782">
        <ele>491.8</ele>
        <time>2021-03-18T14:09:18.000Z</time>
      </trkpt>
      <trkpt lat="42.95928" lon="1.8577">
        <ele>492.6</ele>
        <time>2021-03-18T14:09:22.000Z</time>
      </trkpt>
      <trkpt lat="42.95934" lon="1.85757">
        <ele>493.6</ele>
        <time>2021-03-18T14:09:27.000Z</time>
      </trkpt>
      <trkpt lat="42.9594" lon="1.85746">
        <ele>494.2</ele>
        <time>2021-03-18T14:09:31.000Z</time>
      </trkpt>
      <trkpt lat="42.95946" lon="1.85734">
        <ele>494.7</ele>
        <time>2021-03-18T14:09:35.000Z</time>
      </trkpt>
      <trkpt lat="42.95951" lon="1.85723">
        <ele>495.3</ele>
        <time>2021-03-18T14:09:39.000Z</time>
      </trkpt>
      <trkpt lat="42.95958" lon="1.85712">
        <ele>495.7</ele>
        <time>2021-03-18T14:09:43.000Z</time>
      </trkpt>
      <trkpt lat="42.95963" lon="1.85701">
        <ele>496.1</ele>
        <time>2021-03-18T14:09:47.000Z</time>
      </trkpt>
      <trkpt lat="42.95969" lon="1.85689">
        <ele>496.5</ele>
        <time>2021-03-18T14:09:51.000Z</time>
      </trkpt>
      <trkpt lat="42.95975" lon="1.85677">
        <ele>496.8</ele>
        <time>2021-03-18T14:09:55.000Z</time>
      </trkpt>
      <trkpt lat="42.95981" lon="1.85667">
        <ele>497</ele>
        <time>2021-03-18T14:09:58.000Z</time>
      </trkpt>
      <trkpt lat="42.95985" lon="1.85656">
        <ele>497.2</ele>
        <time>2021-03-18T14:10:02.000Z</time>
      </trkpt>
      <trkpt lat="42.9599" lon="1.85644">
        <ele>497.4</ele>
        <time>2021-03-18T14:10:06.000Z</time>
      </trkpt>
      <trkpt lat="42.95993" lon="1.8563">
        <ele>497.7</ele>
        <time>2021-03-18T14:10:10.000Z</time>
      </trkpt>
      <trkpt lat="42.95997" lon="1.85619">
        <ele>498.1</ele>
        <time>2021-03-18T14:10:14.000Z</time>
      </trkpt>
      <trkpt lat="42.96001" lon="1.85604">
        <ele>498.6</ele>
        <time>2021-03-18T14:10:19.000Z</time>
      </trkpt>
      <trkpt lat="42.96007" lon="1.85593">
        <ele>499</ele>
        <time>2021-03-18T14:10:23.000Z</time>
      </trkpt>
      <trkpt lat="42.96014" lon="1.85585">
        <ele>499.2</ele>
        <time>2021-03-18T14:10:26.000Z</time>
      </trkpt>
      <trkpt lat="42.96019" lon="1.85574">
        <ele>499.6</ele>
        <time>2021-03-18T14:10:29.000Z</time>
      </trkpt>
      <trkpt lat="42.96025" lon="1.85561">
        <ele>500</ele>
        <time>2021-03-18T14:10:33.000Z</time>
      </trkpt>
      <trkpt lat="42.96024" lon="1.85546">
        <ele>500.4</ele>
        <time>2021-03-18T14:10:37.000Z</time>
      </trkpt>
      <trkpt lat="42.96031" lon="1.85538">
        <ele>500.9</ele>
        <time>2021-03-18T14:10:44.000Z</time>
      </trkpt>
      <trkpt lat="42.96038" lon="1.8553">
        <ele>501.1</ele>
        <time>2021-03-18T14:10:49.000Z</time>
      </trkpt>
      <trkpt lat="42.96046" lon="1.85519">
        <ele>501.3</ele>
        <time>2021-03-18T14:10:53.000Z</time>
      </trkpt>
      <trkpt lat="42.9605" lon="1.85506">
        <ele>501.4</ele>
        <time>2021-03-18T14:10:57.000Z</time>
      </trkpt>
      <trkpt lat="42.96053" lon="1.85492">
        <ele>501.6</ele>
        <time>2021-03-18T14:11:01.000Z</time>
      </trkpt>
      <trkpt lat="42.96059" lon="1.85482">
        <ele>501.7</ele>
        <time>2021-03-18T14:11:04.000Z</time>
      </trkpt>
      <trkpt lat="42.96058" lon="1.8547">
        <ele>501.8</ele>
        <time>2021-03-18T14:11:07.000Z</time>
      </trkpt>
      <trkpt lat="42.96057" lon="1.85457">
        <ele>501.9</ele>
        <time>2021-03-18T14:11:10.000Z</time>
      </trkpt>
      <trkpt lat="42.96056" lon="1.85444">
        <ele>502</ele>
        <time>2021-03-18T14:11:13.000Z</time>
      </trkpt>
      <trkpt lat="42.96056" lon="1.85429">
        <ele>502.2</ele>
        <time>2021-03-18T14:11:17.000Z</time>
      </trkpt>
      <trkpt lat="42.96062" lon="1.85419">
        <ele>502.4</ele>
        <time>2021-03-18T14:11:20.000Z</time>
      </trkpt>
      <trkpt lat="42.96065" lon="1.85404">
        <ele>502.6</ele>
        <time>2021-03-18T14:11:24.000Z</time>
      </trkpt>
      <trkpt lat="42.96068" lon="1.85392">
        <ele>502.7</ele>
        <time>2021-03-18T14:11:27.000Z</time>
      </trkpt>
      <trkpt lat="42.96072" lon="1.8538">
        <ele>502.9</ele>
        <time>2021-03-18T14:11:30.000Z</time>
      </trkpt>
      <trkpt lat="42.96076" lon="1.85366">
        <ele>503</ele>
        <time>2021-03-18T14:11:33.000Z</time>
      </trkpt>
      <trkpt lat="42.96078" lon="1.85351">
        <ele>503.2</ele>
        <time>2021-03-18T14:11:36.000Z</time>
      </trkpt>
      <trkpt lat="42.96084" lon="1.85337">
        <ele>503.3</ele>
        <time>2021-03-18T14:11:39.000Z</time>
      </trkpt>
      <trkpt lat="42.96086" lon="1.85322">
        <ele>503.3</ele>
        <time>2021-03-18T14:11:42.000Z</time>
      </trkpt>
      <trkpt lat="42.96092" lon="1.85309">
        <ele>503.3</ele>
        <time>2021-03-18T14:11:44.000Z</time>
      </trkpt>
      <trkpt lat="42.96097" lon="1.85295">
        <ele>503.2</ele>
        <time>2021-03-18T14:11:46.000Z</time>
      </trkpt>
      <trkpt lat="42.96102" lon="1.85281">
        <ele>503.2</ele>
        <time>2021-03-18T14:11:48.000Z</time>
      </trkpt>
      <trkpt lat="42.96107" lon="1.85265">
        <ele>503.1</ele>
        <time>2021-03-18T14:11:50.000Z</time>
      </trkpt>
      <trkpt lat="42.96112" lon="1.85248">
        <ele>503</ele>
        <time>2021-03-18T14:11:52.000Z</time>
      </trkpt>
      <trkpt lat="42.96116" lon="1.85232">
        <ele>502.8</ele>
        <time>2021-03-18T14:11:54.000Z</time>
      </trkpt>
      <trkpt lat="42.96121" lon="1.85217">
        <ele>502.5</ele>
        <time>2021-03-18T14:11:56.000Z</time>
      </trkpt>
      <trkpt lat="42.96123" lon="1.85202">
        <ele>502</ele>
        <time>2021-03-18T14:11:58.000Z</time>
      </trkpt>
      <trkpt lat="42.96128" lon="1.85186">
        <ele>501.2</ele>
        <time>2021-03-18T14:12:01.000Z</time>
      </trkpt>
      <trkpt lat="42.96131" lon="1.8517">
        <ele>500.5</ele>
        <time>2021-03-18T14:12:04.000Z</time>
      </trkpt>
      <trkpt lat="42.96132" lon="1.85153">
        <ele>499.8</ele>
        <time>2021-03-18T14:12:07.000Z</time>
      </trkpt>
      <trkpt lat="42.96135" lon="1.85142">
        <ele>499.3</ele>
        <time>2021-03-18T14:12:10.000Z</time>
      </trkpt>
      <trkpt lat="42.96136" lon="1.85128">
        <ele>498.6</ele>
        <time>2021-03-18T14:12:14.000Z</time>
      </trkpt>
      <trkpt lat="42.96138" lon="1.85115">
        <ele>498.2</ele>
        <time>2021-03-18T14:12:17.000Z</time>
      </trkpt>
      <trkpt lat="42.96142" lon="1.851">
        <ele>497.8</ele>
        <time>2021-03-18T14:12:21.000Z</time>
      </trkpt>
      <trkpt lat="42.96145" lon="1.85088">
        <ele>497.6</ele>
        <time>2021-03-18T14:12:24.000Z</time>
      </trkpt>
      <trkpt lat="42.96143" lon="1.85075">
        <ele>497.5</ele>
        <time>2021-03-18T14:12:28.000Z</time>
      </trkpt>
      <trkpt lat="42.96145" lon="1.8506">
        <ele>497.5</ele>
        <time>2021-03-18T14:12:33.000Z</time>
      </trkpt>
      <trkpt lat="42.96145" lon="1.85048">
        <ele>497.8</ele>
        <time>2021-03-18T14:12:37.000Z</time>
      </trkpt>
      <trkpt lat="42.96151" lon="1.85037">
        <ele>498.2</ele>
        <time>2021-03-18T14:12:40.000Z</time>
      </trkpt>
      <trkpt lat="42.96144" lon="1.85025">
        <ele>498.6</ele>
        <time>2021-03-18T14:12:43.000Z</time>
      </trkpt>
      <trkpt lat="42.9615" lon="1.85014">
        <ele>499</ele>
        <time>2021-03-18T14:12:46.000Z</time>
      </trkpt>
      <trkpt lat="42.96147" lon="1.85001">
        <ele>499.6</ele>
        <time>2021-03-18T14:12:50.000Z</time>
      </trkpt>
      <trkpt lat="42.9615" lon="1.84987">
        <ele>500.3</ele>
        <time>2021-03-18T14:12:54.000Z</time>
      </trkpt>
      <trkpt lat="42.96149" lon="1.84974">
        <ele>501</ele>
        <time>2021-03-18T14:12:58.000Z</time>
      </trkpt>
      <trkpt lat="42.96144" lon="1.84964">
        <ele>502</ele>
        <time>2021-03-18T14:13:03.000Z</time>
      </trkpt>
      <trkpt lat="42.96143" lon="1.84951">
        <ele>503.1</ele>
        <time>2021-03-18T14:13:09.000Z</time>
      </trkpt>
      <trkpt lat="42.96139" lon="1.84939">
        <ele>504.7</ele>
        <time>2021-03-18T14:13:18.000Z</time>
      </trkpt>
      <trkpt lat="42.96142" lon="1.84927">
        <ele>505.7</ele>
        <time>2021-03-18T14:13:24.000Z</time>
      </trkpt>
      <trkpt lat="42.96144" lon="1.84914">
        <ele>507.3</ele>
        <time>2021-03-18T14:13:33.000Z</time>
      </trkpt>
      <trkpt lat="42.96149" lon="1.84902">
        <ele>508.3</ele>
        <time>2021-03-18T14:13:39.000Z</time>
      </trkpt>
      <trkpt lat="42.96154" lon="1.84892">
        <ele>508.9</ele>
        <time>2021-03-18T14:13:43.000Z</time>
      </trkpt>
      <trkpt lat="42.9616" lon="1.84881">
        <ele>509.5</ele>
        <time>2021-03-18T14:13:47.000Z</time>
      </trkpt>
      <trkpt lat="42.96167" lon="1.8487">
        <ele>510</ele>
        <time>2021-03-18T14:13:51.000Z</time>
      </trkpt>
      <trkpt lat="42.96172" lon="1.8486">
        <ele>510.5</ele>
        <time>2021-03-18T14:13:56.000Z</time>
      </trkpt>
      <trkpt lat="42.96178" lon="1.84848">
        <ele>510.9</ele>
        <time>2021-03-18T14:14:00.000Z</time>
      </trkpt>
      <trkpt lat="42.96184" lon="1.84837">
        <ele>511.1</ele>
        <time>2021-03-18T14:14:04.000Z</time>
      </trkpt>
      <trkpt lat="42.96191" lon="1.84827">
        <ele>511.3</ele>
        <time>2021-03-18T14:14:08.000Z</time>
      </trkpt>
      <trkpt lat="42.96197" lon="1.84817">
        <ele>511.5</ele>
        <time>2021-03-18T14:14:12.000Z</time>
      </trkpt>
      <trkpt lat="42.962" lon="1.84802">
        <ele>511.8</ele>
        <time>2021-03-18T14:14:17.000Z</time>
      </trkpt>
      <trkpt lat="42.96201" lon="1.84789">
        <ele>511.9</ele>
        <time>2021-03-18T14:14:21.000Z</time>
      </trkpt>
      <trkpt lat="42.96203" lon="1.84776">
        <ele>512.2</ele>
        <time>2021-03-18T14:14:28.000Z</time>
      </trkpt>
      <trkpt lat="42.96208" lon="1.84764">
        <ele>512.3</ele>
        <time>2021-03-18T14:14:32.000Z</time>
      </trkpt>
      <trkpt lat="42.96214" lon="1.8475">
        <ele>512.4</ele>
        <time>2021-03-18T14:14:36.000Z</time>
      </trkpt>
      <trkpt lat="42.96215" lon="1.84735">
        <ele>512.5</ele>
        <time>2021-03-18T14:14:40.000Z</time>
      </trkpt>
      <trkpt lat="42.96219" lon="1.84721">
        <ele>512.7</ele>
        <time>2021-03-18T14:14:44.000Z</time>
      </trkpt>
      <trkpt lat="42.96221" lon="1.84706">
        <ele>513.1</ele>
        <time>2021-03-18T14:14:48.000Z</time>
      </trkpt>
      <trkpt lat="42.96222" lon="1.84693">
        <ele>513.6</ele>
        <time>2021-03-18T14:14:53.000Z</time>
      </trkpt>
      <trkpt lat="42.96228" lon="1.84683">
        <ele>513.9</ele>
        <time>2021-03-18T14:14:57.000Z</time>
      </trkpt>
      <trkpt lat="42.96232" lon="1.84672">
        <ele>514.3</ele>
        <time>2021-03-18T14:15:01.000Z</time>
      </trkpt>
      <trkpt lat="42.9624" lon="1.8466">
        <ele>514.7</ele>
        <time>2021-03-18T14:15:05.000Z</time>
      </trkpt>
      <trkpt lat="42.96245" lon="1.84648">
        <ele>515</ele>
        <time>2021-03-18T14:15:08.000Z</time>
      </trkpt>
      <trkpt lat="42.96251" lon="1.84636">
        <ele>515.3</ele>
        <time>2021-03-18T14:15:11.000Z</time>
      </trkpt>
      <trkpt lat="42.96258" lon="1.84622">
        <ele>515.6</ele>
        <time>2021-03-18T14:15:14.000Z</time>
      </trkpt>
      <trkpt lat="42.96267" lon="1.8461">
        <ele>515.8</ele>
        <time>2021-03-18T14:15:17.000Z</time>
      </trkpt>
      <trkpt lat="42.96272" lon="1.84597">
        <ele>516</ele>
        <time>2021-03-18T14:15:20.000Z</time>
      </trkpt>
      <trkpt lat="42.96275" lon="1.84582">
        <ele>516.3</ele>
        <time>2021-03-18T14:15:24.000Z</time>
      </trkpt>
      <trkpt lat="42.96274" lon="1.84566">
        <ele>516.6</ele>
        <time>2021-03-18T14:15:28.000Z</time>
      </trkpt>
      <trkpt lat="42.96279" lon="1.84552">
        <ele>516.9</ele>
        <time>2021-03-18T14:15:32.000Z</time>
      </trkpt>
      <trkpt lat="42.96286" lon="1.8454">
        <ele>517.1</ele>
        <time>2021-03-18T14:15:35.000Z</time>
      </trkpt>
      <trkpt lat="42.96289" lon="1.84525">
        <ele>517.3</ele>
        <time>2021-03-18T14:15:38.000Z</time>
      </trkpt>
      <trkpt lat="42.96292" lon="1.8451">
        <ele>517.4</ele>
        <time>2021-03-18T14:15:41.000Z</time>
      </trkpt>
      <trkpt lat="42.96297" lon="1.84494">
        <ele>517.6</ele>
        <time>2021-03-18T14:15:44.000Z</time>
      </trkpt>
      <trkpt lat="42.963" lon="1.84478">
        <ele>517.7</ele>
        <time>2021-03-18T14:15:47.000Z</time>
      </trkpt>
      <trkpt lat="42.96305" lon="1.84461">
        <ele>517.8</ele>
        <time>2021-03-18T14:15:50.000Z</time>
      </trkpt>
      <trkpt lat="42.96305" lon="1.84444">
        <ele>517.9</ele>
        <time>2021-03-18T14:15:53.000Z</time>
      </trkpt>
      <trkpt lat="42.96309" lon="1.84427">
        <ele>517.9</ele>
        <time>2021-03-18T14:15:56.000Z</time>
      </trkpt>
      <trkpt lat="42.96314" lon="1.84411">
        <ele>517.8</ele>
        <time>2021-03-18T14:15:59.000Z</time>
      </trkpt>
      <trkpt lat="42.96321" lon="1.84399">
        <ele>517.8</ele>
        <time>2021-03-18T14:16:01.000Z</time>
      </trkpt>
      <trkpt lat="42.96327" lon="1.84383">
        <ele>517.8</ele>
        <time>2021-03-18T14:16:04.000Z</time>
      </trkpt>
      <trkpt lat="42.96333" lon="1.84373">
        <ele>517.8</ele>
        <time>2021-03-18T14:16:06.000Z</time>
      </trkpt>
      <trkpt lat="42.96338" lon="1.84358">
        <ele>517.7</ele>
        <time>2021-03-18T14:16:09.000Z</time>
      </trkpt>
      <trkpt lat="42.96337" lon="1.84344">
        <ele>517.7</ele>
        <time>2021-03-18T14:16:12.000Z</time>
      </trkpt>
      <trkpt lat="42.96341" lon="1.8433">
        <ele>517.7</ele>
        <time>2021-03-18T14:16:16.000Z</time>
      </trkpt>
      <trkpt lat="42.96334" lon="1.8432">
        <ele>517.8</ele>
        <time>2021-03-18T14:16:20.000Z</time>
      </trkpt>
      <trkpt lat="42.96325" lon="1.84306">
        <ele>518.2</ele>
        <time>2021-03-18T14:16:24.000Z</time>
      </trkpt>
      <trkpt lat="42.96327" lon="1.84293">
        <ele>518.5</ele>
        <time>2021-03-18T14:16:28.000Z</time>
      </trkpt>
      <trkpt lat="42.96328" lon="1.8428">
        <ele>518.9</ele>
        <time>2021-03-18T14:16:32.000Z</time>
      </trkpt>
      <trkpt lat="42.9633" lon="1.84267">
        <ele>519.3</ele>
        <time>2021-03-18T14:16:35.000Z</time>
      </trkpt>
      <trkpt lat="42.96332" lon="1.84254">
        <ele>519.7</ele>
        <time>2021-03-18T14:16:38.000Z</time>
      </trkpt>
      <trkpt lat="42.96328" lon="1.8424">
        <ele>520.1</ele>
        <time>2021-03-18T14:16:41.000Z</time>
      </trkpt>
      <trkpt lat="42.96322" lon="1.84227">
        <ele>520.6</ele>
        <time>2021-03-18T14:16:44.000Z</time>
      </trkpt>
      <trkpt lat="42.96323" lon="1.84215">
        <ele>521.1</ele>
        <time>2021-03-18T14:16:48.000Z</time>
      </trkpt>
      <trkpt lat="42.96318" lon="1.84204">
        <ele>521.9</ele>
        <time>2021-03-18T14:16:52.000Z</time>
      </trkpt>
      <trkpt lat="42.96313" lon="1.84193">
        <ele>522.6</ele>
        <time>2021-03-18T14:16:56.000Z</time>
      </trkpt>
      <trkpt lat="42.96302" lon="1.84186">
        <ele>522.9</ele>
        <time>2021-03-18T14:16:58.000Z</time>
      </trkpt>
      <trkpt lat="42.96298" lon="1.84175">
        <ele>523.6</ele>
        <time>2021-03-18T14:17:02.000Z</time>
      </trkpt>
      <trkpt lat="42.96298" lon="1.84162">
        <ele>524.2</ele>
        <time>2021-03-18T14:17:06.000Z</time>
      </trkpt>
      <trkpt lat="42.96295" lon="1.8415">
        <ele>524.9</ele>
        <time>2021-03-18T14:17:10.000Z</time>
      </trkpt>
      <trkpt lat="42.96297" lon="1.84137">
        <ele>525.7</ele>
        <time>2021-03-18T14:17:15.000Z</time>
      </trkpt>
      <trkpt lat="42.9629" lon="1.84126">
        <ele>526.2</ele>
        <time>2021-03-18T14:17:19.000Z</time>
      </trkpt>
      <trkpt lat="42.96282" lon="1.84115">
        <ele>526.8</ele>
        <time>2021-03-18T14:17:23.000Z</time>
      </trkpt>
      <trkpt lat="42.96276" lon="1.84103">
        <ele>527.5</ele>
        <time>2021-03-18T14:17:27.000Z</time>
      </trkpt>
      <trkpt lat="42.96278" lon="1.8409">
        <ele>525.7</ele>
        <time>2021-03-18T14:17:32.000Z</time>
      </trkpt>
      <trkpt lat="42.96278" lon="1.84076">
        <ele>527.1</ele>
        <time>2021-03-18T14:17:37.000Z</time>
      </trkpt>
      <trkpt lat="42.96277" lon="1.84061">
        <ele>528.3</ele>
        <time>2021-03-18T14:17:42.000Z</time>
      </trkpt>
      <trkpt lat="42.96277" lon="1.84049">
        <ele>529</ele>
        <time>2021-03-18T14:17:46.000Z</time>
      </trkpt>
      <trkpt lat="42.96264" lon="1.84038">
        <ele>529.5</ele>
        <time>2021-03-18T14:17:49.000Z</time>
      </trkpt>
      <trkpt lat="42.96258" lon="1.84026">
        <ele>530.1</ele>
        <time>2021-03-18T14:17:53.000Z</time>
      </trkpt>
      <trkpt lat="42.96255" lon="1.84012">
        <ele>530.7</ele>
        <time>2021-03-18T14:17:58.000Z</time>
      </trkpt>
      <trkpt lat="42.96252" lon="1.84">
        <ele>531.2</ele>
        <time>2021-03-18T14:18:02.000Z</time>
      </trkpt>
      <trkpt lat="42.96249" lon="1.83986">
        <ele>531.8</ele>
        <time>2021-03-18T14:18:07.000Z</time>
      </trkpt>
      <trkpt lat="42.96245" lon="1.83972">
        <ele>532.4</ele>
        <time>2021-03-18T14:18:12.000Z</time>
      </trkpt>
      <trkpt lat="42.96248" lon="1.83959">
        <ele>532.9</ele>
        <time>2021-03-18T14:18:17.000Z</time>
      </trkpt>
      <trkpt lat="42.96252" lon="1.83946">
        <ele>533.3</ele>
        <time>2021-03-18T14:18:21.000Z</time>
      </trkpt>
      <trkpt lat="42.96258" lon="1.83933">
        <ele>533.6</ele>
        <time>2021-03-18T14:18:24.000Z</time>
      </trkpt>
      <trkpt lat="42.96265" lon="1.83918">
        <ele>533.9</ele>
        <time>2021-03-18T14:18:27.000Z</time>
      </trkpt>
      <trkpt lat="42.9627" lon="1.83903">
        <ele>534.1</ele>
        <time>2021-03-18T14:18:30.000Z</time>
      </trkpt>
      <trkpt lat="42.96272" lon="1.83888">
        <ele>534.1</ele>
        <time>2021-03-18T14:18:33.000Z</time>
      </trkpt>
      <trkpt lat="42.96271" lon="1.83874">
        <ele>534.1</ele>
        <time>2021-03-18T14:18:36.000Z</time>
      </trkpt>
      <trkpt lat="42.96269" lon="1.83859">
        <ele>534</ele>
        <time>2021-03-18T14:18:39.000Z</time>
      </trkpt>
      <trkpt lat="42.96271" lon="1.83845">
        <ele>534</ele>
        <time>2021-03-18T14:18:42.000Z</time>
      </trkpt>
      <trkpt lat="42.96272" lon="1.83831">
        <ele>534.2</ele>
        <time>2021-03-18T14:18:45.000Z</time>
      </trkpt>
      <trkpt lat="42.96273" lon="1.83818">
        <ele>534.3</ele>
        <time>2021-03-18T14:18:48.000Z</time>
      </trkpt>
      <trkpt lat="42.96272" lon="1.83805">
        <ele>534.4</ele>
        <time>2021-03-18T14:18:51.000Z</time>
      </trkpt>
      <trkpt lat="42.96275" lon="1.83791">
        <ele>534.5</ele>
        <time>2021-03-18T14:18:54.000Z</time>
      </trkpt>
      <trkpt lat="42.96274" lon="1.83778">
        <ele>535.1</ele>
        <time>2021-03-18T14:18:57.000Z</time>
      </trkpt>
      <trkpt lat="42.96271" lon="1.83766">
        <ele>536</ele>
        <time>2021-03-18T14:19:00.000Z</time>
      </trkpt>
      <trkpt lat="42.96271" lon="1.83754">
        <ele>536.6</ele>
        <time>2021-03-18T14:19:03.000Z</time>
      </trkpt>
      <trkpt lat="42.96269" lon="1.83738">
        <ele>536.8</ele>
        <time>2021-03-18T14:19:07.000Z</time>
      </trkpt>
      <trkpt lat="42.96271" lon="1.83721">
        <ele>536.9</ele>
        <time>2021-03-18T14:19:11.000Z</time>
      </trkpt>
      <trkpt lat="42.96273" lon="1.83705">
        <ele>537</ele>
        <time>2021-03-18T14:19:15.000Z</time>
      </trkpt>
      <trkpt lat="42.96278" lon="1.8369">
        <ele>537.1</ele>
        <time>2021-03-18T14:19:18.000Z</time>
      </trkpt>
      <trkpt lat="42.96282" lon="1.83676">
        <ele>537.2</ele>
        <time>2021-03-18T14:19:21.000Z</time>
      </trkpt>
      <trkpt lat="42.96282" lon="1.83663">
        <ele>537.3</ele>
        <time>2021-03-18T14:19:24.000Z</time>
      </trkpt>
      <trkpt lat="42.96281" lon="1.83647">
        <ele>537.5</ele>
        <time>2021-03-18T14:19:28.000Z</time>
      </trkpt>
      <trkpt lat="42.96281" lon="1.83633">
        <ele>537.7</ele>
        <time>2021-03-18T14:19:32.000Z</time>
      </trkpt>
      <trkpt lat="42.96278" lon="1.83621">
        <ele>537.9</ele>
        <time>2021-03-18T14:19:36.000Z</time>
      </trkpt>
      <trkpt lat="42.96279" lon="1.83608">
        <ele>538.1</ele>
        <time>2021-03-18T14:19:40.000Z</time>
      </trkpt>
      <trkpt lat="42.96278" lon="1.83594">
        <ele>538.7</ele>
        <time>2021-03-18T14:19:45.000Z</time>
      </trkpt>
      <trkpt lat="42.96277" lon="1.83581">
        <ele>539.5</ele>
        <time>2021-03-18T14:19:50.000Z</time>
      </trkpt>
      <trkpt lat="42.96276" lon="1.83568">
        <ele>540.3</ele>
        <time>2021-03-18T14:19:54.000Z</time>
      </trkpt>
      <trkpt lat="42.96275" lon="1.83555">
        <ele>541.3</ele>
        <time>2021-03-18T14:19:59.000Z</time>
      </trkpt>
      <trkpt lat="42.96272" lon="1.83542">
        <ele>542.5</ele>
        <time>2021-03-18T14:20:05.000Z</time>
      </trkpt>
      <trkpt lat="42.96263" lon="1.83536">
        <ele>543.5</ele>
        <time>2021-03-18T14:20:11.000Z</time>
      </trkpt>
      <trkpt lat="42.96252" lon="1.83535">
        <ele>544.2</ele>
        <time>2021-03-18T14:20:17.000Z</time>
      </trkpt>
      <trkpt lat="42.96242" lon="1.83537">
        <ele>542.8</ele>
        <time>2021-03-18T14:20:23.000Z</time>
      </trkpt>
      <trkpt lat="42.9625" lon="1.83528">
        <ele>544.9</ele>
        <time>2021-03-18T14:20:28.000Z</time>
      </trkpt>
      <trkpt lat="42.96262" lon="1.83529">
        <ele>545.7</ele>
        <time>2021-03-18T14:20:33.000Z</time>
      </trkpt>
      <trkpt lat="42.96271" lon="1.83539">
        <ele>544</ele>
        <time>2021-03-18T14:20:39.000Z</time>
      </trkpt>
      <trkpt lat="42.96269" lon="1.83552">
        <ele>544.9</ele>
        <time>2021-03-18T14:20:43.000Z</time>
      </trkpt>
      <trkpt lat="42.96277" lon="1.83562">
        <ele>544.8</ele>
        <time>2021-03-18T14:20:45.000Z</time>
      </trkpt>
      <trkpt lat="42.96273" lon="1.83578">
        <ele>544.6</ele>
        <time>2021-03-18T14:20:47.000Z</time>
      </trkpt>
      <trkpt lat="42.96267" lon="1.836">
        <ele>544</ele>
        <time>2021-03-18T14:20:49.000Z</time>
      </trkpt>
      <trkpt lat="42.96272" lon="1.83625">
        <ele>543.6</ele>
        <time>2021-03-18T14:20:52.000Z</time>
      </trkpt>
      <trkpt lat="42.96273" lon="1.83641">
        <ele>543</ele>
        <time>2021-03-18T14:20:54.000Z</time>
      </trkpt>
      <trkpt lat="42.96271" lon="1.83656">
        <ele>542.6</ele>
        <time>2021-03-18T14:20:56.000Z</time>
      </trkpt>
      <trkpt lat="42.96271" lon="1.83671">
        <ele>542.1</ele>
        <time>2021-03-18T14:20:58.000Z</time>
      </trkpt>
      <trkpt lat="42.9627" lon="1.83687">
        <ele>541.7</ele>
        <time>2021-03-18T14:21:00.000Z</time>
      </trkpt>
      <trkpt lat="42.96268" lon="1.83704">
        <ele>541.4</ele>
        <time>2021-03-18T14:21:02.000Z</time>
      </trkpt>
      <trkpt lat="42.96269" lon="1.8372">
        <ele>541.1</ele>
        <time>2021-03-18T14:21:04.000Z</time>
      </trkpt>
      <trkpt lat="42.96266" lon="1.83734">
        <ele>540.9</ele>
        <time>2021-03-18T14:21:06.000Z</time>
      </trkpt>
      <trkpt lat="42.96264" lon="1.83748">
        <ele>540.6</ele>
        <time>2021-03-18T14:21:08.000Z</time>
      </trkpt>
      <trkpt lat="42.9626" lon="1.83761">
        <ele>540.3</ele>
        <time>2021-03-18T14:21:10.000Z</time>
      </trkpt>
      <trkpt lat="42.96256" lon="1.83775">
        <ele>540.1</ele>
        <time>2021-03-18T14:21:12.000Z</time>
      </trkpt>
      <trkpt lat="42.96253" lon="1.83793">
        <ele>539.8</ele>
        <time>2021-03-18T14:21:14.000Z</time>
      </trkpt>
      <trkpt lat="42.96248" lon="1.83814">
        <ele>539</ele>
        <time>2021-03-18T14:21:16.000Z</time>
      </trkpt>
      <trkpt lat="42.96246" lon="1.83836">
        <ele>539</ele>
        <time>2021-03-18T14:21:19.000Z</time>
      </trkpt>
      <trkpt lat="42.96244" lon="1.83848">
        <ele>538.7</ele>
        <time>2021-03-18T14:21:21.000Z</time>
      </trkpt>
      <trkpt lat="42.96245" lon="1.83865">
        <ele>538.3</ele>
        <time>2021-03-18T14:21:24.000Z</time>
      </trkpt>
      <trkpt lat="42.96242" lon="1.83877">
        <ele>538</ele>
        <time>2021-03-18T14:21:27.000Z</time>
      </trkpt>
      <trkpt lat="42.9624" lon="1.83889">
        <ele>537.5</ele>
        <time>2021-03-18T14:21:33.000Z</time>
      </trkpt>
      <trkpt lat="42.96239" lon="1.83877">
        <ele>537.4</ele>
        <time>2021-03-18T14:21:49.000Z</time>
      </trkpt>
      <trkpt lat="42.9623" lon="1.8387">
        <ele>538.4</ele>
        <time>2021-03-18T14:22:06.000Z</time>
      </trkpt>
      <trkpt lat="42.96224" lon="1.8386">
        <ele>539.8</ele>
        <time>2021-03-18T14:22:19.000Z</time>
      </trkpt>
      <trkpt lat="42.96217" lon="1.83852">
        <ele>541.7</ele>
        <time>2021-03-18T14:22:32.000Z</time>
      </trkpt>
      <trkpt lat="42.96208" lon="1.83845">
        <ele>542.9</ele>
        <time>2021-03-18T14:22:41.000Z</time>
      </trkpt>
      <trkpt lat="42.96214" lon="1.83835">
        <ele>544.3</ele>
        <time>2021-03-18T14:22:52.000Z</time>
      </trkpt>
      <trkpt lat="42.96215" lon="1.83822">
        <ele>545.2</ele>
        <time>2021-03-18T14:23:03.000Z</time>
      </trkpt>
      <trkpt lat="42.96218" lon="1.83807">
        <ele>545.9</ele>
        <time>2021-03-18T14:23:13.000Z</time>
      </trkpt>
      <trkpt lat="42.96218" lon="1.83794">
        <ele>546.6</ele>
        <time>2021-03-18T14:23:19.000Z</time>
      </trkpt>
      <trkpt lat="42.96214" lon="1.83783">
        <ele>547.9</ele>
        <time>2021-03-18T14:23:29.000Z</time>
      </trkpt>
      <trkpt lat="42.96208" lon="1.83772">
        <ele>549</ele>
        <time>2021-03-18T14:23:40.000Z</time>
      </trkpt>
      <trkpt lat="42.96209" lon="1.83757">
        <ele>551.7</ele>
        <time>2021-03-18T14:23:53.000Z</time>
      </trkpt>
      <trkpt lat="42.96212" lon="1.83745">
        <ele>552.6</ele>
        <time>2021-03-18T14:23:59.000Z</time>
      </trkpt>
      <trkpt lat="42.9622" lon="1.83736">
        <ele>553.7</ele>
        <time>2021-03-18T14:24:08.000Z</time>
      </trkpt>
      <trkpt lat="42.96208" lon="1.83733">
        <ele>555.7</ele>
        <time>2021-03-18T14:24:23.000Z</time>
      </trkpt>
      <trkpt lat="42.96199" lon="1.83728">
        <ele>556.7</ele>
        <time>2021-03-18T14:24:31.000Z</time>
      </trkpt>
      <trkpt lat="42.96189" lon="1.83727">
        <ele>557.5</ele>
        <time>2021-03-18T14:24:37.000Z</time>
      </trkpt>
      <trkpt lat="42.96192" lon="1.83715">
        <ele>558.1</ele>
        <time>2021-03-18T14:24:42.000Z</time>
      </trkpt>
      <trkpt lat="42.96186" lon="1.83705">
        <ele>559.5</ele>
        <time>2021-03-18T14:24:54.000Z</time>
      </trkpt>
      <trkpt lat="42.96194" lon="1.83697">
        <ele>560</ele>
        <time>2021-03-18T14:24:58.000Z</time>
      </trkpt>
      <trkpt lat="42.96184" lon="1.83694">
        <ele>561.3</ele>
        <time>2021-03-18T14:25:06.000Z</time>
      </trkpt>
      <trkpt lat="42.96178" lon="1.83685">
        <ele>562.9</ele>
        <time>2021-03-18T14:25:15.000Z</time>
      </trkpt>
      <trkpt lat="42.96178" lon="1.83671">
        <ele>564.3</ele>
        <time>2021-03-18T14:25:23.000Z</time>
      </trkpt>
      <trkpt lat="42.96172" lon="1.83661">
        <ele>565.8</ele>
        <time>2021-03-18T14:25:34.000Z</time>
      </trkpt>
      <trkpt lat="42.96161" lon="1.83663">
        <ele>566.4</ele>
        <time>2021-03-18T14:25:39.000Z</time>
      </trkpt>
      <trkpt lat="42.96157" lon="1.83652">
        <ele>568.3</ele>
        <time>2021-03-18T14:25:51.000Z</time>
      </trkpt>
      <trkpt lat="42.96148" lon="1.83649">
        <ele>569.4</ele>
        <time>2021-03-18T14:25:57.000Z</time>
      </trkpt>
      <trkpt lat="42.96141" lon="1.8364">
        <ele>571.3</ele>
        <time>2021-03-18T14:26:07.000Z</time>
      </trkpt>
      <trkpt lat="42.96145" lon="1.83628">
        <ele>572.3</ele>
        <time>2021-03-18T14:26:13.000Z</time>
      </trkpt>
      <trkpt lat="42.96135" lon="1.83624">
        <ele>574</ele>
        <time>2021-03-18T14:26:25.000Z</time>
      </trkpt>
      <trkpt lat="42.96133" lon="1.83612">
        <ele>574.8</ele>
        <time>2021-03-18T14:26:32.000Z</time>
      </trkpt>
      <trkpt lat="42.96124" lon="1.8361">
        <ele>575.5</ele>
        <time>2021-03-18T14:26:37.000Z</time>
      </trkpt>
      <trkpt lat="42.96113" lon="1.83613">
        <ele>576</ele>
        <time>2021-03-18T14:26:41.000Z</time>
      </trkpt>
      <trkpt lat="42.96103" lon="1.83612">
        <ele>576.6</ele>
        <time>2021-03-18T14:26:45.000Z</time>
      </trkpt>
      <trkpt lat="42.96113" lon="1.83601">
        <ele>577.5</ele>
        <time>2021-03-18T14:26:51.000Z</time>
      </trkpt>
      <trkpt lat="42.96103" lon="1.83601">
        <ele>578.7</ele>
        <time>2021-03-18T14:27:00.000Z</time>
      </trkpt>
      <trkpt lat="42.96093" lon="1.83595">
        <ele>579.6</ele>
        <time>2021-03-18T14:27:08.000Z</time>
      </trkpt>
      <trkpt lat="42.96088" lon="1.83584">
        <ele>582.1</ele>
        <time>2021-03-18T14:27:22.000Z</time>
      </trkpt>
      <trkpt lat="42.96092" lon="1.83573">
        <ele>583.4</ele>
        <time>2021-03-18T14:27:29.000Z</time>
      </trkpt>
      <trkpt lat="42.96109" lon="1.83562">
        <ele>586</ele>
        <time>2021-03-18T14:27:50.000Z</time>
      </trkpt>
      <trkpt lat="42.9612" lon="1.83558">
        <ele>587.1</ele>
        <time>2021-03-18T14:27:55.000Z</time>
      </trkpt>
      <trkpt lat="42.96109" lon="1.83557">
        <ele>587.3</ele>
        <time>2021-03-18T14:27:58.000Z</time>
      </trkpt>
      <trkpt lat="42.96117" lon="1.8355">
        <ele>587.9</ele>
        <time>2021-03-18T14:28:07.000Z</time>
      </trkpt>
      <trkpt lat="42.96106" lon="1.83552">
        <ele>591.2</ele>
        <time>2021-03-18T14:28:38.000Z</time>
      </trkpt>
      <trkpt lat="42.96097" lon="1.83559">
        <ele>591.1</ele>
        <time>2021-03-18T14:28:44.000Z</time>
      </trkpt>
      <trkpt lat="42.96089" lon="1.83566">
        <ele>592.4</ele>
        <time>2021-03-18T14:28:49.000Z</time>
      </trkpt>
      <trkpt lat="42.96079" lon="1.83573">
        <ele>592.6</ele>
        <time>2021-03-18T14:28:52.000Z</time>
      </trkpt>
      <trkpt lat="42.96067" lon="1.83577">
        <ele>592.7</ele>
        <time>2021-03-18T14:28:56.000Z</time>
      </trkpt>
      <trkpt lat="42.96067" lon="1.83563">
        <ele>592.5</ele>
        <time>2021-03-18T14:29:06.000Z</time>
      </trkpt>
      <trkpt lat="42.96073" lon="1.83553">
        <ele>592.4</ele>
        <time>2021-03-18T14:29:12.000Z</time>
      </trkpt>
      <trkpt lat="42.96076" lon="1.83542">
        <ele>592.8</ele>
        <time>2021-03-18T14:29:19.000Z</time>
      </trkpt>
      <trkpt lat="42.96077" lon="1.83528">
        <ele>593.7</ele>
        <time>2021-03-18T14:29:27.000Z</time>
      </trkpt>
      <trkpt lat="42.96073" lon="1.83517">
        <ele>595.1</ele>
        <time>2021-03-18T14:29:36.000Z</time>
      </trkpt>
      <trkpt lat="42.96071" lon="1.83504">
        <ele>596.2</ele>
        <time>2021-03-18T14:29:43.000Z</time>
      </trkpt>
      <trkpt lat="42.96064" lon="1.83493">
        <ele>597.4</ele>
        <time>2021-03-18T14:29:49.000Z</time>
      </trkpt>
      <trkpt lat="42.96057" lon="1.83485">
        <ele>598.7</ele>
        <time>2021-03-18T14:29:56.000Z</time>
      </trkpt>
      <trkpt lat="42.9605" lon="1.83477">
        <ele>599.7</ele>
        <time>2021-03-18T14:30:02.000Z</time>
      </trkpt>
      <trkpt lat="42.96043" lon="1.83469">
        <ele>600.8</ele>
        <time>2021-03-18T14:30:10.000Z</time>
      </trkpt>
      <trkpt lat="42.96033" lon="1.83465">
        <ele>602.5</ele>
        <time>2021-03-18T14:30:21.000Z</time>
      </trkpt>
      <trkpt lat="42.96033" lon="1.83452">
        <ele>603.6</ele>
        <time>2021-03-18T14:30:30.000Z</time>
      </trkpt>
      <trkpt lat="42.96036" lon="1.83438">
        <ele>604.4</ele>
        <time>2021-03-18T14:30:37.000Z</time>
      </trkpt>
      <trkpt lat="42.96035" lon="1.83426">
        <ele>606.5</ele>
        <time>2021-03-18T14:30:52.000Z</time>
      </trkpt>
      <trkpt lat="42.96037" lon="1.83413">
        <ele>608.4</ele>
        <time>2021-03-18T14:31:05.000Z</time>
      </trkpt>
      <trkpt lat="42.96037" lon="1.834">
        <ele>609.3</ele>
        <time>2021-03-18T14:31:14.000Z</time>
      </trkpt>
      <trkpt lat="42.96038" lon="1.83387">
        <ele>611.7</ele>
        <time>2021-03-18T14:31:29.000Z</time>
      </trkpt>
      <trkpt lat="42.96039" lon="1.83375">
        <ele>612.5</ele>
        <time>2021-03-18T14:31:41.000Z</time>
      </trkpt>
      <trkpt lat="42.96035" lon="1.83363">
        <ele>613.6</ele>
        <time>2021-03-18T14:31:53.000Z</time>
      </trkpt>
      <trkpt lat="42.96033" lon="1.8335">
        <ele>615.7</ele>
        <time>2021-03-18T14:32:06.000Z</time>
      </trkpt>
      <trkpt lat="42.96041" lon="1.83342">
        <ele>616.5</ele>
        <time>2021-03-18T14:32:11.000Z</time>
      </trkpt>
      <trkpt lat="42.9605" lon="1.83333">
        <ele>617.1</ele>
        <time>2021-03-18T14:32:15.000Z</time>
      </trkpt>
      <trkpt lat="42.96059" lon="1.83329">
        <ele>618.7</ele>
        <time>2021-03-18T14:32:26.000Z</time>
      </trkpt>
      <trkpt lat="42.96069" lon="1.83324">
        <ele>620.3</ele>
        <time>2021-03-18T14:32:36.000Z</time>
      </trkpt>
      <trkpt lat="42.96078" lon="1.83321">
        <ele>621.1</ele>
        <time>2021-03-18T14:32:42.000Z</time>
      </trkpt>
      <trkpt lat="42.96087" lon="1.83309">
        <ele>621.6</ele>
        <time>2021-03-18T14:32:47.000Z</time>
      </trkpt>
      <trkpt lat="42.96095" lon="1.83298">
        <ele>622.4</ele>
        <time>2021-03-18T14:32:54.000Z</time>
      </trkpt>
      <trkpt lat="42.96102" lon="1.8329">
        <ele>622.9</ele>
        <time>2021-03-18T14:33:00.000Z</time>
      </trkpt>
      <trkpt lat="42.96102" lon="1.83277">
        <ele>645.5</ele>
        <time>2021-03-18T14:36:02.000Z</time>
      </trkpt>
      <trkpt lat="42.96099" lon="1.83258">
        <ele>648</ele>
        <time>2021-03-18T14:36:23.000Z</time>
      </trkpt>
      <trkpt lat="42.96087" lon="1.83247">
        <ele>648.7</ele>
        <time>2021-03-18T14:36:26.000Z</time>
      </trkpt>
      <trkpt lat="42.96078" lon="1.83236">
        <ele>649</ele>
        <time>2021-03-18T14:36:28.000Z</time>
      </trkpt>
      <trkpt lat="42.96073" lon="1.83224">
        <ele>649.5</ele>
        <time>2021-03-18T14:36:31.000Z</time>
      </trkpt>
      <trkpt lat="42.96079" lon="1.83213">
        <ele>650.3</ele>
        <time>2021-03-18T14:36:36.000Z</time>
      </trkpt>
      <trkpt lat="42.96087" lon="1.83207">
        <ele>650.6</ele>
        <time>2021-03-18T14:36:39.000Z</time>
      </trkpt>
      <trkpt lat="42.96131" lon="1.83177">
        <ele>651</ele>
        <time>2021-03-18T14:36:47.000Z</time>
      </trkpt>
      <trkpt lat="42.96137" lon="1.83164">
        <ele>652.3</ele>
        <time>2021-03-18T14:36:52.000Z</time>
      </trkpt>
      <trkpt lat="42.96147" lon="1.83156">
        <ele>652.7</ele>
        <time>2021-03-18T14:36:55.000Z</time>
      </trkpt>
      <trkpt lat="42.96154" lon="1.83147">
        <ele>653.4</ele>
        <time>2021-03-18T14:37:00.000Z</time>
      </trkpt>
      <trkpt lat="42.96148" lon="1.83136">
        <ele>654.1</ele>
        <time>2021-03-18T14:37:05.000Z</time>
      </trkpt>
      <trkpt lat="42.96145" lon="1.83123">
        <ele>654.9</ele>
        <time>2021-03-18T14:37:11.000Z</time>
      </trkpt>
      <trkpt lat="42.96144" lon="1.83109">
        <ele>655.6</ele>
        <time>2021-03-18T14:37:16.000Z</time>
      </trkpt>
      <trkpt lat="42.96139" lon="1.83097">
        <ele>655.9</ele>
        <time>2021-03-18T14:37:18.000Z</time>
      </trkpt>
      <trkpt lat="42.96139" lon="1.83082">
        <ele>656.5</ele>
        <time>2021-03-18T14:37:22.000Z</time>
      </trkpt>
      <trkpt lat="42.96136" lon="1.8307">
        <ele>657.1</ele>
        <time>2021-03-18T14:37:26.000Z</time>
      </trkpt>
      <trkpt lat="42.96136" lon="1.83057">
        <ele>658.1</ele>
        <time>2021-03-18T14:37:33.000Z</time>
      </trkpt>
      <trkpt lat="42.96144" lon="1.83048">
        <ele>659</ele>
        <time>2021-03-18T14:37:39.000Z</time>
      </trkpt>
      <trkpt lat="42.96148" lon="1.83037">
        <ele>659.7</ele>
        <time>2021-03-18T14:37:44.000Z</time>
      </trkpt>
      <trkpt lat="42.96145" lon="1.83023">
        <ele>660.5</ele>
        <time>2021-03-18T14:37:49.000Z</time>
      </trkpt>
      <trkpt lat="42.96144" lon="1.8301">
        <ele>661.1</ele>
        <time>2021-03-18T14:37:53.000Z</time>
      </trkpt>
      <trkpt lat="42.96144" lon="1.82996">
        <ele>661.8</ele>
        <time>2021-03-18T14:37:58.000Z</time>
      </trkpt>
      <trkpt lat="42.96152" lon="1.8299">
        <ele>662.5</ele>
        <time>2021-03-18T14:38:04.000Z</time>
      </trkpt>
      <trkpt lat="42.96145" lon="1.82979">
        <ele>663.2</ele>
        <time>2021-03-18T14:38:10.000Z</time>
      </trkpt>
      <trkpt lat="42.96142" lon="1.82967">
        <ele>663.4</ele>
        <time>2021-03-18T14:38:13.000Z</time>
      </trkpt>
      <trkpt lat="42.96148" lon="1.82957">
        <ele>664.6</ele>
        <time>2021-03-18T14:38:22.000Z</time>
      </trkpt>
      <trkpt lat="42.96167" lon="1.82933">
        <ele>666</ele>
        <time>2021-03-18T14:38:39.000Z</time>
      </trkpt>
      <trkpt lat="42.96175" lon="1.82924">
        <ele>667.5</ele>
        <time>2021-03-18T14:38:44.000Z</time>
      </trkpt>
      <trkpt lat="42.96183" lon="1.82916">
        <ele>668.7</ele>
        <time>2021-03-18T14:38:53.000Z</time>
      </trkpt>
      <trkpt lat="42.96192" lon="1.82913">
        <ele>669.6</ele>
        <time>2021-03-18T14:39:00.000Z</time>
      </trkpt>
      <trkpt lat="42.96189" lon="1.829">
        <ele>670.7</ele>
        <time>2021-03-18T14:39:08.000Z</time>
      </trkpt>
      <trkpt lat="42.96193" lon="1.82888">
        <ele>672.4</ele>
        <time>2021-03-18T14:39:21.000Z</time>
      </trkpt>
      <trkpt lat="42.96188" lon="1.82877">
        <ele>674.1</ele>
        <time>2021-03-18T14:39:33.000Z</time>
      </trkpt>
      <trkpt lat="42.96181" lon="1.82868">
        <ele>675.8</ele>
        <time>2021-03-18T14:39:48.000Z</time>
      </trkpt>
      <trkpt lat="42.96173" lon="1.8286">
        <ele>677.6</ele>
        <time>2021-03-18T14:40:03.000Z</time>
      </trkpt>
      <trkpt lat="42.96164" lon="1.82853">
        <ele>679.6</ele>
        <time>2021-03-18T14:40:20.000Z</time>
      </trkpt>
      <trkpt lat="42.96153" lon="1.82848">
        <ele>681</ele>
        <time>2021-03-18T14:40:34.000Z</time>
      </trkpt>
      <trkpt lat="42.96143" lon="1.82845">
        <ele>682.7</ele>
        <time>2021-03-18T14:40:44.000Z</time>
      </trkpt>
      <trkpt lat="42.96135" lon="1.82839">
        <ele>684.1</ele>
        <time>2021-03-18T14:40:55.000Z</time>
      </trkpt>
      <trkpt lat="42.96127" lon="1.82831">
        <ele>685.4</ele>
        <time>2021-03-18T14:41:05.000Z</time>
      </trkpt>
      <trkpt lat="42.96118" lon="1.82826">
        <ele>687.2</ele>
        <time>2021-03-18T14:41:19.000Z</time>
      </trkpt>
      <trkpt lat="42.9611" lon="1.82819">
        <ele>688.9</ele>
        <time>2021-03-18T14:41:31.000Z</time>
      </trkpt>
      <trkpt lat="42.96102" lon="1.8281">
        <ele>691.1</ele>
        <time>2021-03-18T14:41:50.000Z</time>
      </trkpt>
      <trkpt lat="42.96091" lon="1.8281">
        <ele>691</ele>
        <time>2021-03-18T14:41:58.000Z</time>
      </trkpt>
      <trkpt lat="42.96083" lon="1.82806">
        <ele>694</ele>
        <time>2021-03-18T14:42:11.000Z</time>
      </trkpt>
      <trkpt lat="42.96074" lon="1.82802">
        <ele>695.9</ele>
        <time>2021-03-18T14:42:23.000Z</time>
      </trkpt>
      <trkpt lat="42.96066" lon="1.82797">
        <ele>698.2</ele>
        <time>2021-03-18T14:42:38.000Z</time>
      </trkpt>
      <trkpt lat="42.9606" lon="1.82787">
        <ele>700.4</ele>
        <time>2021-03-18T14:42:53.000Z</time>
      </trkpt>
      <trkpt lat="42.96052" lon="1.82778">
        <ele>701.9</ele>
        <time>2021-03-18T14:43:03.000Z</time>
      </trkpt>
      <trkpt lat="42.96045" lon="1.82771">
        <ele>703</ele>
        <time>2021-03-18T14:43:12.000Z</time>
      </trkpt>
      <trkpt lat="42.96038" lon="1.82763">
        <ele>704.6</ele>
        <time>2021-03-18T14:43:26.000Z</time>
      </trkpt>
      <trkpt lat="42.9603" lon="1.82757">
        <ele>705</ele>
        <time>2021-03-18T14:43:31.000Z</time>
      </trkpt>
      <trkpt lat="42.96022" lon="1.8275">
        <ele>705.5</ele>
        <time>2021-03-18T14:43:36.000Z</time>
      </trkpt>
      <trkpt lat="42.96012" lon="1.82741">
        <ele>706.1</ele>
        <time>2021-03-18T14:43:41.000Z</time>
      </trkpt>
      <trkpt lat="42.96004" lon="1.82734">
        <ele>706.5</ele>
        <time>2021-03-18T14:43:45.000Z</time>
      </trkpt>
      <trkpt lat="42.95995" lon="1.82727">
        <ele>707.2</ele>
        <time>2021-03-18T14:43:50.000Z</time>
      </trkpt>
      <trkpt lat="42.95985" lon="1.82722">
        <ele>707.9</ele>
        <time>2021-03-18T14:43:56.000Z</time>
      </trkpt>
      <trkpt lat="42.95976" lon="1.82719">
        <ele>708.6</ele>
        <time>2021-03-18T14:44:03.000Z</time>
      </trkpt>
      <trkpt lat="42.95965" lon="1.82716">
        <ele>709</ele>
        <time>2021-03-18T14:44:11.000Z</time>
      </trkpt>
      <trkpt lat="42.95956" lon="1.82713">
        <ele>711.7</ele>
        <time>2021-03-18T14:44:22.000Z</time>
      </trkpt>
      <trkpt lat="42.95945" lon="1.82713">
        <ele>713</ele>
        <time>2021-03-18T14:44:34.000Z</time>
      </trkpt>
      <trkpt lat="42.95938" lon="1.82725">
        <ele>716.1</ele>
        <time>2021-03-18T14:44:50.000Z</time>
      </trkpt>
      <trkpt lat="42.95926" lon="1.82734">
        <ele>717</ele>
        <time>2021-03-18T14:45:01.000Z</time>
      </trkpt>
      <trkpt lat="42.95911" lon="1.82733">
        <ele>718</ele>
        <time>2021-03-18T14:45:08.000Z</time>
      </trkpt>
      <trkpt lat="42.95901" lon="1.82732">
        <ele>718.9</ele>
        <time>2021-03-18T14:45:13.000Z</time>
      </trkpt>
      <trkpt lat="42.95878" lon="1.82716">
        <ele>719</ele>
        <time>2021-03-18T14:45:20.000Z</time>
      </trkpt>
      <trkpt lat="42.9586" lon="1.82695">
        <ele>719</ele>
        <time>2021-03-18T14:45:24.000Z</time>
      </trkpt>
      <trkpt lat="42.95845" lon="1.82682">
        <ele>719</ele>
        <time>2021-03-18T14:45:28.000Z</time>
      </trkpt>
      <trkpt lat="42.95835" lon="1.82675">
        <ele>718</ele>
        <time>2021-03-18T14:45:32.000Z</time>
      </trkpt>
      <trkpt lat="42.95819" lon="1.8266">
        <ele>718</ele>
        <time>2021-03-18T14:45:40.000Z</time>
      </trkpt>
      <trkpt lat="42.9581" lon="1.82653">
        <ele>719</ele>
        <time>2021-03-18T14:45:44.000Z</time>
      </trkpt>
      <trkpt lat="42.95801" lon="1.82649">
        <ele>719</ele>
        <time>2021-03-18T14:45:53.000Z</time>
      </trkpt>
      <trkpt lat="42.95792" lon="1.82648">
        <ele>720</ele>
        <time>2021-03-18T14:46:03.000Z</time>
      </trkpt>
      <trkpt lat="42.95783" lon="1.82646">
        <ele>722</ele>
        <time>2021-03-18T14:46:15.000Z</time>
      </trkpt>
      <trkpt lat="42.95774" lon="1.82649">
        <ele>723.5</ele>
        <time>2021-03-18T14:46:30.000Z</time>
      </trkpt>
      <trkpt lat="42.95763" lon="1.82649">
        <ele>723.8</ele>
        <time>2021-03-18T14:46:32.000Z</time>
      </trkpt>
      <trkpt lat="42.95746" lon="1.82647">
        <ele>723</ele>
        <time>2021-03-18T14:46:35.000Z</time>
      </trkpt>
      <trkpt lat="42.95755" lon="1.82647">
        <ele>724</ele>
        <time>2021-03-18T14:46:47.000Z</time>
      </trkpt>
      <trkpt lat="42.95763" lon="1.8264">
        <ele>726</ele>
        <time>2021-03-18T14:47:03.000Z</time>
      </trkpt>
      <trkpt lat="42.95755" lon="1.82632">
        <ele>727</ele>
        <time>2021-03-18T14:47:15.000Z</time>
      </trkpt>
      <trkpt lat="42.95748" lon="1.82623">
        <ele>729.3</ele>
        <time>2021-03-18T14:47:30.000Z</time>
      </trkpt>
      <trkpt lat="42.95743" lon="1.82613">
        <ele>731</ele>
        <time>2021-03-18T14:47:44.000Z</time>
      </trkpt>
      <trkpt lat="42.95745" lon="1.82597">
        <ele>732.4</ele>
        <time>2021-03-18T14:47:55.000Z</time>
      </trkpt>
      <trkpt lat="42.95744" lon="1.82583">
        <ele>732</ele>
        <time>2021-03-18T14:48:01.000Z</time>
      </trkpt>
      <trkpt lat="42.95736" lon="1.82577">
        <ele>733.7</ele>
        <time>2021-03-18T14:48:07.000Z</time>
      </trkpt>
      <trkpt lat="42.95727" lon="1.82573">
        <ele>734.6</ele>
        <time>2021-03-18T14:48:15.000Z</time>
      </trkpt>
      <trkpt lat="42.95718" lon="1.82568">
        <ele>735.6</ele>
        <time>2021-03-18T14:48:23.000Z</time>
      </trkpt>
      <trkpt lat="42.95713" lon="1.82556">
        <ele>736.5</ele>
        <time>2021-03-18T14:48:31.000Z</time>
      </trkpt>
      <trkpt lat="42.95708" lon="1.82545">
        <ele>737.7</ele>
        <time>2021-03-18T14:48:40.000Z</time>
      </trkpt>
      <trkpt lat="42.95703" lon="1.82534">
        <ele>739.4</ele>
        <time>2021-03-18T14:48:54.000Z</time>
      </trkpt>
      <trkpt lat="42.95693" lon="1.82528">
        <ele>742.9</ele>
        <time>2021-03-18T14:49:23.000Z</time>
      </trkpt>
      <trkpt lat="42.95694" lon="1.82515">
        <ele>744.4</ele>
        <time>2021-03-18T14:49:33.000Z</time>
      </trkpt>
      <trkpt lat="42.95702" lon="1.82507">
        <ele>745</ele>
        <time>2021-03-18T14:49:37.000Z</time>
      </trkpt>
      <trkpt lat="42.95699" lon="1.82494">
        <ele>746.1</ele>
        <time>2021-03-18T14:49:46.000Z</time>
      </trkpt>
      <trkpt lat="42.957" lon="1.8248">
        <ele>747.6</ele>
        <time>2021-03-18T14:49:58.000Z</time>
      </trkpt>
      <trkpt lat="42.95705" lon="1.82469">
        <ele>748.6</ele>
        <time>2021-03-18T14:50:06.000Z</time>
      </trkpt>
      <trkpt lat="42.95703" lon="1.82456">
        <ele>749.8</ele>
        <time>2021-03-18T14:50:15.000Z</time>
      </trkpt>
      <trkpt lat="42.95704" lon="1.82443">
        <ele>751.6</ele>
        <time>2021-03-18T14:50:32.000Z</time>
      </trkpt>
      <trkpt lat="42.95711" lon="1.82435">
        <ele>752.4</ele>
        <time>2021-03-18T14:50:41.000Z</time>
      </trkpt>
      <trkpt lat="42.95702" lon="1.82427">
        <ele>753.1</ele>
        <time>2021-03-18T14:50:47.000Z</time>
      </trkpt>
      <trkpt lat="42.95695" lon="1.82418">
        <ele>753.5</ele>
        <time>2021-03-18T14:50:52.000Z</time>
      </trkpt>
      <trkpt lat="42.95691" lon="1.82406">
        <ele>754.1</ele>
        <time>2021-03-18T14:50:57.000Z</time>
      </trkpt>
      <trkpt lat="42.95689" lon="1.82392">
        <ele>754.6</ele>
        <time>2021-03-18T14:51:03.000Z</time>
      </trkpt>
      <trkpt lat="42.95688" lon="1.82376">
        <ele>754.9</ele>
        <time>2021-03-18T14:51:08.000Z</time>
      </trkpt>
      <trkpt lat="42.95689" lon="1.82363">
        <ele>755.1</ele>
        <time>2021-03-18T14:51:11.000Z</time>
      </trkpt>
      <trkpt lat="42.95692" lon="1.82351">
        <ele>755.2</ele>
        <time>2021-03-18T14:51:14.000Z</time>
      </trkpt>
      <trkpt lat="42.95691" lon="1.82336">
        <ele>755.3</ele>
        <time>2021-03-18T14:51:18.000Z</time>
      </trkpt>
      <trkpt lat="42.95687" lon="1.8232">
        <ele>755.4</ele>
        <time>2021-03-18T14:51:22.000Z</time>
      </trkpt>
      <trkpt lat="42.95689" lon="1.82306">
        <ele>755.4</ele>
        <time>2021-03-18T14:51:25.000Z</time>
      </trkpt>
      <trkpt lat="42.95687" lon="1.82293">
        <ele>755.5</ele>
        <time>2021-03-18T14:51:28.000Z</time>
      </trkpt>
      <trkpt lat="42.95685" lon="1.82281">
        <ele>755.4</ele>
        <time>2021-03-18T14:51:31.000Z</time>
      </trkpt>
      <trkpt lat="42.95685" lon="1.82266">
        <ele>755.4</ele>
        <time>2021-03-18T14:51:34.000Z</time>
      </trkpt>
      <trkpt lat="42.95685" lon="1.82253">
        <ele>755.4</ele>
        <time>2021-03-18T14:51:38.000Z</time>
      </trkpt>
      <trkpt lat="42.95679" lon="1.82241">
        <ele>755.3</ele>
        <time>2021-03-18T14:51:48.000Z</time>
      </trkpt>
      <trkpt lat="42.95677" lon="1.82225">
        <ele>755.3</ele>
        <time>2021-03-18T14:51:51.000Z</time>
      </trkpt>
      <trkpt lat="42.95677" lon="1.82212">
        <ele>755.3</ele>
        <time>2021-03-18T14:51:55.000Z</time>
      </trkpt>
      <trkpt lat="42.95679" lon="1.82198">
        <ele>755.1</ele>
        <time>2021-03-18T14:51:58.000Z</time>
      </trkpt>
      <trkpt lat="42.9568" lon="1.82182">
        <ele>754.8</ele>
        <time>2021-03-18T14:52:01.000Z</time>
      </trkpt>
      <trkpt lat="42.95684" lon="1.82164">
        <ele>754.4</ele>
        <time>2021-03-18T14:52:04.000Z</time>
      </trkpt>
      <trkpt lat="42.95684" lon="1.8215">
        <ele>754</ele>
        <time>2021-03-18T14:52:06.000Z</time>
      </trkpt>
      <trkpt lat="42.95684" lon="1.82135">
        <ele>753.6</ele>
        <time>2021-03-18T14:52:08.000Z</time>
      </trkpt>
      <trkpt lat="42.95685" lon="1.82118">
        <ele>753</ele>
        <time>2021-03-18T14:52:11.000Z</time>
      </trkpt>
      <trkpt lat="42.95683" lon="1.82104">
        <ele>752.2</ele>
        <time>2021-03-18T14:52:14.000Z</time>
      </trkpt>
      <trkpt lat="42.95678" lon="1.82092">
        <ele>751.4</ele>
        <time>2021-03-18T14:52:18.000Z</time>
      </trkpt>
      <trkpt lat="42.95668" lon="1.82093">
        <ele>749.9</ele>
        <time>2021-03-18T14:52:29.000Z</time>
      </trkpt>
      <trkpt lat="42.95659" lon="1.82091">
        <ele>748</ele>
        <time>2021-03-18T14:52:51.000Z</time>
      </trkpt>
      <trkpt lat="42.95667" lon="1.82085">
        <ele>747.8</ele>
        <time>2021-03-18T14:53:05.000Z</time>
      </trkpt>
      <trkpt lat="42.95678" lon="1.8208">
        <ele>747.5</ele>
        <time>2021-03-18T14:53:09.000Z</time>
      </trkpt>
      <trkpt lat="42.95687" lon="1.82073">
        <ele>746.7</ele>
        <time>2021-03-18T14:53:14.000Z</time>
      </trkpt>
      <trkpt lat="42.95698" lon="1.82074">
        <ele>746</ele>
        <time>2021-03-18T14:53:17.000Z</time>
      </trkpt>
      <trkpt lat="42.95712" lon="1.82079">
        <ele>745</ele>
        <time>2021-03-18T14:53:22.000Z</time>
      </trkpt>
      <trkpt lat="42.95722" lon="1.82083">
        <ele>744.3</ele>
        <time>2021-03-18T14:53:25.000Z</time>
      </trkpt>
      <trkpt lat="42.95733" lon="1.82091">
        <ele>743.5</ele>
        <time>2021-03-18T14:53:29.000Z</time>
      </trkpt>
      <trkpt lat="42.95744" lon="1.82096">
        <ele>742.9</ele>
        <time>2021-03-18T14:53:34.000Z</time>
      </trkpt>
      <trkpt lat="42.95755" lon="1.821">
        <ele>742.7</ele>
        <time>2021-03-18T14:53:36.000Z</time>
      </trkpt>
      <trkpt lat="42.95764" lon="1.821">
        <ele>742.5</ele>
        <time>2021-03-18T14:53:39.000Z</time>
      </trkpt>
      <trkpt lat="42.95775" lon="1.82097">
        <ele>742.4</ele>
        <time>2021-03-18T14:53:43.000Z</time>
      </trkpt>
      <trkpt lat="42.95784" lon="1.82097">
        <ele>742.3</ele>
        <time>2021-03-18T14:53:46.000Z</time>
      </trkpt>
      <trkpt lat="42.95795" lon="1.82095">
        <ele>742.2</ele>
        <time>2021-03-18T14:53:49.000Z</time>
      </trkpt>
      <trkpt lat="42.95806" lon="1.82093">
        <ele>742.1</ele>
        <time>2021-03-18T14:53:52.000Z</time>
      </trkpt>
      <trkpt lat="42.95817" lon="1.82089">
        <ele>742</ele>
        <time>2021-03-18T14:53:56.000Z</time>
      </trkpt>
      <trkpt lat="42.95829" lon="1.8209">
        <ele>741.6</ele>
        <time>2021-03-18T14:54:00.000Z</time>
      </trkpt>
      <trkpt lat="42.95841" lon="1.82091">
        <ele>741.1</ele>
        <time>2021-03-18T14:54:04.000Z</time>
      </trkpt>
      <trkpt lat="42.95852" lon="1.82092">
        <ele>740.7</ele>
        <time>2021-03-18T14:54:08.000Z</time>
      </trkpt>
      <trkpt lat="42.95863" lon="1.82095">
        <ele>740.2</ele>
        <time>2021-03-18T14:54:12.000Z</time>
      </trkpt>
      <trkpt lat="42.95875" lon="1.82098">
        <ele>739.8</ele>
        <time>2021-03-18T14:54:15.000Z</time>
      </trkpt>
      <trkpt lat="42.95885" lon="1.82104">
        <ele>739.4</ele>
        <time>2021-03-18T14:54:18.000Z</time>
      </trkpt>
      <trkpt lat="42.95893" lon="1.8211">
        <ele>738.9</ele>
        <time>2021-03-18T14:54:20.000Z</time>
      </trkpt>
      <trkpt lat="42.95904" lon="1.82112">
        <ele>738.2</ele>
        <time>2021-03-18T14:54:23.000Z</time>
      </trkpt>
      <trkpt lat="42.95911" lon="1.82103">
        <ele>735.7</ele>
        <time>2021-03-18T14:54:36.000Z</time>
      </trkpt>
      <trkpt lat="42.95912" lon="1.82091">
        <ele>734.8</ele>
        <time>2021-03-18T14:54:40.000Z</time>
      </trkpt>
      <trkpt lat="42.95916" lon="1.82078">
        <ele>734.1</ele>
        <time>2021-03-18T14:54:44.000Z</time>
      </trkpt>
      <trkpt lat="42.95921" lon="1.82065">
        <ele>733.5</ele>
        <time>2021-03-18T14:54:48.000Z</time>
      </trkpt>
      <trkpt lat="42.95925" lon="1.82054">
        <ele>733.2</ele>
        <time>2021-03-18T14:54:50.000Z</time>
      </trkpt>
      <trkpt lat="42.95928" lon="1.82039">
        <ele>732.6</ele>
        <time>2021-03-18T14:54:54.000Z</time>
      </trkpt>
      <trkpt lat="42.95927" lon="1.82026">
        <ele>731.8</ele>
        <time>2021-03-18T14:54:58.000Z</time>
      </trkpt>
      <trkpt lat="42.95929" lon="1.82013">
        <ele>730.2</ele>
        <time>2021-03-18T14:55:06.000Z</time>
      </trkpt>
      <trkpt lat="42.95931" lon="1.82">
        <ele>728.9</ele>
        <time>2021-03-18T14:55:13.000Z</time>
      </trkpt>
      <trkpt lat="42.95928" lon="1.81989">
        <ele>728.1</ele>
        <time>2021-03-18T14:55:20.000Z</time>
      </trkpt>
      <trkpt lat="42.95929" lon="1.81975">
        <ele>728.1</ele>
        <time>2021-03-18T14:55:28.000Z</time>
      </trkpt>
      <trkpt lat="42.9593" lon="1.81962">
        <ele>729.5</ele>
        <time>2021-03-18T14:55:52.000Z</time>
      </trkpt>
      <trkpt lat="42.95927" lon="1.81949">
        <ele>730.5</ele>
        <time>2021-03-18T14:56:02.000Z</time>
      </trkpt>
      <trkpt lat="42.95926" lon="1.81937">
        <ele>731.2</ele>
        <time>2021-03-18T14:56:12.000Z</time>
      </trkpt>
      <trkpt lat="42.9592" lon="1.81927">
        <ele>732</ele>
        <time>2021-03-18T14:56:20.000Z</time>
      </trkpt>
      <trkpt lat="42.95916" lon="1.81914">
        <ele>733.4</ele>
        <time>2021-03-18T14:56:31.000Z</time>
      </trkpt>
      <trkpt lat="42.95908" lon="1.81906">
        <ele>734</ele>
        <time>2021-03-18T14:56:39.000Z</time>
      </trkpt>
      <trkpt lat="42.95898" lon="1.81905">
        <ele>734.6</ele>
        <time>2021-03-18T14:56:48.000Z</time>
      </trkpt>
      <trkpt lat="42.95889" lon="1.81901">
        <ele>735.9</ele>
        <time>2021-03-18T14:56:59.000Z</time>
      </trkpt>
      <trkpt lat="42.95884" lon="1.81891">
        <ele>736.7</ele>
        <time>2021-03-18T14:57:08.000Z</time>
      </trkpt>
      <trkpt lat="42.9588" lon="1.81879">
        <ele>737.9</ele>
        <time>2021-03-18T14:57:20.000Z</time>
      </trkpt>
      <trkpt lat="42.95878" lon="1.81866">
        <ele>738.5</ele>
        <time>2021-03-18T14:57:27.000Z</time>
      </trkpt>
      <trkpt lat="42.95871" lon="1.81856">
        <ele>738.8</ele>
        <time>2021-03-18T14:57:32.000Z</time>
      </trkpt>
      <trkpt lat="42.95865" lon="1.81846">
        <ele>739</ele>
        <time>2021-03-18T14:57:36.000Z</time>
      </trkpt>
      <trkpt lat="42.95864" lon="1.81834">
        <ele>739.2</ele>
        <time>2021-03-18T14:57:40.000Z</time>
      </trkpt>
      <trkpt lat="42.95858" lon="1.81821">
        <ele>739.2</ele>
        <time>2021-03-18T14:57:45.000Z</time>
      </trkpt>
      <trkpt lat="42.95852" lon="1.81812">
        <ele>739.3</ele>
        <time>2021-03-18T14:57:50.000Z</time>
      </trkpt>
      <trkpt lat="42.95852" lon="1.81798">
        <ele>739.3</ele>
        <time>2021-03-18T14:57:55.000Z</time>
      </trkpt>
      <trkpt lat="42.95857" lon="1.81788">
        <ele>739.2</ele>
        <time>2021-03-18T14:57:59.000Z</time>
      </trkpt>
      <trkpt lat="42.95858" lon="1.81775">
        <ele>738.7</ele>
        <time>2021-03-18T14:58:03.000Z</time>
      </trkpt>
      <trkpt lat="42.95857" lon="1.8176">
        <ele>738.1</ele>
        <time>2021-03-18T14:58:07.000Z</time>
      </trkpt>
      <trkpt lat="42.95857" lon="1.81744">
        <ele>737.3</ele>
        <time>2021-03-18T14:58:11.000Z</time>
      </trkpt>
      <trkpt lat="42.95853" lon="1.8173">
        <ele>736.7</ele>
        <time>2021-03-18T14:58:14.000Z</time>
      </trkpt>
      <trkpt lat="42.95849" lon="1.81717">
        <ele>735.9</ele>
        <time>2021-03-18T14:58:18.000Z</time>
      </trkpt>
      <trkpt lat="42.95844" lon="1.81706">
        <ele>735.4</ele>
        <time>2021-03-18T14:58:22.000Z</time>
      </trkpt>
      <trkpt lat="42.95838" lon="1.81695">
        <ele>734.9</ele>
        <time>2021-03-18T14:58:26.000Z</time>
      </trkpt>
      <trkpt lat="42.95832" lon="1.81683">
        <ele>734.5</ele>
        <time>2021-03-18T14:58:31.000Z</time>
      </trkpt>
      <trkpt lat="42.95827" lon="1.81673">
        <ele>734.4</ele>
        <time>2021-03-18T14:58:35.000Z</time>
      </trkpt>
      <trkpt lat="42.9582" lon="1.81663">
        <ele>734.5</ele>
        <time>2021-03-18T14:58:39.000Z</time>
      </trkpt>
      <trkpt lat="42.95812" lon="1.81655">
        <ele>735.1</ele>
        <time>2021-03-18T14:58:46.000Z</time>
      </trkpt>
      <trkpt lat="42.95804" lon="1.81648">
        <ele>735.9</ele>
        <time>2021-03-18T14:58:52.000Z</time>
      </trkpt>
      <trkpt lat="42.95796" lon="1.8164">
        <ele>736.9</ele>
        <time>2021-03-18T14:58:57.000Z</time>
      </trkpt>
      <trkpt lat="42.95789" lon="1.81632">
        <ele>737.8</ele>
        <time>2021-03-18T14:59:02.000Z</time>
      </trkpt>
      <trkpt lat="42.95781" lon="1.81627">
        <ele>738.5</ele>
        <time>2021-03-18T14:59:06.000Z</time>
      </trkpt>
      <trkpt lat="42.95772" lon="1.81624">
        <ele>739.6</ele>
        <time>2021-03-18T14:59:12.000Z</time>
      </trkpt>
      <trkpt lat="42.95762" lon="1.81618">
        <ele>741.3</ele>
        <time>2021-03-18T14:59:23.000Z</time>
      </trkpt>
      <trkpt lat="42.95753" lon="1.81611">
        <ele>742.2</ele>
        <time>2021-03-18T14:59:30.000Z</time>
      </trkpt>
      <trkpt lat="42.95744" lon="1.81605">
        <ele>743.1</ele>
        <time>2021-03-18T14:59:37.000Z</time>
      </trkpt>
      <trkpt lat="42.95735" lon="1.81599">
        <ele>743.9</ele>
        <time>2021-03-18T14:59:44.000Z</time>
      </trkpt>
      <trkpt lat="42.95727" lon="1.81593">
        <ele>744.6</ele>
        <time>2021-03-18T14:59:51.000Z</time>
      </trkpt>
      <trkpt lat="42.95717" lon="1.81588">
        <ele>745.4</ele>
        <time>2021-03-18T14:59:58.000Z</time>
      </trkpt>
      <trkpt lat="42.95709" lon="1.81581">
        <ele>746</ele>
        <time>2021-03-18T15:00:05.000Z</time>
      </trkpt>
      <trkpt lat="42.957" lon="1.81573">
        <ele>746.9</ele>
        <time>2021-03-18T15:00:13.000Z</time>
      </trkpt>
      <trkpt lat="42.95691" lon="1.81566">
        <ele>747.3</ele>
        <time>2021-03-18T15:00:18.000Z</time>
      </trkpt>
      <trkpt lat="42.95681" lon="1.81569">
        <ele>747.9</ele>
        <time>2021-03-18T15:00:24.000Z</time>
      </trkpt>
      <trkpt lat="42.95671" lon="1.81575">
        <ele>749.5</ele>
        <time>2021-03-18T15:00:32.000Z</time>
      </trkpt>
      <trkpt lat="42.95663" lon="1.81582">
        <ele>750.7</ele>
        <time>2021-03-18T15:00:38.000Z</time>
      </trkpt>
      <trkpt lat="42.95653" lon="1.81585">
        <ele>752.2</ele>
        <time>2021-03-18T15:00:47.000Z</time>
      </trkpt>
      <trkpt lat="42.95644" lon="1.81586">
        <ele>753</ele>
        <time>2021-03-18T15:00:52.000Z</time>
      </trkpt>
      <trkpt lat="42.95635" lon="1.8159">
        <ele>754.6</ele>
        <time>2021-03-18T15:01:01.000Z</time>
      </trkpt>
      <trkpt lat="42.95626" lon="1.81591">
        <ele>755.5</ele>
        <time>2021-03-18T15:01:07.000Z</time>
      </trkpt>
      <trkpt lat="42.95616" lon="1.81597">
        <ele>756.6</ele>
        <time>2021-03-18T15:01:14.000Z</time>
      </trkpt>
      <trkpt lat="42.95608" lon="1.81603">
        <ele>757.3</ele>
        <time>2021-03-18T15:01:19.000Z</time>
      </trkpt>
      <trkpt lat="42.95599" lon="1.81607">
        <ele>758.9</ele>
        <time>2021-03-18T15:01:29.000Z</time>
      </trkpt>
      <trkpt lat="42.95589" lon="1.81608">
        <ele>759.7</ele>
        <time>2021-03-18T15:01:35.000Z</time>
      </trkpt>
      <trkpt lat="42.9558" lon="1.81612">
        <ele>760.8</ele>
        <time>2021-03-18T15:01:44.000Z</time>
      </trkpt>
      <trkpt lat="42.95572" lon="1.81624">
        <ele>761.4</ele>
        <time>2021-03-18T15:01:49.000Z</time>
      </trkpt>
      <trkpt lat="42.95574" lon="1.8164">
        <ele>761.7</ele>
        <time>2021-03-18T15:01:52.000Z</time>
      </trkpt>
      <trkpt lat="42.95575" lon="1.81658">
        <ele>761.9</ele>
        <time>2021-03-18T15:01:55.000Z</time>
      </trkpt>
      <trkpt lat="42.95579" lon="1.81674">
        <ele>762</ele>
        <time>2021-03-18T15:01:58.000Z</time>
      </trkpt>
      <trkpt lat="42.95587" lon="1.81689">
        <ele>762</ele>
        <time>2021-03-18T15:02:00.000Z</time>
      </trkpt>
      <trkpt lat="42.95592" lon="1.81706">
        <ele>761.8</ele>
        <time>2021-03-18T15:02:02.000Z</time>
      </trkpt>
      <trkpt lat="42.95595" lon="1.81723">
        <ele>761.5</ele>
        <time>2021-03-18T15:02:04.000Z</time>
      </trkpt>
      <trkpt lat="42.95593" lon="1.81738">
        <ele>761.3</ele>
        <time>2021-03-18T15:02:06.000Z</time>
      </trkpt>
      <trkpt lat="42.95586" lon="1.8175">
        <ele>761</ele>
        <time>2021-03-18T15:02:08.000Z</time>
      </trkpt>
      <trkpt lat="42.95578" lon="1.81766">
        <ele>760.7</ele>
        <time>2021-03-18T15:02:10.000Z</time>
      </trkpt>
      <trkpt lat="42.95568" lon="1.81786">
        <ele>760.2</ele>
        <time>2021-03-18T15:02:12.000Z</time>
      </trkpt>
      <trkpt lat="42.95563" lon="1.81798">
        <ele>759.8</ele>
        <time>2021-03-18T15:02:13.000Z</time>
      </trkpt>
      <trkpt lat="42.95557" lon="1.81811">
        <ele>759.4</ele>
        <time>2021-03-18T15:02:14.000Z</time>
      </trkpt>
      <trkpt lat="42.95552" lon="1.81825">
        <ele>759.1</ele>
        <time>2021-03-18T15:02:15.000Z</time>
      </trkpt>
      <trkpt lat="42.95546" lon="1.81838">
        <ele>758.7</ele>
        <time>2021-03-18T15:02:16.000Z</time>
      </trkpt>
      <trkpt lat="42.95538" lon="1.8185">
        <ele>758.3</ele>
        <time>2021-03-18T15:02:17.000Z</time>
      </trkpt>
      <trkpt lat="42.95531" lon="1.81861">
        <ele>757.8</ele>
        <time>2021-03-18T15:02:18.000Z</time>
      </trkpt>
      <trkpt lat="42.95523" lon="1.81871">
        <ele>757.4</ele>
        <time>2021-03-18T15:02:19.000Z</time>
      </trkpt>
      <trkpt lat="42.95515" lon="1.81881">
        <ele>757</ele>
        <time>2021-03-18T15:02:20.000Z</time>
      </trkpt>
      <trkpt lat="42.95509" lon="1.8189">
        <ele>756.6</ele>
        <time>2021-03-18T15:02:21.000Z</time>
      </trkpt>
      <trkpt lat="42.95502" lon="1.819">
        <ele>756.2</ele>
        <time>2021-03-18T15:02:22.000Z</time>
      </trkpt>
      <trkpt lat="42.95495" lon="1.81909">
        <ele>755.8</ele>
        <time>2021-03-18T15:02:23.000Z</time>
      </trkpt>
      <trkpt lat="42.95489" lon="1.81918">
        <ele>755.5</ele>
        <time>2021-03-18T15:02:24.000Z</time>
      </trkpt>
      <trkpt lat="42.95483" lon="1.81927">
        <ele>755.1</ele>
        <time>2021-03-18T15:02:25.000Z</time>
      </trkpt>
      <trkpt lat="42.95472" lon="1.81945">
        <ele>754.5</ele>
        <time>2021-03-18T15:02:27.000Z</time>
      </trkpt>
      <trkpt lat="42.95464" lon="1.81959">
        <ele>753.9</ele>
        <time>2021-03-18T15:02:29.000Z</time>
      </trkpt>
      <trkpt lat="42.95457" lon="1.81972">
        <ele>753.4</ele>
        <time>2021-03-18T15:02:31.000Z</time>
      </trkpt>
      <trkpt lat="42.95451" lon="1.81983">
        <ele>753</ele>
        <time>2021-03-18T15:02:33.000Z</time>
      </trkpt>
      <trkpt lat="42.95444" lon="1.81993">
        <ele>752.9</ele>
        <time>2021-03-18T15:02:35.000Z</time>
      </trkpt>
      <trkpt lat="42.95436" lon="1.82006">
        <ele>752.8</ele>
        <time>2021-03-18T15:02:38.000Z</time>
      </trkpt>
      <trkpt lat="42.9543" lon="1.82018">
        <ele>752.9</ele>
        <time>2021-03-18T15:02:41.000Z</time>
      </trkpt>
      <trkpt lat="42.95423" lon="1.82028">
        <ele>753.2</ele>
        <time>2021-03-18T15:02:44.000Z</time>
      </trkpt>
      <trkpt lat="42.95416" lon="1.82038">
        <ele>753.6</ele>
        <time>2021-03-18T15:02:47.000Z</time>
      </trkpt>
      <trkpt lat="42.95408" lon="1.8205">
        <ele>754.1</ele>
        <time>2021-03-18T15:02:50.000Z</time>
      </trkpt>
      <trkpt lat="42.954" lon="1.8206">
        <ele>754.6</ele>
        <time>2021-03-18T15:02:53.000Z</time>
      </trkpt>
      <trkpt lat="42.95394" lon="1.8207">
        <ele>755.2</ele>
        <time>2021-03-18T15:02:56.000Z</time>
      </trkpt>
      <trkpt lat="42.95387" lon="1.82077">
        <ele>755.9</ele>
        <time>2021-03-18T15:02:59.000Z</time>
      </trkpt>
      <trkpt lat="42.95381" lon="1.8209">
        <ele>757.1</ele>
        <time>2021-03-18T15:03:04.000Z</time>
      </trkpt>
      <trkpt lat="42.95376" lon="1.82102">
        <ele>757.9</ele>
        <time>2021-03-18T15:03:08.000Z</time>
      </trkpt>
      <trkpt lat="42.95381" lon="1.82118">
        <ele>758.6</ele>
        <time>2021-03-18T15:03:13.000Z</time>
      </trkpt>
      <trkpt lat="42.95389" lon="1.82132">
        <ele>758.8</ele>
        <time>2021-03-18T15:03:15.000Z</time>
      </trkpt>
      <trkpt lat="42.95394" lon="1.82143">
        <ele>758.7</ele>
        <time>2021-03-18T15:03:16.000Z</time>
      </trkpt>
      <trkpt lat="42.95403" lon="1.82165">
        <ele>758.3</ele>
        <time>2021-03-18T15:03:18.000Z</time>
      </trkpt>
      <trkpt lat="42.95407" lon="1.8218">
        <ele>757.9</ele>
        <time>2021-03-18T15:03:19.000Z</time>
      </trkpt>
      <trkpt lat="42.95413" lon="1.82194">
        <ele>757.4</ele>
        <time>2021-03-18T15:03:20.000Z</time>
      </trkpt>
      <trkpt lat="42.9542" lon="1.8221">
        <ele>756.9</ele>
        <time>2021-03-18T15:03:21.000Z</time>
      </trkpt>
      <trkpt lat="42.95426" lon="1.82228">
        <ele>756.2</ele>
        <time>2021-03-18T15:03:22.000Z</time>
      </trkpt>
      <trkpt lat="42.95433" lon="1.82245">
        <ele>755.6</ele>
        <time>2021-03-18T15:03:23.000Z</time>
      </trkpt>
      <trkpt lat="42.9544" lon="1.82263">
        <ele>754.8</ele>
        <time>2021-03-18T15:03:24.000Z</time>
      </trkpt>
      <trkpt lat="42.95447" lon="1.82281">
        <ele>754</ele>
        <time>2021-03-18T15:03:25.000Z</time>
      </trkpt>
      <trkpt lat="42.95454" lon="1.82299">
        <ele>753.1</ele>
        <time>2021-03-18T15:03:26.000Z</time>
      </trkpt>
      <trkpt lat="42.9546" lon="1.82317">
        <ele>752.2</ele>
        <time>2021-03-18T15:03:27.000Z</time>
      </trkpt>
      <trkpt lat="42.95467" lon="1.82333">
        <ele>751.2</ele>
        <time>2021-03-18T15:03:28.000Z</time>
      </trkpt>
      <trkpt lat="42.95473" lon="1.82349">
        <ele>750.2</ele>
        <time>2021-03-18T15:03:29.000Z</time>
      </trkpt>
      <trkpt lat="42.95477" lon="1.82362">
        <ele>749.1</ele>
        <time>2021-03-18T15:03:30.000Z</time>
      </trkpt>
      <trkpt lat="42.95481" lon="1.82375">
        <ele>748.1</ele>
        <time>2021-03-18T15:03:31.000Z</time>
      </trkpt>
      <trkpt lat="42.95485" lon="1.8239">
        <ele>746.9</ele>
        <time>2021-03-18T15:03:32.000Z</time>
      </trkpt>
      <trkpt lat="42.95487" lon="1.82405">
        <ele>745.7</ele>
        <time>2021-03-18T15:03:33.000Z</time>
      </trkpt>
      <trkpt lat="42.95488" lon="1.82422">
        <ele>744.5</ele>
        <time>2021-03-18T15:03:34.000Z</time>
      </trkpt>
      <trkpt lat="42.95489" lon="1.82437">
        <ele>743.3</ele>
        <time>2021-03-18T15:03:35.000Z</time>
      </trkpt>
      <trkpt lat="42.95487" lon="1.82453">
        <ele>742.1</ele>
        <time>2021-03-18T15:03:36.000Z</time>
      </trkpt>
      <trkpt lat="42.95485" lon="1.82467">
        <ele>740.9</ele>
        <time>2021-03-18T15:03:37.000Z</time>
      </trkpt>
      <trkpt lat="42.95482" lon="1.8248">
        <ele>739.7</ele>
        <time>2021-03-18T15:03:38.000Z</time>
      </trkpt>
      <trkpt lat="42.95479" lon="1.82493">
        <ele>738.4</ele>
        <time>2021-03-18T15:03:39.000Z</time>
      </trkpt>
      <trkpt lat="42.95477" lon="1.82508">
        <ele>737.2</ele>
        <time>2021-03-18T15:03:40.000Z</time>
      </trkpt>
      <trkpt lat="42.95474" lon="1.82522">
        <ele>735.9</ele>
        <time>2021-03-18T15:03:41.000Z</time>
      </trkpt>
      <trkpt lat="42.95472" lon="1.82535">
        <ele>734.6</ele>
        <time>2021-03-18T15:03:42.000Z</time>
      </trkpt>
      <trkpt lat="42.95471" lon="1.82548">
        <ele>733.1</ele>
        <time>2021-03-18T15:03:43.000Z</time>
      </trkpt>
      <trkpt lat="42.9547" lon="1.8256">
        <ele>731.7</ele>
        <time>2021-03-18T15:03:44.000Z</time>
      </trkpt>
      <trkpt lat="42.95468" lon="1.82574">
        <ele>730.2</ele>
        <time>2021-03-18T15:03:45.000Z</time>
      </trkpt>
      <trkpt lat="42.95469" lon="1.8259">
        <ele>728.5</ele>
        <time>2021-03-18T15:03:46.000Z</time>
      </trkpt>
      <trkpt lat="42.95469" lon="1.82606">
        <ele>727</ele>
        <time>2021-03-18T15:03:47.000Z</time>
      </trkpt>
      <trkpt lat="42.95468" lon="1.82622">
        <ele>725.2</ele>
        <time>2021-03-18T15:03:48.000Z</time>
      </trkpt>
      <trkpt lat="42.95467" lon="1.82637">
        <ele>723.4</ele>
        <time>2021-03-18T15:03:49.000Z</time>
      </trkpt>
      <trkpt lat="42.95463" lon="1.82651">
        <ele>721.8</ele>
        <time>2021-03-18T15:03:50.000Z</time>
      </trkpt>
      <trkpt lat="42.95459" lon="1.82665">
        <ele>720</ele>
        <time>2021-03-18T15:03:51.000Z</time>
      </trkpt>
      <trkpt lat="42.95455" lon="1.82679">
        <ele>718.1</ele>
        <time>2021-03-18T15:03:52.000Z</time>
      </trkpt>
      <trkpt lat="42.95451" lon="1.82693">
        <ele>716.3</ele>
        <time>2021-03-18T15:03:53.000Z</time>
      </trkpt>
      <trkpt lat="42.95445" lon="1.82708">
        <ele>714.4</ele>
        <time>2021-03-18T15:03:54.000Z</time>
      </trkpt>
      <trkpt lat="42.9544" lon="1.82722">
        <ele>712.4</ele>
        <time>2021-03-18T15:03:55.000Z</time>
      </trkpt>
      <trkpt lat="42.95435" lon="1.82736">
        <ele>710.5</ele>
        <time>2021-03-18T15:03:56.000Z</time>
      </trkpt>
      <trkpt lat="42.9543" lon="1.82749">
        <ele>708.6</ele>
        <time>2021-03-18T15:03:57.000Z</time>
      </trkpt>
      <trkpt lat="42.95422" lon="1.82762">
        <ele>706.7</ele>
        <time>2021-03-18T15:03:58.000Z</time>
      </trkpt>
      <trkpt lat="42.95415" lon="1.82774">
        <ele>704.8</ele>
        <time>2021-03-18T15:03:59.000Z</time>
      </trkpt>
      <trkpt lat="42.95409" lon="1.82787">
        <ele>702.7</ele>
        <time>2021-03-18T15:04:00.000Z</time>
      </trkpt>
      <trkpt lat="42.95402" lon="1.828">
        <ele>700.7</ele>
        <time>2021-03-18T15:04:01.000Z</time>
      </trkpt>
      <trkpt lat="42.95397" lon="1.82813">
        <ele>698.7</ele>
        <time>2021-03-18T15:04:02.000Z</time>
      </trkpt>
      <trkpt lat="42.95393" lon="1.82826">
        <ele>696.7</ele>
        <time>2021-03-18T15:04:03.000Z</time>
      </trkpt>
      <trkpt lat="42.9539" lon="1.82839">
        <ele>694.7</ele>
        <time>2021-03-18T15:04:04.000Z</time>
      </trkpt>
      <trkpt lat="42.95388" lon="1.82854">
        <ele>692.7</ele>
        <time>2021-03-18T15:04:05.000Z</time>
      </trkpt>
      <trkpt lat="42.95388" lon="1.82869">
        <ele>690.8</ele>
        <time>2021-03-18T15:04:06.000Z</time>
      </trkpt>
      <trkpt lat="42.95389" lon="1.82884">
        <ele>688.9</ele>
        <time>2021-03-18T15:04:07.000Z</time>
      </trkpt>
      <trkpt lat="42.9539" lon="1.82899">
        <ele>687</ele>
        <time>2021-03-18T15:04:08.000Z</time>
      </trkpt>
      <trkpt lat="42.95391" lon="1.82914">
        <ele>685.3</ele>
        <time>2021-03-18T15:04:09.000Z</time>
      </trkpt>
      <trkpt lat="42.95394" lon="1.82928">
        <ele>683.6</ele>
        <time>2021-03-18T15:04:10.000Z</time>
      </trkpt>
      <trkpt lat="42.95396" lon="1.82943">
        <ele>682</ele>
        <time>2021-03-18T15:04:11.000Z</time>
      </trkpt>
      <trkpt lat="42.95399" lon="1.82957">
        <ele>680.5</ele>
        <time>2021-03-18T15:04:12.000Z</time>
      </trkpt>
      <trkpt lat="42.95402" lon="1.82971">
        <ele>678.9</ele>
        <time>2021-03-18T15:04:13.000Z</time>
      </trkpt>
      <trkpt lat="42.95404" lon="1.82986">
        <ele>677.3</ele>
        <time>2021-03-18T15:04:14.000Z</time>
      </trkpt>
      <trkpt lat="42.95407" lon="1.83002">
        <ele>675.7</ele>
        <time>2021-03-18T15:04:15.000Z</time>
      </trkpt>
      <trkpt lat="42.95408" lon="1.83018">
        <ele>674.1</ele>
        <time>2021-03-18T15:04:16.000Z</time>
      </trkpt>
      <trkpt lat="42.95409" lon="1.83033">
        <ele>672.6</ele>
        <time>2021-03-18T15:04:17.000Z</time>
      </trkpt>
      <trkpt lat="42.95412" lon="1.83047">
        <ele>671.1</ele>
        <time>2021-03-18T15:04:18.000Z</time>
      </trkpt>
      <trkpt lat="42.95415" lon="1.8306">
        <ele>669.6</ele>
        <time>2021-03-18T15:04:19.000Z</time>
      </trkpt>
      <trkpt lat="42.9542" lon="1.83074">
        <ele>668.2</ele>
        <time>2021-03-18T15:04:20.000Z</time>
      </trkpt>
      <trkpt lat="42.95422" lon="1.83089">
        <ele>666.7</ele>
        <time>2021-03-18T15:04:21.000Z</time>
      </trkpt>
      <trkpt lat="42.95423" lon="1.83107">
        <ele>665.2</ele>
        <time>2021-03-18T15:04:22.000Z</time>
      </trkpt>
      <trkpt lat="42.95421" lon="1.83126">
        <ele>663.7</ele>
        <time>2021-03-18T15:04:23.000Z</time>
      </trkpt>
      <trkpt lat="42.9542" lon="1.83144">
        <ele>662.2</ele>
        <time>2021-03-18T15:04:24.000Z</time>
      </trkpt>
      <trkpt lat="42.95417" lon="1.83161">
        <ele>660.8</ele>
        <time>2021-03-18T15:04:25.000Z</time>
      </trkpt>
      <trkpt lat="42.95414" lon="1.83174">
        <ele>659.3</ele>
        <time>2021-03-18T15:04:26.000Z</time>
      </trkpt>
      <trkpt lat="42.95409" lon="1.83186">
        <ele>657.8</ele>
        <time>2021-03-18T15:04:27.000Z</time>
      </trkpt>
      <trkpt lat="42.95403" lon="1.832">
        <ele>656.2</ele>
        <time>2021-03-18T15:04:28.000Z</time>
      </trkpt>
      <trkpt lat="42.95397" lon="1.83214">
        <ele>654.6</ele>
        <time>2021-03-18T15:04:29.000Z</time>
      </trkpt>
      <trkpt lat="42.9539" lon="1.83229">
        <ele>653</ele>
        <time>2021-03-18T15:04:30.000Z</time>
      </trkpt>
      <trkpt lat="42.95385" lon="1.83241">
        <ele>651.5</ele>
        <time>2021-03-18T15:04:31.000Z</time>
      </trkpt>
      <trkpt lat="42.95372" lon="1.83254">
        <ele>648.6</ele>
        <time>2021-03-18T15:04:33.000Z</time>
      </trkpt>
      <trkpt lat="42.95358" lon="1.83257">
        <ele>645.8</ele>
        <time>2021-03-18T15:04:35.000Z</time>
      </trkpt>
      <trkpt lat="42.95347" lon="1.83256">
        <ele>643.1</ele>
        <time>2021-03-18T15:04:37.000Z</time>
      </trkpt>
      <trkpt lat="42.95339" lon="1.83264">
        <ele>639.3</ele>
        <time>2021-03-18T15:04:40.000Z</time>
      </trkpt>
      <trkpt lat="42.95336" lon="1.8328">
        <ele>636.9</ele>
        <time>2021-03-18T15:04:42.000Z</time>
      </trkpt>
      <trkpt lat="42.95334" lon="1.83303">
        <ele>634.4</ele>
        <time>2021-03-18T15:04:44.000Z</time>
      </trkpt>
      <trkpt lat="42.95334" lon="1.83317">
        <ele>633.2</ele>
        <time>2021-03-18T15:04:45.000Z</time>
      </trkpt>
      <trkpt lat="42.95332" lon="1.83331">
        <ele>631.9</ele>
        <time>2021-03-18T15:04:46.000Z</time>
      </trkpt>
      <trkpt lat="42.95331" lon="1.83346">
        <ele>630.7</ele>
        <time>2021-03-18T15:04:47.000Z</time>
      </trkpt>
      <trkpt lat="42.9533" lon="1.83361">
        <ele>629.4</ele>
        <time>2021-03-18T15:04:48.000Z</time>
      </trkpt>
      <trkpt lat="42.95326" lon="1.83377">
        <ele>628.1</ele>
        <time>2021-03-18T15:04:49.000Z</time>
      </trkpt>
      <trkpt lat="42.95322" lon="1.83393">
        <ele>626.9</ele>
        <time>2021-03-18T15:04:50.000Z</time>
      </trkpt>
      <trkpt lat="42.95318" lon="1.8341">
        <ele>625.6</ele>
        <time>2021-03-18T15:04:51.000Z</time>
      </trkpt>
      <trkpt lat="42.95315" lon="1.83427">
        <ele>624.3</ele>
        <time>2021-03-18T15:04:52.000Z</time>
      </trkpt>
      <trkpt lat="42.95311" lon="1.83444">
        <ele>623.2</ele>
        <time>2021-03-18T15:04:53.000Z</time>
      </trkpt>
      <trkpt lat="42.95307" lon="1.83461">
        <ele>622.1</ele>
        <time>2021-03-18T15:04:54.000Z</time>
      </trkpt>
      <trkpt lat="42.95303" lon="1.83479">
        <ele>620.9</ele>
        <time>2021-03-18T15:04:55.000Z</time>
      </trkpt>
      <trkpt lat="42.953" lon="1.83496">
        <ele>619.6</ele>
        <time>2021-03-18T15:04:56.000Z</time>
      </trkpt>
      <trkpt lat="42.95298" lon="1.83512">
        <ele>618.4</ele>
        <time>2021-03-18T15:04:57.000Z</time>
      </trkpt>
      <trkpt lat="42.95295" lon="1.83527">
        <ele>617.3</ele>
        <time>2021-03-18T15:04:58.000Z</time>
      </trkpt>
      <trkpt lat="42.95291" lon="1.83546">
        <ele>614.9</ele>
        <time>2021-03-18T15:05:00.000Z</time>
      </trkpt>
      <trkpt lat="42.95282" lon="1.83555">
        <ele>612.7</ele>
        <time>2021-03-18T15:05:02.000Z</time>
      </trkpt>
      <trkpt lat="42.95271" lon="1.83559">
        <ele>610.3</ele>
        <time>2021-03-18T15:05:04.000Z</time>
      </trkpt>
      <trkpt lat="42.95257" lon="1.8356">
        <ele>607</ele>
        <time>2021-03-18T15:05:07.000Z</time>
      </trkpt>
      <trkpt lat="42.95251" lon="1.83574">
        <ele>604.8</ele>
        <time>2021-03-18T15:05:09.000Z</time>
      </trkpt>
      <trkpt lat="42.95249" lon="1.83592">
        <ele>602.7</ele>
        <time>2021-03-18T15:05:11.000Z</time>
      </trkpt>
      <trkpt lat="42.9525" lon="1.83611">
        <ele>600.5</ele>
        <time>2021-03-18T15:05:13.000Z</time>
      </trkpt>
      <trkpt lat="42.95244" lon="1.83632">
        <ele>598.5</ele>
        <time>2021-03-18T15:05:15.000Z</time>
      </trkpt>
      <trkpt lat="42.95238" lon="1.83643">
        <ele>597.3</ele>
        <time>2021-03-18T15:05:16.000Z</time>
      </trkpt>
      <trkpt lat="42.95231" lon="1.83654">
        <ele>596.2</ele>
        <time>2021-03-18T15:05:17.000Z</time>
      </trkpt>
      <trkpt lat="42.95225" lon="1.83665">
        <ele>595.1</ele>
        <time>2021-03-18T15:05:18.000Z</time>
      </trkpt>
      <trkpt lat="42.95218" lon="1.83676">
        <ele>593.9</ele>
        <time>2021-03-18T15:05:19.000Z</time>
      </trkpt>
      <trkpt lat="42.9521" lon="1.83688">
        <ele>592.8</ele>
        <time>2021-03-18T15:05:20.000Z</time>
      </trkpt>
      <trkpt lat="42.95202" lon="1.837">
        <ele>591.6</ele>
        <time>2021-03-18T15:05:21.000Z</time>
      </trkpt>
      <trkpt lat="42.95193" lon="1.83711">
        <ele>590.5</ele>
        <time>2021-03-18T15:05:22.000Z</time>
      </trkpt>
      <trkpt lat="42.95184" lon="1.83721">
        <ele>589.3</ele>
        <time>2021-03-18T15:05:23.000Z</time>
      </trkpt>
      <trkpt lat="42.95175" lon="1.8373">
        <ele>588.1</ele>
        <time>2021-03-18T15:05:24.000Z</time>
      </trkpt>
      <trkpt lat="42.95166" lon="1.8374">
        <ele>586.9</ele>
        <time>2021-03-18T15:05:25.000Z</time>
      </trkpt>
      <trkpt lat="42.95158" lon="1.8375">
        <ele>585.8</ele>
        <time>2021-03-18T15:05:26.000Z</time>
      </trkpt>
      <trkpt lat="42.95149" lon="1.83761">
        <ele>584.6</ele>
        <time>2021-03-18T15:05:27.000Z</time>
      </trkpt>
      <trkpt lat="42.95139" lon="1.83773">
        <ele>583.4</ele>
        <time>2021-03-18T15:05:28.000Z</time>
      </trkpt>
      <trkpt lat="42.95131" lon="1.83785">
        <ele>582.3</ele>
        <time>2021-03-18T15:05:29.000Z</time>
      </trkpt>
      <trkpt lat="42.95122" lon="1.83798">
        <ele>581.1</ele>
        <time>2021-03-18T15:05:30.000Z</time>
      </trkpt>
      <trkpt lat="42.95113" lon="1.83811">
        <ele>579.8</ele>
        <time>2021-03-18T15:05:31.000Z</time>
      </trkpt>
      <trkpt lat="42.95104" lon="1.83824">
        <ele>578.4</ele>
        <time>2021-03-18T15:05:32.000Z</time>
      </trkpt>
      <trkpt lat="42.95094" lon="1.83838">
        <ele>577</ele>
        <time>2021-03-18T15:05:33.000Z</time>
      </trkpt>
      <trkpt lat="42.95084" lon="1.8385">
        <ele>575.5</ele>
        <time>2021-03-18T15:05:34.000Z</time>
      </trkpt>
      <trkpt lat="42.95074" lon="1.83863">
        <ele>574</ele>
        <time>2021-03-18T15:05:35.000Z</time>
      </trkpt>
      <trkpt lat="42.95064" lon="1.83876">
        <ele>572.6</ele>
        <time>2021-03-18T15:05:36.000Z</time>
      </trkpt>
      <trkpt lat="42.95053" lon="1.83889">
        <ele>571</ele>
        <time>2021-03-18T15:05:37.000Z</time>
      </trkpt>
      <trkpt lat="42.95042" lon="1.83903">
        <ele>569.5</ele>
        <time>2021-03-18T15:05:38.000Z</time>
      </trkpt>
      <trkpt lat="42.9503" lon="1.83917">
        <ele>568</ele>
        <time>2021-03-18T15:05:39.000Z</time>
      </trkpt>
      <trkpt lat="42.95017" lon="1.83931">
        <ele>566.3</ele>
        <time>2021-03-18T15:05:40.000Z</time>
      </trkpt>
      <trkpt lat="42.95004" lon="1.83944">
        <ele>564.8</ele>
        <time>2021-03-18T15:05:41.000Z</time>
      </trkpt>
      <trkpt lat="42.94992" lon="1.83957">
        <ele>563.2</ele>
        <time>2021-03-18T15:05:42.000Z</time>
      </trkpt>
      <trkpt lat="42.94979" lon="1.83968">
        <ele>561.6</ele>
        <time>2021-03-18T15:05:43.000Z</time>
      </trkpt>
      <trkpt lat="42.94966" lon="1.83978">
        <ele>560.1</ele>
        <time>2021-03-18T15:05:44.000Z</time>
      </trkpt>
      <trkpt lat="42.94953" lon="1.83988">
        <ele>558.6</ele>
        <time>2021-03-18T15:05:45.000Z</time>
      </trkpt>
      <trkpt lat="42.94941" lon="1.83997">
        <ele>557</ele>
        <time>2021-03-18T15:05:46.000Z</time>
      </trkpt>
      <trkpt lat="42.9493" lon="1.84008">
        <ele>555.6</ele>
        <time>2021-03-18T15:05:47.000Z</time>
      </trkpt>
      <trkpt lat="42.94922" lon="1.84021">
        <ele>554.3</ele>
        <time>2021-03-18T15:05:48.000Z</time>
      </trkpt>
      <trkpt lat="42.94914" lon="1.84034">
        <ele>553</ele>
        <time>2021-03-18T15:05:49.000Z</time>
      </trkpt>
      <trkpt lat="42.94909" lon="1.84046">
        <ele>551.8</ele>
        <time>2021-03-18T15:05:50.000Z</time>
      </trkpt>
      <trkpt lat="42.94905" lon="1.84059">
        <ele>550.8</ele>
        <time>2021-03-18T15:05:51.000Z</time>
      </trkpt>
      <trkpt lat="42.94901" lon="1.84081">
        <ele>549</ele>
        <time>2021-03-18T15:05:53.000Z</time>
      </trkpt>
      <trkpt lat="42.94898" lon="1.841">
        <ele>547.6</ele>
        <time>2021-03-18T15:05:55.000Z</time>
      </trkpt>
      <trkpt lat="42.94893" lon="1.84117">
        <ele>546.4</ele>
        <time>2021-03-18T15:05:57.000Z</time>
      </trkpt>
      <trkpt lat="42.94892" lon="1.84132">
        <ele>545.6</ele>
        <time>2021-03-18T15:05:59.000Z</time>
      </trkpt>
      <trkpt lat="42.9489" lon="1.84147">
        <ele>544.9</ele>
        <time>2021-03-18T15:06:02.000Z</time>
      </trkpt>
      <trkpt lat="42.94885" lon="1.84158">
        <ele>544.4</ele>
        <time>2021-03-18T15:06:05.000Z</time>
      </trkpt>
      <trkpt lat="42.94882" lon="1.84172">
        <ele>544.3</ele>
        <time>2021-03-18T15:06:09.000Z</time>
      </trkpt>
      <trkpt lat="42.94877" lon="1.84184">
        <ele>544.9</ele>
        <time>2021-03-18T15:06:13.000Z</time>
      </trkpt>
      <trkpt lat="42.94869" lon="1.84191">
        <ele>545.2</ele>
        <time>2021-03-18T15:06:16.000Z</time>
      </trkpt>
      <trkpt lat="42.94859" lon="1.84197">
        <ele>545.7</ele>
        <time>2021-03-18T15:06:21.000Z</time>
      </trkpt>
      <trkpt lat="42.94849" lon="1.84192">
        <ele>546.2</ele>
        <time>2021-03-18T15:06:26.000Z</time>
      </trkpt>
      <trkpt lat="42.94839" lon="1.8419">
        <ele>546.7</ele>
        <time>2021-03-18T15:06:31.000Z</time>
      </trkpt>
      <trkpt lat="42.9483" lon="1.84186">
        <ele>547.1</ele>
        <time>2021-03-18T15:06:34.000Z</time>
      </trkpt>
      <trkpt lat="42.94818" lon="1.84182">
        <ele>547.4</ele>
        <time>2021-03-18T15:06:37.000Z</time>
      </trkpt>
      <trkpt lat="42.94808" lon="1.84184">
        <ele>547.6</ele>
        <time>2021-03-18T15:06:39.000Z</time>
      </trkpt>
      <trkpt lat="42.94798" lon="1.84191">
        <ele>547.8</ele>
        <time>2021-03-18T15:06:41.000Z</time>
      </trkpt>
      <trkpt lat="42.94787" lon="1.84198">
        <ele>547.9</ele>
        <time>2021-03-18T15:06:43.000Z</time>
      </trkpt>
      <trkpt lat="42.94777" lon="1.84206">
        <ele>548</ele>
        <time>2021-03-18T15:06:45.000Z</time>
      </trkpt>
      <trkpt lat="42.94767" lon="1.84215">
        <ele>548.1</ele>
        <time>2021-03-18T15:06:47.000Z</time>
      </trkpt>
      <trkpt lat="42.94758" lon="1.84222">
        <ele>548.1</ele>
        <time>2021-03-18T15:06:49.000Z</time>
      </trkpt>
      <trkpt lat="42.94749" lon="1.84229">
        <ele>548</ele>
        <time>2021-03-18T15:06:51.000Z</time>
      </trkpt>
      <trkpt lat="42.94741" lon="1.84236">
        <ele>547.9</ele>
        <time>2021-03-18T15:06:53.000Z</time>
      </trkpt>
      <trkpt lat="42.94732" lon="1.84244">
        <ele>547.8</ele>
        <time>2021-03-18T15:06:55.000Z</time>
      </trkpt>
      <trkpt lat="42.94724" lon="1.84253">
        <ele>547.8</ele>
        <time>2021-03-18T15:06:57.000Z</time>
      </trkpt>
      <trkpt lat="42.94715" lon="1.8426">
        <ele>547.7</ele>
        <time>2021-03-18T15:06:59.000Z</time>
      </trkpt>
      <trkpt lat="42.94703" lon="1.84269">
        <ele>547.8</ele>
        <time>2021-03-18T15:07:02.000Z</time>
      </trkpt>
      <trkpt lat="42.94694" lon="1.84282">
        <ele>547.8</ele>
        <time>2021-03-18T15:07:05.000Z</time>
      </trkpt>
      <trkpt lat="42.94687" lon="1.84291">
        <ele>547.8</ele>
        <time>2021-03-18T15:07:07.000Z</time>
      </trkpt>
      <trkpt lat="42.94682" lon="1.84304">
        <ele>547.9</ele>
        <time>2021-03-18T15:07:09.000Z</time>
      </trkpt>
      <trkpt lat="42.94676" lon="1.84317">
        <ele>547.9</ele>
        <time>2021-03-18T15:07:11.000Z</time>
      </trkpt>
      <trkpt lat="42.94669" lon="1.8433">
        <ele>547.9</ele>
        <time>2021-03-18T15:07:13.000Z</time>
      </trkpt>
      <trkpt lat="42.9466" lon="1.84345">
        <ele>547.9</ele>
        <time>2021-03-18T15:07:15.000Z</time>
      </trkpt>
      <trkpt lat="42.94654" lon="1.84354">
        <ele>547.9</ele>
        <time>2021-03-18T15:07:16.000Z</time>
      </trkpt>
      <trkpt lat="42.94646" lon="1.84362">
        <ele>547.8</ele>
        <time>2021-03-18T15:07:17.000Z</time>
      </trkpt>
      <trkpt lat="42.94637" lon="1.84369">
        <ele>547.7</ele>
        <time>2021-03-18T15:07:18.000Z</time>
      </trkpt>
      <trkpt lat="42.94629" lon="1.84377">
        <ele>547.5</ele>
        <time>2021-03-18T15:07:19.000Z</time>
      </trkpt>
      <trkpt lat="42.9462" lon="1.84386">
        <ele>547.3</ele>
        <time>2021-03-18T15:07:20.000Z</time>
      </trkpt>
      <trkpt lat="42.94612" lon="1.84396">
        <ele>547</ele>
        <time>2021-03-18T15:07:21.000Z</time>
      </trkpt>
      <trkpt lat="42.94604" lon="1.84405">
        <ele>546.7</ele>
        <time>2021-03-18T15:07:22.000Z</time>
      </trkpt>
      <trkpt lat="42.94596" lon="1.84415">
        <ele>546.4</ele>
        <time>2021-03-18T15:07:23.000Z</time>
      </trkpt>
      <trkpt lat="42.94589" lon="1.84424">
        <ele>546</ele>
        <time>2021-03-18T15:07:24.000Z</time>
      </trkpt>
      <trkpt lat="42.94583" lon="1.84434">
        <ele>545.5</ele>
        <time>2021-03-18T15:07:25.000Z</time>
      </trkpt>
      <trkpt lat="42.94575" lon="1.84444">
        <ele>545</ele>
        <time>2021-03-18T15:07:26.000Z</time>
      </trkpt>
      <trkpt lat="42.94568" lon="1.84454">
        <ele>544.5</ele>
        <time>2021-03-18T15:07:27.000Z</time>
      </trkpt>
      <trkpt lat="42.94559" lon="1.84461">
        <ele>544</ele>
        <time>2021-03-18T15:07:28.000Z</time>
      </trkpt>
      <trkpt lat="42.94548" lon="1.84465">
        <ele>543.5</ele>
        <time>2021-03-18T15:07:29.000Z</time>
      </trkpt>
      <trkpt lat="42.94537" lon="1.84467">
        <ele>542.9</ele>
        <time>2021-03-18T15:07:30.000Z</time>
      </trkpt>
      <trkpt lat="42.94526" lon="1.84465">
        <ele>542.2</ele>
        <time>2021-03-18T15:07:31.000Z</time>
      </trkpt>
      <trkpt lat="42.94516" lon="1.84461">
        <ele>541.6</ele>
        <time>2021-03-18T15:07:32.000Z</time>
      </trkpt>
      <trkpt lat="42.94506" lon="1.84458">
        <ele>540.9</ele>
        <time>2021-03-18T15:07:33.000Z</time>
      </trkpt>
      <trkpt lat="42.94496" lon="1.8446">
        <ele>540.2</ele>
        <time>2021-03-18T15:07:34.000Z</time>
      </trkpt>
      <trkpt lat="42.94486" lon="1.84464">
        <ele>539.6</ele>
        <time>2021-03-18T15:07:35.000Z</time>
      </trkpt>
      <trkpt lat="42.94477" lon="1.84471">
        <ele>539</ele>
        <time>2021-03-18T15:07:36.000Z</time>
      </trkpt>
      <trkpt lat="42.94469" lon="1.84478">
        <ele>538.3</ele>
        <time>2021-03-18T15:07:37.000Z</time>
      </trkpt>
      <trkpt lat="42.94462" lon="1.84486">
        <ele>537.8</ele>
        <time>2021-03-18T15:07:38.000Z</time>
      </trkpt>
      <trkpt lat="42.94454" lon="1.84493">
        <ele>537.2</ele>
        <time>2021-03-18T15:07:39.000Z</time>
      </trkpt>
      <trkpt lat="42.94441" lon="1.84506">
        <ele>536.2</ele>
        <time>2021-03-18T15:07:41.000Z</time>
      </trkpt>
      <trkpt lat="42.94428" lon="1.84519">
        <ele>535.2</ele>
        <time>2021-03-18T15:07:43.000Z</time>
      </trkpt>
      <trkpt lat="42.94415" lon="1.84529">
        <ele>534.4</ele>
        <time>2021-03-18T15:07:45.000Z</time>
      </trkpt>
      <trkpt lat="42.94403" lon="1.84538">
        <ele>533.7</ele>
        <time>2021-03-18T15:07:47.000Z</time>
      </trkpt>
      <trkpt lat="42.9439" lon="1.84545">
        <ele>533.1</ele>
        <time>2021-03-18T15:07:49.000Z</time>
      </trkpt>
      <trkpt lat="42.94378" lon="1.84551">
        <ele>532.5</ele>
        <time>2021-03-18T15:07:51.000Z</time>
      </trkpt>
      <trkpt lat="42.94365" lon="1.84559">
        <ele>532.1</ele>
        <time>2021-03-18T15:07:53.000Z</time>
      </trkpt>
      <trkpt lat="42.94352" lon="1.84568">
        <ele>531.7</ele>
        <time>2021-03-18T15:07:55.000Z</time>
      </trkpt>
      <trkpt lat="42.9434" lon="1.84576">
        <ele>531.3</ele>
        <time>2021-03-18T15:07:57.000Z</time>
      </trkpt>
      <trkpt lat="42.9433" lon="1.84585">
        <ele>531</ele>
        <time>2021-03-18T15:07:59.000Z</time>
      </trkpt>
      <trkpt lat="42.9432" lon="1.84596">
        <ele>530.8</ele>
        <time>2021-03-18T15:08:01.000Z</time>
      </trkpt>
      <trkpt lat="42.94312" lon="1.84607">
        <ele>530.6</ele>
        <time>2021-03-18T15:08:03.000Z</time>
      </trkpt>
      <trkpt lat="42.94305" lon="1.84619">
        <ele>530.4</ele>
        <time>2021-03-18T15:08:05.000Z</time>
      </trkpt>
      <trkpt lat="42.94297" lon="1.8463">
        <ele>530.2</ele>
        <time>2021-03-18T15:08:07.000Z</time>
      </trkpt>
      <trkpt lat="42.94287" lon="1.8464">
        <ele>530.1</ele>
        <time>2021-03-18T15:08:09.000Z</time>
      </trkpt>
      <trkpt lat="42.94278" lon="1.8465">
        <ele>530</ele>
        <time>2021-03-18T15:08:11.000Z</time>
      </trkpt>
      <trkpt lat="42.9427" lon="1.8466">
        <ele>529.9</ele>
        <time>2021-03-18T15:08:13.000Z</time>
      </trkpt>
      <trkpt lat="42.94261" lon="1.84669">
        <ele>529.9</ele>
        <time>2021-03-18T15:08:15.000Z</time>
      </trkpt>
      <trkpt lat="42.94253" lon="1.84677">
        <ele>530</ele>
        <time>2021-03-18T15:08:17.000Z</time>
      </trkpt>
      <trkpt lat="42.94244" lon="1.84689">
        <ele>530.2</ele>
        <time>2021-03-18T15:08:20.000Z</time>
      </trkpt>
      <trkpt lat="42.94233" lon="1.847">
        <ele>530.6</ele>
        <time>2021-03-18T15:08:23.000Z</time>
      </trkpt>
      <trkpt lat="42.94226" lon="1.84707">
        <ele>530.9</ele>
        <time>2021-03-18T15:08:25.000Z</time>
      </trkpt>
      <trkpt lat="42.94218" lon="1.84715">
        <ele>531.1</ele>
        <time>2021-03-18T15:08:27.000Z</time>
      </trkpt>
      <trkpt lat="42.9421" lon="1.84722">
        <ele>531.4</ele>
        <time>2021-03-18T15:08:29.000Z</time>
      </trkpt>
      <trkpt lat="42.94202" lon="1.8473">
        <ele>531.7</ele>
        <time>2021-03-18T15:08:31.000Z</time>
      </trkpt>
      <trkpt lat="42.94192" lon="1.84739">
        <ele>531.9</ele>
        <time>2021-03-18T15:08:33.000Z</time>
      </trkpt>
      <trkpt lat="42.9418" lon="1.8475">
        <ele>532</ele>
        <time>2021-03-18T15:08:35.000Z</time>
      </trkpt>
      <trkpt lat="42.94169" lon="1.84761">
        <ele>532.4</ele>
        <time>2021-03-18T15:08:38.000Z</time>
      </trkpt>
      <trkpt lat="42.94159" lon="1.84769">
        <ele>532.6</ele>
        <time>2021-03-18T15:08:40.000Z</time>
      </trkpt>
      <trkpt lat="42.9415" lon="1.84776">
        <ele>532.8</ele>
        <time>2021-03-18T15:08:42.000Z</time>
      </trkpt>
      <trkpt lat="42.9414" lon="1.84782">
        <ele>532.9</ele>
        <time>2021-03-18T15:08:44.000Z</time>
      </trkpt>
      <trkpt lat="42.94132" lon="1.84788">
        <ele>533</ele>
        <time>2021-03-18T15:08:46.000Z</time>
      </trkpt>
      <trkpt lat="42.94124" lon="1.84794">
        <ele>533.1</ele>
        <time>2021-03-18T15:08:48.000Z</time>
      </trkpt>
      <trkpt lat="42.94116" lon="1.84801">
        <ele>533.3</ele>
        <time>2021-03-18T15:08:50.000Z</time>
      </trkpt>
      <trkpt lat="42.94105" lon="1.84809">
        <ele>533.5</ele>
        <time>2021-03-18T15:08:53.000Z</time>
      </trkpt>
      <trkpt lat="42.94095" lon="1.84818">
        <ele>533.8</ele>
        <time>2021-03-18T15:08:56.000Z</time>
      </trkpt>
      <trkpt lat="42.94086" lon="1.84825">
        <ele>534.2</ele>
        <time>2021-03-18T15:08:59.000Z</time>
      </trkpt>
      <trkpt lat="42.94077" lon="1.84833">
        <ele>534.7</ele>
        <time>2021-03-18T15:09:03.000Z</time>
      </trkpt>
      <trkpt lat="42.94069" lon="1.8484">
        <ele>535</ele>
        <time>2021-03-18T15:09:06.000Z</time>
      </trkpt>
      <trkpt lat="42.9406" lon="1.84847">
        <ele>535.8</ele>
        <time>2021-03-18T15:09:10.000Z</time>
      </trkpt>
      <trkpt lat="42.94051" lon="1.84855">
        <ele>536.5</ele>
        <time>2021-03-18T15:09:14.000Z</time>
      </trkpt>
      <trkpt lat="42.94042" lon="1.84862">
        <ele>537.2</ele>
        <time>2021-03-18T15:09:18.000Z</time>
      </trkpt>
      <trkpt lat="42.94032" lon="1.84869">
        <ele>537.9</ele>
        <time>2021-03-18T15:09:22.000Z</time>
      </trkpt>
      <trkpt lat="42.94023" lon="1.84876">
        <ele>538.7</ele>
        <time>2021-03-18T15:09:26.000Z</time>
      </trkpt>
      <trkpt lat="42.94013" lon="1.84884">
        <ele>539.3</ele>
        <time>2021-03-18T15:09:30.000Z</time>
      </trkpt>
      <trkpt lat="42.94005" lon="1.84891">
        <ele>539.9</ele>
        <time>2021-03-18T15:09:34.000Z</time>
      </trkpt>
      <trkpt lat="42.93996" lon="1.84898">
        <ele>540.5</ele>
        <time>2021-03-18T15:09:38.000Z</time>
      </trkpt>
      <trkpt lat="42.93986" lon="1.84906">
        <ele>541.1</ele>
        <time>2021-03-18T15:09:42.000Z</time>
      </trkpt>
      <trkpt lat="42.93976" lon="1.84913">
        <ele>541.7</ele>
        <time>2021-03-18T15:09:46.000Z</time>
      </trkpt>
      <trkpt lat="42.93968" lon="1.8492">
        <ele>542.4</ele>
        <time>2021-03-18T15:09:50.000Z</time>
      </trkpt>
      <trkpt lat="42.93961" lon="1.84928">
        <ele>543.1</ele>
        <time>2021-03-18T15:09:54.000Z</time>
      </trkpt>
      <trkpt lat="42.93951" lon="1.84937">
        <ele>544</ele>
        <time>2021-03-18T15:09:58.000Z</time>
      </trkpt>
      <trkpt lat="42.93944" lon="1.84945">
        <ele>544.9</ele>
        <time>2021-03-18T15:10:02.000Z</time>
      </trkpt>
      <trkpt lat="42.93936" lon="1.84952">
        <ele>545.9</ele>
        <time>2021-03-18T15:10:06.000Z</time>
      </trkpt>
      <trkpt lat="42.93925" lon="1.84955">
        <ele>546.7</ele>
        <time>2021-03-18T15:10:10.000Z</time>
      </trkpt>
      <trkpt lat="42.93914" lon="1.84954">
        <ele>547.3</ele>
        <time>2021-03-18T15:10:13.000Z</time>
      </trkpt>
      <trkpt lat="42.93901" lon="1.84953">
        <ele>547.8</ele>
        <time>2021-03-18T15:10:16.000Z</time>
      </trkpt>
      <trkpt lat="42.93891" lon="1.84952">
        <ele>548.1</ele>
        <time>2021-03-18T15:10:18.000Z</time>
      </trkpt>
      <trkpt lat="42.93879" lon="1.84953">
        <ele>548.3</ele>
        <time>2021-03-18T15:10:20.000Z</time>
      </trkpt>
      <trkpt lat="42.93867" lon="1.84952">
        <ele>548.5</ele>
        <time>2021-03-18T15:10:22.000Z</time>
      </trkpt>
      <trkpt lat="42.93852" lon="1.84952">
        <ele>548.5</ele>
        <time>2021-03-18T15:10:24.000Z</time>
      </trkpt>
      <trkpt lat="42.9384" lon="1.8495">
        <ele>548.6</ele>
        <time>2021-03-18T15:10:26.000Z</time>
      </trkpt>
      <trkpt lat="42.9383" lon="1.84948">
        <ele>548.7</ele>
        <time>2021-03-18T15:10:28.000Z</time>
      </trkpt>
      <trkpt lat="42.93819" lon="1.84941">
        <ele>548.8</ele>
        <time>2021-03-18T15:10:31.000Z</time>
      </trkpt>
      <trkpt lat="42.9381" lon="1.84934">
        <ele>548.9</ele>
        <time>2021-03-18T15:10:34.000Z</time>
      </trkpt>
      <trkpt lat="42.93802" lon="1.84928">
        <ele>549</ele>
        <time>2021-03-18T15:10:37.000Z</time>
      </trkpt>
      <trkpt lat="42.93789" lon="1.84924">
        <ele>549.1</ele>
        <time>2021-03-18T15:10:40.000Z</time>
      </trkpt>
      <trkpt lat="42.93777" lon="1.84923">
        <ele>549.2</ele>
        <time>2021-03-18T15:10:42.000Z</time>
      </trkpt>
      <trkpt lat="42.93762" lon="1.84923">
        <ele>549.2</ele>
        <time>2021-03-18T15:10:44.000Z</time>
      </trkpt>
      <trkpt lat="42.93747" lon="1.84927">
        <ele>549.2</ele>
        <time>2021-03-18T15:10:46.000Z</time>
      </trkpt>
      <trkpt lat="42.93733" lon="1.84933">
        <ele>549</ele>
        <time>2021-03-18T15:10:48.000Z</time>
      </trkpt>
      <trkpt lat="42.93718" lon="1.8494">
        <ele>548.8</ele>
        <time>2021-03-18T15:10:50.000Z</time>
      </trkpt>
      <trkpt lat="42.93706" lon="1.8495">
        <ele>548.6</ele>
        <time>2021-03-18T15:10:52.000Z</time>
      </trkpt>
      <trkpt lat="42.93695" lon="1.84962">
        <ele>548.3</ele>
        <time>2021-03-18T15:10:54.000Z</time>
      </trkpt>
      <trkpt lat="42.93683" lon="1.84973">
        <ele>548</ele>
        <time>2021-03-18T15:10:56.000Z</time>
      </trkpt>
      <trkpt lat="42.93673" lon="1.84982">
        <ele>547.8</ele>
        <time>2021-03-18T15:10:58.000Z</time>
      </trkpt>
      <trkpt lat="42.93663" lon="1.84989">
        <ele>547.6</ele>
        <time>2021-03-18T15:11:00.000Z</time>
      </trkpt>
      <trkpt lat="42.93652" lon="1.84994">
        <ele>547.5</ele>
        <time>2021-03-18T15:11:02.000Z</time>
      </trkpt>
      <trkpt lat="42.93641" lon="1.84997">
        <ele>547.3</ele>
        <time>2021-03-18T15:11:04.000Z</time>
      </trkpt>
      <trkpt lat="42.93629" lon="1.84998">
        <ele>547.2</ele>
        <time>2021-03-18T15:11:06.000Z</time>
      </trkpt>
      <trkpt lat="42.93618" lon="1.84998">
        <ele>547.1</ele>
        <time>2021-03-18T15:11:08.000Z</time>
      </trkpt>
      <trkpt lat="42.93606" lon="1.84995">
        <ele>547.1</ele>
        <time>2021-03-18T15:11:10.000Z</time>
      </trkpt>
      <trkpt lat="42.93596" lon="1.84992">
        <ele>547</ele>
        <time>2021-03-18T15:11:12.000Z</time>
      </trkpt>
      <trkpt lat="42.93586" lon="1.84988">
        <ele>547.1</ele>
        <time>2021-03-18T15:11:14.000Z</time>
      </trkpt>
      <trkpt lat="42.93577" lon="1.84984">
        <ele>547.1</ele>
        <time>2021-03-18T15:11:16.000Z</time>
      </trkpt>
      <trkpt lat="42.93566" lon="1.84981">
        <ele>547.2</ele>
        <time>2021-03-18T15:11:18.000Z</time>
      </trkpt>
      <trkpt lat="42.93557" lon="1.84977">
        <ele>547.3</ele>
        <time>2021-03-18T15:11:20.000Z</time>
      </trkpt>
      <trkpt lat="42.93544" lon="1.84973">
        <ele>547.5</ele>
        <time>2021-03-18T15:11:23.000Z</time>
      </trkpt>
      <trkpt lat="42.93532" lon="1.84967">
        <ele>547.7</ele>
        <time>2021-03-18T15:11:26.000Z</time>
      </trkpt>
      <trkpt lat="42.93523" lon="1.84964">
        <ele>547.9</ele>
        <time>2021-03-18T15:11:29.000Z</time>
      </trkpt>
      <trkpt lat="42.93514" lon="1.84962">
        <ele>548.4</ele>
        <time>2021-03-18T15:11:34.000Z</time>
      </trkpt>
      <trkpt lat="42.93503" lon="1.84963">
        <ele>548.8</ele>
        <time>2021-03-18T15:11:37.000Z</time>
      </trkpt>
      <trkpt lat="42.93498" lon="1.84974">
        <ele>549.2</ele>
        <time>2021-03-18T15:11:40.000Z</time>
      </trkpt>
      <trkpt lat="42.9349" lon="1.84982">
        <ele>549.5</ele>
        <time>2021-03-18T15:11:44.000Z</time>
      </trkpt>
      <trkpt lat="42.9349" lon="1.84994">
        <ele>554.8</ele>
        <time>2021-03-18T15:13:39.000Z</time>
      </trkpt>
      <trkpt lat="42.93481" lon="1.84989">
        <ele>554.5</ele>
        <time>2021-03-18T15:13:50.000Z</time>
      </trkpt>
      <trkpt lat="42.93473" lon="1.84982">
        <ele>554.2</ele>
        <time>2021-03-18T15:13:58.000Z</time>
      </trkpt>
      <trkpt lat="42.93464" lon="1.84977">
        <ele>554.1</ele>
        <time>2021-03-18T15:14:11.000Z</time>
      </trkpt>
      <trkpt lat="42.93456" lon="1.84968">
        <ele>554.1</ele>
        <time>2021-03-18T15:14:15.000Z</time>
      </trkpt>
      <trkpt lat="42.93445" lon="1.84962">
        <ele>554.1</ele>
        <time>2021-03-18T15:14:19.000Z</time>
      </trkpt>
      <trkpt lat="42.93438" lon="1.84952">
        <ele>554.1</ele>
        <time>2021-03-18T15:14:23.000Z</time>
      </trkpt>
      <trkpt lat="42.93428" lon="1.84945">
        <ele>554.2</ele>
        <time>2021-03-18T15:14:27.000Z</time>
      </trkpt>
      <trkpt lat="42.93419" lon="1.84941">
        <ele>554.2</ele>
        <time>2021-03-18T15:14:30.000Z</time>
      </trkpt>
      <trkpt lat="42.93409" lon="1.84933">
        <ele>554.3</ele>
        <time>2021-03-18T15:14:34.000Z</time>
      </trkpt>
      <trkpt lat="42.93399" lon="1.8493">
        <ele>554.5</ele>
        <time>2021-03-18T15:14:38.000Z</time>
      </trkpt>
      <trkpt lat="42.93389" lon="1.84923">
        <ele>554.7</ele>
        <time>2021-03-18T15:14:42.000Z</time>
      </trkpt>
      <trkpt lat="42.9339" lon="1.8491">
        <ele>555</ele>
        <time>2021-03-18T15:14:48.000Z</time>
      </trkpt>
      <trkpt lat="42.93382" lon="1.849">
        <ele>555.4</ele>
        <time>2021-03-18T15:14:53.000Z</time>
      </trkpt>
      <trkpt lat="42.93372" lon="1.84892">
        <ele>555.6</ele>
        <time>2021-03-18T15:14:57.000Z</time>
      </trkpt>
      <trkpt lat="42.93362" lon="1.84884">
        <ele>555.8</ele>
        <time>2021-03-18T15:15:01.000Z</time>
      </trkpt>
      <trkpt lat="42.93353" lon="1.84878">
        <ele>556.2</ele>
        <time>2021-03-18T15:15:05.000Z</time>
      </trkpt>
      <trkpt lat="42.93343" lon="1.84878">
        <ele>556.6</ele>
        <time>2021-03-18T15:15:09.000Z</time>
      </trkpt>
      <trkpt lat="42.93331" lon="1.84875">
        <ele>556.8</ele>
        <time>2021-03-18T15:15:12.000Z</time>
      </trkpt>
      <trkpt lat="42.93322" lon="1.84867">
        <ele>556.9</ele>
        <time>2021-03-18T15:15:15.000Z</time>
      </trkpt>
      <trkpt lat="42.93312" lon="1.84861">
        <ele>557.1</ele>
        <time>2021-03-18T15:15:18.000Z</time>
      </trkpt>
      <trkpt lat="42.93303" lon="1.84859">
        <ele>557.2</ele>
        <time>2021-03-18T15:15:21.000Z</time>
      </trkpt>
      <trkpt lat="42.93295" lon="1.8485">
        <ele>557.5</ele>
        <time>2021-03-18T15:15:26.000Z</time>
      </trkpt>
      <trkpt lat="42.93286" lon="1.84842">
        <ele>558.7</ele>
        <time>2021-03-18T15:16:46.000Z</time>
      </trkpt>
      <trkpt lat="42.93277" lon="1.8484">
        <ele>558.1</ele>
        <time>2021-03-18T15:17:55.000Z</time>
      </trkpt>
      <trkpt lat="42.93284" lon="1.84846">
        <ele>561.2</ele>
        <time>2021-03-18T15:19:43.000Z</time>
      </trkpt>
      <trkpt lat="42.93275" lon="1.84849">
        <ele>558.6</ele>
        <time>2021-03-18T15:20:04.000Z</time>
      </trkpt>
      <trkpt lat="42.93278" lon="1.84834">
        <ele>561</ele>
        <time>2021-03-18T15:22:06.000Z</time>
      </trkpt>
      <trkpt lat="42.93275" lon="1.84831">
        <ele>559.5</ele>
        <time>2021-03-18T15:22:35.000Z</time>
      </trkpt>
      <trkpt lat="42.9326" lon="1.8484">
        <ele>559.3</ele>
        <time>2021-03-18T15:35:53.000Z</time>
      </trkpt>
      <trkpt lat="42.93265" lon="1.84829">
        <ele>559.8</ele>
        <time>2021-03-18T15:36:01.000Z</time>
      </trkpt>
      <trkpt lat="42.93254" lon="1.84823">
        <ele>560.6</ele>
        <time>2021-03-18T15:36:19.000Z</time>
      </trkpt>
      <trkpt lat="42.93246" lon="1.84818">
        <ele>560.6</ele>
        <time>2021-03-18T15:36:21.000Z</time>
      </trkpt>
      <trkpt lat="42.93238" lon="1.84813">
        <ele>560.7</ele>
        <time>2021-03-18T15:36:23.000Z</time>
      </trkpt>
      <trkpt lat="42.93228" lon="1.84808">
        <ele>560.7</ele>
        <time>2021-03-18T15:36:25.000Z</time>
      </trkpt>
      <trkpt lat="42.93217" lon="1.84812">
        <ele>560.6</ele>
        <time>2021-03-18T15:36:28.000Z</time>
      </trkpt>
      <trkpt lat="42.93205" lon="1.84815">
        <ele>560.6</ele>
        <time>2021-03-18T15:36:30.000Z</time>
      </trkpt>
      <trkpt lat="42.93194" lon="1.84811">
        <ele>560.5</ele>
        <time>2021-03-18T15:36:32.000Z</time>
      </trkpt>
      <trkpt lat="42.93184" lon="1.84802">
        <ele>560.5</ele>
        <time>2021-03-18T15:36:34.000Z</time>
      </trkpt>
      <trkpt lat="42.93174" lon="1.84792">
        <ele>560.5</ele>
        <time>2021-03-18T15:36:36.000Z</time>
      </trkpt>
      <trkpt lat="42.9316" lon="1.84787">
        <ele>560.5</ele>
        <time>2021-03-18T15:36:38.000Z</time>
      </trkpt>
      <trkpt lat="42.93148" lon="1.84783">
        <ele>560.4</ele>
        <time>2021-03-18T15:36:40.000Z</time>
      </trkpt>
      <trkpt lat="42.93138" lon="1.84779">
        <ele>560.4</ele>
        <time>2021-03-18T15:36:42.000Z</time>
      </trkpt>
      <trkpt lat="42.93128" lon="1.84773">
        <ele>560.4</ele>
        <time>2021-03-18T15:36:45.000Z</time>
      </trkpt>
      <trkpt lat="42.93118" lon="1.84767">
        <ele>560.7</ele>
        <time>2021-03-18T15:36:50.000Z</time>
      </trkpt>
      <trkpt lat="42.93107" lon="1.84761">
        <ele>560.9</ele>
        <time>2021-03-18T15:36:54.000Z</time>
      </trkpt>
      <trkpt lat="42.931" lon="1.84754">
        <ele>561.1</ele>
        <time>2021-03-18T15:36:57.000Z</time>
      </trkpt>
      <trkpt lat="42.93091" lon="1.84745">
        <ele>561.4</ele>
        <time>2021-03-18T15:37:01.000Z</time>
      </trkpt>
      <trkpt lat="42.93085" lon="1.84733">
        <ele>561.9</ele>
        <time>2021-03-18T15:37:06.000Z</time>
      </trkpt>
      <trkpt lat="42.93078" lon="1.84725">
        <ele>562.2</ele>
        <time>2021-03-18T15:37:09.000Z</time>
      </trkpt>
      <trkpt lat="42.93069" lon="1.84718">
        <ele>562.4</ele>
        <time>2021-03-18T15:37:12.000Z</time>
      </trkpt>
      <trkpt lat="42.93061" lon="1.8471">
        <ele>562.6</ele>
        <time>2021-03-18T15:37:15.000Z</time>
      </trkpt>
      <trkpt lat="42.93053" lon="1.84704">
        <ele>562.8</ele>
        <time>2021-03-18T15:37:18.000Z</time>
      </trkpt>
      <trkpt lat="42.93044" lon="1.84695">
        <ele>563.2</ele>
        <time>2021-03-18T15:37:22.000Z</time>
      </trkpt>
      <trkpt lat="42.93037" lon="1.84684">
        <ele>563.5</ele>
        <time>2021-03-18T15:37:26.000Z</time>
      </trkpt>
      <trkpt lat="42.93031" lon="1.84672">
        <ele>563.9</ele>
        <time>2021-03-18T15:37:31.000Z</time>
      </trkpt>
      <trkpt lat="42.93024" lon="1.84658">
        <ele>564.2</ele>
        <time>2021-03-18T15:37:35.000Z</time>
      </trkpt>
      <trkpt lat="42.93017" lon="1.84648">
        <ele>564.4</ele>
        <time>2021-03-18T15:37:38.000Z</time>
      </trkpt>
      <trkpt lat="42.9301" lon="1.84639">
        <ele>564.6</ele>
        <time>2021-03-18T15:37:41.000Z</time>
      </trkpt>
      <trkpt lat="42.93001" lon="1.8463">
        <ele>564.8</ele>
        <time>2021-03-18T15:37:45.000Z</time>
      </trkpt>
      <trkpt lat="42.92993" lon="1.84624">
        <ele>565.1</ele>
        <time>2021-03-18T15:37:49.000Z</time>
      </trkpt>
      <trkpt lat="42.92984" lon="1.84615">
        <ele>565.7</ele>
        <time>2021-03-18T15:37:54.000Z</time>
      </trkpt>
      <trkpt lat="42.92979" lon="1.84605">
        <ele>566</ele>
        <time>2021-03-18T15:37:58.000Z</time>
      </trkpt>
      <trkpt lat="42.92971" lon="1.84595">
        <ele>566.3</ele>
        <time>2021-03-18T15:38:02.000Z</time>
      </trkpt>
      <trkpt lat="42.92964" lon="1.84586">
        <ele>566.4</ele>
        <time>2021-03-18T15:38:05.000Z</time>
      </trkpt>
      <trkpt lat="42.92956" lon="1.84579">
        <ele>566.6</ele>
        <time>2021-03-18T15:38:09.000Z</time>
      </trkpt>
      <trkpt lat="42.92947" lon="1.84583">
        <ele>566.9</ele>
        <time>2021-03-18T15:38:14.000Z</time>
      </trkpt>
      <trkpt lat="42.92938" lon="1.84582">
        <ele>567</ele>
        <time>2021-03-18T15:38:19.000Z</time>
      </trkpt>
      <trkpt lat="42.92946" lon="1.84575">
        <ele>568.7</ele>
        <time>2021-03-18T15:39:08.000Z</time>
      </trkpt>
      <trkpt lat="42.92935" lon="1.84572">
        <ele>568.7</ele>
        <time>2021-03-18T15:39:11.000Z</time>
      </trkpt>
      <trkpt lat="42.92926" lon="1.8457">
        <ele>568.7</ele>
        <time>2021-03-18T15:39:13.000Z</time>
      </trkpt>
      <trkpt lat="42.92915" lon="1.84562">
        <ele>568.7</ele>
        <time>2021-03-18T15:39:16.000Z</time>
      </trkpt>
      <trkpt lat="42.92906" lon="1.84552">
        <ele>568.6</ele>
        <time>2021-03-18T15:39:19.000Z</time>
      </trkpt>
      <trkpt lat="42.92896" lon="1.84543">
        <ele>568.6</ele>
        <time>2021-03-18T15:39:22.000Z</time>
      </trkpt>
      <trkpt lat="42.92887" lon="1.84533">
        <ele>568.6</ele>
        <time>2021-03-18T15:39:25.000Z</time>
      </trkpt>
      <trkpt lat="42.92878" lon="1.84523">
        <ele>568.6</ele>
        <time>2021-03-18T15:39:28.000Z</time>
      </trkpt>
      <trkpt lat="42.9287" lon="1.84513">
        <ele>568.7</ele>
        <time>2021-03-18T15:39:31.000Z</time>
      </trkpt>
      <trkpt lat="42.92862" lon="1.84502">
        <ele>569</ele>
        <time>2021-03-18T15:39:35.000Z</time>
      </trkpt>
      <trkpt lat="42.92856" lon="1.84493">
        <ele>569.4</ele>
        <time>2021-03-18T15:39:39.000Z</time>
      </trkpt>
      <trkpt lat="42.92848" lon="1.84486">
        <ele>569.8</ele>
        <time>2021-03-18T15:39:44.000Z</time>
      </trkpt>
      <trkpt lat="42.92838" lon="1.84483">
        <ele>570.2</ele>
        <time>2021-03-18T15:39:51.000Z</time>
      </trkpt>
      <trkpt lat="42.92829" lon="1.84478">
        <ele>570.7</ele>
        <time>2021-03-18T15:39:58.000Z</time>
      </trkpt>
      <trkpt lat="42.92819" lon="1.84474">
        <ele>571.1</ele>
        <time>2021-03-18T15:40:05.000Z</time>
      </trkpt>
      <trkpt lat="42.92811" lon="1.84466">
        <ele>571.6</ele>
        <time>2021-03-18T15:40:11.000Z</time>
      </trkpt>
      <trkpt lat="42.92807" lon="1.84453">
        <ele>571.9</ele>
        <time>2021-03-18T15:40:17.000Z</time>
      </trkpt>
      <trkpt lat="42.92808" lon="1.8444">
        <ele>572.5</ele>
        <time>2021-03-18T15:40:24.000Z</time>
      </trkpt>
      <trkpt lat="42.92809" lon="1.84427">
        <ele>573.3</ele>
        <time>2021-03-18T15:40:32.000Z</time>
      </trkpt>
      <trkpt lat="42.92807" lon="1.84414">
        <ele>573.8</ele>
        <time>2021-03-18T15:40:38.000Z</time>
      </trkpt>
      <trkpt lat="42.92799" lon="1.84406">
        <ele>574.2</ele>
        <time>2021-03-18T15:40:42.000Z</time>
      </trkpt>
      <trkpt lat="42.9279" lon="1.84398">
        <ele>574.6</ele>
        <time>2021-03-18T15:40:46.000Z</time>
      </trkpt>
      <trkpt lat="42.92781" lon="1.84393">
        <ele>575</ele>
        <time>2021-03-18T15:40:50.000Z</time>
      </trkpt>
      <trkpt lat="42.92773" lon="1.84388">
        <ele>575.4</ele>
        <time>2021-03-18T15:40:54.000Z</time>
      </trkpt>
      <trkpt lat="42.92764" lon="1.84381">
        <ele>575.8</ele>
        <time>2021-03-18T15:40:58.000Z</time>
      </trkpt>
      <trkpt lat="42.92755" lon="1.84375">
        <ele>576</ele>
        <time>2021-03-18T15:41:01.000Z</time>
      </trkpt>
      <trkpt lat="42.92746" lon="1.84367">
        <ele>576.2</ele>
        <time>2021-03-18T15:41:04.000Z</time>
      </trkpt>
      <trkpt lat="42.92736" lon="1.84359">
        <ele>576.4</ele>
        <time>2021-03-18T15:41:08.000Z</time>
      </trkpt>
      <trkpt lat="42.92727" lon="1.84352">
        <ele>576.5</ele>
        <time>2021-03-18T15:41:11.000Z</time>
      </trkpt>
      <trkpt lat="42.92718" lon="1.84344">
        <ele>576.6</ele>
        <time>2021-03-18T15:41:14.000Z</time>
      </trkpt>
      <trkpt lat="42.92708" lon="1.84338">
        <ele>576.7</ele>
        <time>2021-03-18T15:41:17.000Z</time>
      </trkpt>
      <trkpt lat="42.927" lon="1.8433">
        <ele>576.7</ele>
        <time>2021-03-18T15:41:20.000Z</time>
      </trkpt>
      <trkpt lat="42.92692" lon="1.84324">
        <ele>576.8</ele>
        <time>2021-03-18T15:41:23.000Z</time>
      </trkpt>
      <trkpt lat="42.92683" lon="1.84323">
        <ele>576.9</ele>
        <time>2021-03-18T15:41:28.000Z</time>
      </trkpt>
      <trkpt lat="42.92673" lon="1.8432">
        <ele>577</ele>
        <time>2021-03-18T15:41:33.000Z</time>
      </trkpt>
      <trkpt lat="42.92663" lon="1.84315">
        <ele>577.1</ele>
        <time>2021-03-18T15:41:38.000Z</time>
      </trkpt>
      <trkpt lat="42.92655" lon="1.8431">
        <ele>577.2</ele>
        <time>2021-03-18T15:41:42.000Z</time>
      </trkpt>
      <trkpt lat="42.92646" lon="1.84306">
        <ele>577.3</ele>
        <time>2021-03-18T15:41:46.000Z</time>
      </trkpt>
      <trkpt lat="42.92637" lon="1.84302">
        <ele>577.4</ele>
        <time>2021-03-18T15:41:50.000Z</time>
      </trkpt>
      <trkpt lat="42.92628" lon="1.84298">
        <ele>577.6</ele>
        <time>2021-03-18T15:41:55.000Z</time>
      </trkpt>
      <trkpt lat="42.92617" lon="1.84295">
        <ele>577.7</ele>
        <time>2021-03-18T15:42:00.000Z</time>
      </trkpt>
      <trkpt lat="42.92608" lon="1.84289">
        <ele>577.7</ele>
        <time>2021-03-18T15:42:06.000Z</time>
      </trkpt>
      <trkpt lat="42.92599" lon="1.84284">
        <ele>577.9</ele>
        <time>2021-03-18T15:42:11.000Z</time>
      </trkpt>
      <trkpt lat="42.92589" lon="1.8428">
        <ele>577.9</ele>
        <time>2021-03-18T15:42:15.000Z</time>
      </trkpt>
      <trkpt lat="42.9258" lon="1.84275">
        <ele>577.9</ele>
        <time>2021-03-18T15:42:20.000Z</time>
      </trkpt>
      <trkpt lat="42.9257" lon="1.8427">
        <ele>577.9</ele>
        <time>2021-03-18T15:42:24.000Z</time>
      </trkpt>
      <trkpt lat="42.92562" lon="1.84262">
        <ele>578</ele>
        <time>2021-03-18T15:42:28.000Z</time>
      </trkpt>
      <trkpt lat="42.92554" lon="1.84252">
        <ele>578.1</ele>
        <time>2021-03-18T15:42:33.000Z</time>
      </trkpt>
      <trkpt lat="42.92547" lon="1.84242">
        <ele>578.2</ele>
        <time>2021-03-18T15:42:39.000Z</time>
      </trkpt>
      <trkpt lat="42.9254" lon="1.84232">
        <ele>578.4</ele>
        <time>2021-03-18T15:42:45.000Z</time>
      </trkpt>
      <trkpt lat="42.92532" lon="1.8422">
        <ele>578.5</ele>
        <time>2021-03-18T15:42:50.000Z</time>
      </trkpt>
      <trkpt lat="42.92525" lon="1.84212">
        <ele>578.6</ele>
        <time>2021-03-18T15:42:53.000Z</time>
      </trkpt>
      <trkpt lat="42.92516" lon="1.84202">
        <ele>578.5</ele>
        <time>2021-03-18T15:42:56.000Z</time>
      </trkpt>
      <trkpt lat="42.92507" lon="1.84197">
        <ele>578.6</ele>
        <time>2021-03-18T15:42:59.000Z</time>
      </trkpt>
      <trkpt lat="42.92499" lon="1.8419">
        <ele>578.6</ele>
        <time>2021-03-18T15:43:02.000Z</time>
      </trkpt>
      <trkpt lat="42.92489" lon="1.84185">
        <ele>578.6</ele>
        <time>2021-03-18T15:43:06.000Z</time>
      </trkpt>
      <trkpt lat="42.92478" lon="1.84182">
        <ele>578.6</ele>
        <time>2021-03-18T15:43:11.000Z</time>
      </trkpt>
      <trkpt lat="42.92467" lon="1.84179">
        <ele>578.7</ele>
        <time>2021-03-18T15:43:16.000Z</time>
      </trkpt>
      <trkpt lat="42.92458" lon="1.8418">
        <ele>578.9</ele>
        <time>2021-03-18T15:43:20.000Z</time>
      </trkpt>
      <trkpt lat="42.92447" lon="1.84179">
        <ele>579.1</ele>
        <time>2021-03-18T15:43:25.000Z</time>
      </trkpt>
      <trkpt lat="42.92438" lon="1.84174">
        <ele>579.2</ele>
        <time>2021-03-18T15:43:29.000Z</time>
      </trkpt>
      <trkpt lat="42.92429" lon="1.84169">
        <ele>579.3</ele>
        <time>2021-03-18T15:43:33.000Z</time>
      </trkpt>
      <trkpt lat="42.92419" lon="1.84164">
        <ele>579.6</ele>
        <time>2021-03-18T15:43:38.000Z</time>
      </trkpt>
      <trkpt lat="42.9241" lon="1.84158">
        <ele>579.7</ele>
        <time>2021-03-18T15:43:42.000Z</time>
      </trkpt>
      <trkpt lat="42.92402" lon="1.84153">
        <ele>579.9</ele>
        <time>2021-03-18T15:43:47.000Z</time>
      </trkpt>
      <trkpt lat="42.92392" lon="1.84148">
        <ele>580.1</ele>
        <time>2021-03-18T15:43:52.000Z</time>
      </trkpt>
      <trkpt lat="42.92383" lon="1.84143">
        <ele>580.2</ele>
        <time>2021-03-18T15:43:57.000Z</time>
      </trkpt>
      <trkpt lat="42.92373" lon="1.84138">
        <ele>580.2</ele>
        <time>2021-03-18T15:44:02.000Z</time>
      </trkpt>
      <trkpt lat="42.92364" lon="1.84133">
        <ele>580.2</ele>
        <time>2021-03-18T15:44:06.000Z</time>
      </trkpt>
      <trkpt lat="42.92354" lon="1.84127">
        <ele>580.2</ele>
        <time>2021-03-18T15:44:10.000Z</time>
      </trkpt>
      <trkpt lat="42.92344" lon="1.8412">
        <ele>580.1</ele>
        <time>2021-03-18T15:44:14.000Z</time>
      </trkpt>
      <trkpt lat="42.92335" lon="1.84113">
        <ele>580.1</ele>
        <time>2021-03-18T15:44:18.000Z</time>
      </trkpt>
      <trkpt lat="42.92326" lon="1.84107">
        <ele>580.1</ele>
        <time>2021-03-18T15:44:23.000Z</time>
      </trkpt>
      <trkpt lat="42.92318" lon="1.84099">
        <ele>580.1</ele>
        <time>2021-03-18T15:44:27.000Z</time>
      </trkpt>
      <trkpt lat="42.92311" lon="1.84092">
        <ele>580.1</ele>
        <time>2021-03-18T15:44:30.000Z</time>
      </trkpt>
      <trkpt lat="42.92303" lon="1.84082">
        <ele>580.2</ele>
        <time>2021-03-18T15:44:34.000Z</time>
      </trkpt>
      <trkpt lat="42.92295" lon="1.84073">
        <ele>580.3</ele>
        <time>2021-03-18T15:44:39.000Z</time>
      </trkpt>
      <trkpt lat="42.92288" lon="1.84064">
        <ele>580.3</ele>
        <time>2021-03-18T15:44:44.000Z</time>
      </trkpt>
      <trkpt lat="42.9228" lon="1.84055">
        <ele>580.5</ele>
        <time>2021-03-18T15:44:50.000Z</time>
      </trkpt>
      <trkpt lat="42.92274" lon="1.84046">
        <ele>580.7</ele>
        <time>2021-03-18T15:44:56.000Z</time>
      </trkpt>
      <trkpt lat="42.92265" lon="1.8404">
        <ele>580.9</ele>
        <time>2021-03-18T15:45:02.000Z</time>
      </trkpt>
      <trkpt lat="42.92257" lon="1.84033">
        <ele>580.9</ele>
        <time>2021-03-18T15:45:07.000Z</time>
      </trkpt>
      <trkpt lat="42.92249" lon="1.84026">
        <ele>580.9</ele>
        <time>2021-03-18T15:45:13.000Z</time>
      </trkpt>
      <trkpt lat="42.92241" lon="1.84018">
        <ele>580.9</ele>
        <time>2021-03-18T15:45:19.000Z</time>
      </trkpt>
      <trkpt lat="42.92234" lon="1.84008">
        <ele>581</ele>
        <time>2021-03-18T15:45:26.000Z</time>
      </trkpt>
      <trkpt lat="42.92228" lon="1.83996">
        <ele>581.1</ele>
        <time>2021-03-18T15:45:32.000Z</time>
      </trkpt>
      <trkpt lat="42.92221" lon="1.83988">
        <ele>581.2</ele>
        <time>2021-03-18T15:45:38.000Z</time>
      </trkpt>
      <trkpt lat="42.92214" lon="1.8398">
        <ele>581.4</ele>
        <time>2021-03-18T15:45:45.000Z</time>
      </trkpt>
      <trkpt lat="42.92205" lon="1.83974">
        <ele>581.8</ele>
        <time>2021-03-18T15:45:52.000Z</time>
      </trkpt>
      <trkpt lat="42.92204" lon="1.83959">
        <ele>581.9</ele>
        <time>2021-03-18T15:45:59.000Z</time>
      </trkpt>
      <trkpt lat="42.9221" lon="1.83947">
        <ele>582.2</ele>
        <time>2021-03-18T15:46:04.000Z</time>
      </trkpt>
      <trkpt lat="42.92213" lon="1.83933">
        <ele>582.9</ele>
        <time>2021-03-18T15:46:10.000Z</time>
      </trkpt>
      <trkpt lat="42.9222" lon="1.83923">
        <ele>585.1</ele>
        <time>2021-03-18T15:46:34.000Z</time>
      </trkpt>
      <trkpt lat="42.92217" lon="1.83911">
        <ele>585.4</ele>
        <time>2021-03-18T15:46:57.000Z</time>
      </trkpt>
      <trkpt lat="42.92221" lon="1.83896">
        <ele>585.5</ele>
        <time>2021-03-18T15:47:01.000Z</time>
      </trkpt>
      <trkpt lat="42.92228" lon="1.83886">
        <ele>585.7</ele>
        <time>2021-03-18T15:47:06.000Z</time>
      </trkpt>
      <trkpt lat="42.92235" lon="1.83875">
        <ele>585.9</ele>
        <time>2021-03-18T15:47:57.000Z</time>
      </trkpt>
      <trkpt lat="42.92239" lon="1.83864">
        <ele>585.8</ele>
        <time>2021-03-18T15:48:01.000Z</time>
      </trkpt>
      <trkpt lat="42.92238" lon="1.83851">
        <ele>585.7</ele>
        <time>2021-03-18T15:48:05.000Z</time>
      </trkpt>
      <trkpt lat="42.92235" lon="1.83839">
        <ele>585.5</ele>
        <time>2021-03-18T15:48:10.000Z</time>
      </trkpt>
      <trkpt lat="42.92225" lon="1.83834">
        <ele>585.5</ele>
        <time>2021-03-18T15:48:15.000Z</time>
      </trkpt>
      <trkpt lat="42.92216" lon="1.83829">
        <ele>585.5</ele>
        <time>2021-03-18T15:48:18.000Z</time>
      </trkpt>
      <trkpt lat="42.92204" lon="1.83825">
        <ele>585.5</ele>
        <time>2021-03-18T15:48:21.000Z</time>
      </trkpt>
      <trkpt lat="42.92192" lon="1.83818">
        <ele>585.5</ele>
        <time>2021-03-18T15:48:24.000Z</time>
      </trkpt>
      <trkpt lat="42.92179" lon="1.83811">
        <ele>585.6</ele>
        <time>2021-03-18T15:48:27.000Z</time>
      </trkpt>
      <trkpt lat="42.92171" lon="1.83803">
        <ele>585.7</ele>
        <time>2021-03-18T15:48:30.000Z</time>
      </trkpt>
      <trkpt lat="42.92163" lon="1.83796">
        <ele>585.8</ele>
        <time>2021-03-18T15:48:34.000Z</time>
      </trkpt>
      <trkpt lat="42.92153" lon="1.83791">
        <ele>586</ele>
        <time>2021-03-18T15:48:39.000Z</time>
      </trkpt>
      <trkpt lat="42.92145" lon="1.83784">
        <ele>586.1</ele>
        <time>2021-03-18T15:48:44.000Z</time>
      </trkpt>
      <trkpt lat="42.92136" lon="1.83779">
        <ele>586.2</ele>
        <time>2021-03-18T15:48:49.000Z</time>
      </trkpt>
      <trkpt lat="42.92127" lon="1.83774">
        <ele>586.3</ele>
        <time>2021-03-18T15:48:53.000Z</time>
      </trkpt>
      <trkpt lat="42.92119" lon="1.83767">
        <ele>586.3</ele>
        <time>2021-03-18T15:48:58.000Z</time>
      </trkpt>
      <trkpt lat="42.92109" lon="1.83761">
        <ele>586.2</ele>
        <time>2021-03-18T15:49:03.000Z</time>
      </trkpt>
      <trkpt lat="42.921" lon="1.83756">
        <ele>586.3</ele>
        <time>2021-03-18T15:49:09.000Z</time>
      </trkpt>
      <trkpt lat="42.92092" lon="1.8375">
        <ele>586.3</ele>
        <time>2021-03-18T15:49:13.000Z</time>
      </trkpt>
      <trkpt lat="42.92084" lon="1.83743">
        <ele>586.2</ele>
        <time>2021-03-18T15:49:17.000Z</time>
      </trkpt>
      <trkpt lat="42.92076" lon="1.83735">
        <ele>586.2</ele>
        <time>2021-03-18T15:49:21.000Z</time>
      </trkpt>
      <trkpt lat="42.92068" lon="1.83726">
        <ele>586.3</ele>
        <time>2021-03-18T15:49:25.000Z</time>
      </trkpt>
      <trkpt lat="42.92062" lon="1.83718">
        <ele>586.4</ele>
        <time>2021-03-18T15:49:29.000Z</time>
      </trkpt>
      <trkpt lat="42.92054" lon="1.8371">
        <ele>586.5</ele>
        <time>2021-03-18T15:49:34.000Z</time>
      </trkpt>
      <trkpt lat="42.92047" lon="1.83702">
        <ele>586.7</ele>
        <time>2021-03-18T15:49:40.000Z</time>
      </trkpt>
      <trkpt lat="42.92039" lon="1.83693">
        <ele>586.8</ele>
        <time>2021-03-18T15:49:46.000Z</time>
      </trkpt>
      <trkpt lat="42.92031" lon="1.83685">
        <ele>586.9</ele>
        <time>2021-03-18T15:49:52.000Z</time>
      </trkpt>
      <trkpt lat="42.92025" lon="1.83675">
        <ele>586.9</ele>
        <time>2021-03-18T15:49:58.000Z</time>
      </trkpt>
      <trkpt lat="42.92017" lon="1.83668">
        <ele>587.1</ele>
        <time>2021-03-18T15:50:04.000Z</time>
      </trkpt>
      <trkpt lat="42.92008" lon="1.83661">
        <ele>587.2</ele>
        <time>2021-03-18T15:50:13.000Z</time>
      </trkpt>
      <trkpt lat="42.92" lon="1.83654">
        <ele>587.4</ele>
        <time>2021-03-18T15:50:20.000Z</time>
      </trkpt>
      <trkpt lat="42.91992" lon="1.83647">
        <ele>587.5</ele>
        <time>2021-03-18T15:50:26.000Z</time>
      </trkpt>
      <trkpt lat="42.91984" lon="1.83641">
        <ele>587.7</ele>
        <time>2021-03-18T15:50:32.000Z</time>
      </trkpt>
      <trkpt lat="42.91975" lon="1.83634">
        <ele>587.8</ele>
        <time>2021-03-18T15:50:39.000Z</time>
      </trkpt>
      <trkpt lat="42.91967" lon="1.83625">
        <ele>588</ele>
        <time>2021-03-18T15:50:45.000Z</time>
      </trkpt>
      <trkpt lat="42.91959" lon="1.83618">
        <ele>588.1</ele>
        <time>2021-03-18T15:50:51.000Z</time>
      </trkpt>
      <trkpt lat="42.91951" lon="1.83608">
        <ele>588.1</ele>
        <time>2021-03-18T15:50:57.000Z</time>
      </trkpt>
      <trkpt lat="42.91942" lon="1.83601">
        <ele>588.1</ele>
        <time>2021-03-18T15:51:03.000Z</time>
      </trkpt>
      <trkpt lat="42.91932" lon="1.836">
        <ele>588.2</ele>
        <time>2021-03-18T15:51:08.000Z</time>
      </trkpt>
      <trkpt lat="42.91923" lon="1.83592">
        <ele>588.2</ele>
        <time>2021-03-18T15:51:13.000Z</time>
      </trkpt>
      <trkpt lat="42.91915" lon="1.836">
        <ele>588.1</ele>
        <time>2021-03-18T15:51:21.000Z</time>
      </trkpt>
      <trkpt lat="42.91913" lon="1.83587">
        <ele>587.9</ele>
        <time>2021-03-18T15:51:27.000Z</time>
      </trkpt>
      <trkpt lat="42.91914" lon="1.83587">
        <ele>587.8</ele>
        <time>2021-03-18T15:51:38.000Z</time>
      </trkpt>
    </trkseg>
  </trk>
</gpx>